<?xml version='1.0' encoding='UTF-8'?><gpx version="1.1" creator="JPX - https://github.com/jenetics/jpx" xmlns="http://www.topografix.com/GPX/1/1"><trk><trkseg><trkpt lat="43.31122161884128" lon="10.523244344078696"><ele>15.0</ele><time>2026-04-19T05:19:28.345Z</time></trkpt><trkpt lat="43.31115269481118" lon="10.523267536124402"><ele>15.0</ele><time>2026-04-19T05:19:34.047Z</time></trkpt><trkpt lat="43.31110899003282" lon="10.523345530218643"><ele>15.0</ele><time>2026-04-19T05:19:39.998Z</time></trkpt><trkpt lat="43.31104545093489" lon="10.52337606394577"><ele>15.0</ele><time>2026-04-19T05:19:45.999Z</time></trkpt><trkpt lat="43.310977401643555" lon="10.523393116229641"><ele>15.0</ele><time>2026-04-19T05:19:52Z</time></trkpt><trkpt lat="43.31091403786168" lon="10.523399259208357"><ele>15.0</ele><time>2026-04-19T05:19:57Z</time></trkpt><trkpt lat="43.3108514435125" lon="10.523430617240157"><ele>15.0</ele><time>2026-04-19T05:20:01.001Z</time></trkpt><trkpt lat="43.31077849467987" lon="10.523465448230803"><ele>15.0</ele><time>2026-04-19T05:20:06.001Z</time></trkpt><trkpt lat="43.31072112651229" lon="10.523512945977425"><ele>15.0</ele><time>2026-04-19T05:20:10.001Z</time></trkpt><trkpt lat="43.31065937391616" lon="10.523490271209743"><ele>15.0</ele><time>2026-04-19T05:20:24.001Z</time></trkpt><trkpt lat="43.31060996230275" lon="10.52341486675668"><ele>15.0</ele><time>2026-04-19T05:20:34.002Z</time></trkpt><trkpt lat="43.31056355244509" lon="10.523354996537497"><ele>15.0</ele><time>2026-04-19T05:20:40.002Z</time></trkpt><trkpt lat="43.310512438981824" lon="10.523290341011826"><ele>15.0</ele><time>2026-04-19T05:20:45.002Z</time></trkpt><trkpt lat="43.310504279898346" lon="10.52319769855032"><ele>15.0</ele><time>2026-04-19T05:20:50.002Z</time></trkpt><trkpt lat="43.31049235261377" lon="10.523109025112191"><ele>14.714285714285715</ele><time>2026-04-19T05:20:55.002Z</time></trkpt><trkpt lat="43.310459937850936" lon="10.523032235568582"><ele>14.428571428571427</ele><time>2026-04-19T05:21:00.002Z</time></trkpt><trkpt lat="43.310416798108" lon="10.52295615093665"><ele>14.142857142857142</ele><time>2026-04-19T05:21:05.002Z</time></trkpt><trkpt lat="43.31037337330696" lon="10.522881920331978"><ele>13.857142857142858</ele><time>2026-04-19T05:21:10.002Z</time></trkpt><trkpt lat="43.31035962872451" lon="10.522794354112548"><ele>13.571428571428573</ele><time>2026-04-19T05:21:15.002Z</time></trkpt><trkpt lat="43.31034515645967" lon="10.522697679068584"><ele>13.285714285714285</ele><time>2026-04-19T05:21:20.002Z</time></trkpt><trkpt lat="43.310325696395125" lon="10.522614356133575"><ele>13.0</ele><time>2026-04-19T05:21:24.002Z</time></trkpt><trkpt lat="43.31031435712876" lon="10.522508993168165"><ele>13.0</ele><time>2026-04-19T05:21:29.001Z</time></trkpt><trkpt lat="43.31034145232112" lon="10.522413870370517"><ele>13.0</ele><time>2026-04-19T05:21:32.001Z</time></trkpt><trkpt lat="43.31030949806792" lon="10.522315528491193"><ele>13.0</ele><time>2026-04-19T05:21:38.001Z</time></trkpt><trkpt lat="43.310303987714775" lon="10.5222210345462"><ele>13.0</ele><time>2026-04-19T05:21:43.001Z</time></trkpt><trkpt lat="43.31027308330174" lon="10.52212560735628"><ele>13.0</ele><time>2026-04-19T05:21:48.001Z</time></trkpt><trkpt lat="43.31023130739579" lon="10.522046605333152"><ele>13.0</ele><time>2026-04-19T05:21:53.001Z</time></trkpt><trkpt lat="43.31019823532617" lon="10.521962079091297"><ele>13.0</ele><time>2026-04-19T05:21:58.001Z</time></trkpt><trkpt lat="43.31018870003168" lon="10.521872652134702"><ele>13.0</ele><time>2026-04-19T05:22:03.001Z</time></trkpt><trkpt lat="43.310163317885255" lon="10.521786194827955"><ele>13.0</ele><time>2026-04-19T05:22:08.001Z</time></trkpt><trkpt lat="43.310126723722895" lon="10.52170538949163"><ele>13.0</ele><time>2026-04-19T05:22:15.001Z</time></trkpt><trkpt lat="43.310105857276525" lon="10.521617333037977"><ele>13.0</ele><time>2026-04-19T05:22:18.001Z</time></trkpt><trkpt lat="43.31006311432249" lon="10.5215453582896"><ele>13.0</ele><time>2026-04-19T05:22:24.001Z</time></trkpt><trkpt lat="43.31002260294169" lon="10.521455690746347"><ele>13.0</ele><time>2026-04-19T05:22:30.001Z</time></trkpt><trkpt lat="43.31001024277053" lon="10.521318631213527"><ele>13.0</ele><time>2026-04-19T05:22:34.001Z</time></trkpt><trkpt lat="43.3100044667551" lon="10.52121688689036"><ele>12.999999999999998</ele><time>2026-04-19T05:22:38.001Z</time></trkpt><trkpt lat="43.30994754170284" lon="10.52116608835221"><ele>13.0</ele><time>2026-04-19T05:22:49.001Z</time></trkpt><trkpt lat="43.309905539712204" lon="10.521077040399593"><ele>13.0</ele><time>2026-04-19T05:22:55.001Z</time></trkpt><trkpt lat="43.30987479850743" lon="10.520995763367333"><ele>13.0</ele><time>2026-04-19T05:22:58.001Z</time></trkpt><trkpt lat="43.30983043179151" lon="10.520912227271399"><ele>12.999999999999998</ele><time>2026-04-19T05:23:02.001Z</time></trkpt><trkpt lat="43.309791843055514" lon="10.520835419939695"><ele>13.0</ele><time>2026-04-19T05:23:09.001Z</time></trkpt><trkpt lat="43.309816491890615" lon="10.52070681526519"><ele>13.0</ele><time>2026-04-19T05:23:11.001Z</time></trkpt><trkpt lat="43.309823870180054" lon="10.520619212198401"><ele>13.0</ele><time>2026-04-19T05:23:14.001Z</time></trkpt><trkpt lat="43.30976459988906" lon="10.52056184588911"><ele>13.0</ele><time>2026-04-19T05:23:21.001Z</time></trkpt><trkpt lat="43.3097342005254" lon="10.52048108472103"><ele>13.0</ele><time>2026-04-19T05:23:26.001Z</time></trkpt><trkpt lat="43.30972193415507" lon="10.520374511921567"><ele>13.0</ele><time>2026-04-19T05:23:30.001Z</time></trkpt><trkpt lat="43.30969195464546" lon="10.520282890146419"><ele>13.0</ele><time>2026-04-19T05:23:35.001Z</time></trkpt><trkpt lat="43.309672622173075" lon="10.520197828653176"><ele>13.0</ele><time>2026-04-19T05:23:39.001Z</time></trkpt><trkpt lat="43.30964236964258" lon="10.520109302848487"><ele>12.857142857142856</ele><time>2026-04-19T05:23:44.001Z</time></trkpt><trkpt lat="43.30963007741303" lon="10.520004554626878"><ele>12.714285714285715</ele><time>2026-04-19T05:23:47.001Z</time></trkpt><trkpt lat="43.30959762471476" lon="10.519920679983679"><ele>12.571428571428571</ele><time>2026-04-19T05:23:52.001Z</time></trkpt><trkpt lat="43.30956341842071" lon="10.51983475017521"><ele>12.428571428571427</ele><time>2026-04-19T05:23:58.001Z</time></trkpt><trkpt lat="43.3095368802593" lon="10.51973524707957"><ele>12.285714285714285</ele><time>2026-04-19T05:24:04.001Z</time></trkpt><trkpt lat="43.30952769315574" lon="10.519629970731756"><ele>12.142857142857142</ele><time>2026-04-19T05:24:09.001Z</time></trkpt><trkpt lat="43.30951576268181" lon="10.519536892716864"><ele>12.0</ele><time>2026-04-19T05:24:13.001Z</time></trkpt><trkpt lat="43.30945307081703" lon="10.519505083168887"><ele>11.857142857142856</ele><time>2026-04-19T05:24:18.001Z</time></trkpt><trkpt lat="43.309412526217336" lon="10.519434057337639"><ele>11.714285714285714</ele><time>2026-04-19T05:24:24.001Z</time></trkpt><trkpt lat="43.30941151240297" lon="10.519325324610309"><ele>11.571428571428571</ele><time>2026-04-19T05:24:28.001Z</time></trkpt><trkpt lat="43.30940559335394" lon="10.519234046561813"><ele>11.428571428571427</ele><time>2026-04-19T05:24:31.001Z</time></trkpt><trkpt lat="43.30936302478484" lon="10.519157293913954"><ele>11.285714285714285</ele><time>2026-04-19T05:24:37.001Z</time></trkpt><trkpt lat="43.30934277421947" lon="10.519062835571201"><ele>11.142857142857142</ele><time>2026-04-19T05:24:41.001Z</time></trkpt><trkpt lat="43.30932520890011" lon="10.518957303699185"><ele>11.0</ele><time>2026-04-19T05:24:45.001Z</time></trkpt><trkpt lat="43.30929977042004" lon="10.51886797608448"><ele>11.0</ele><time>2026-04-19T05:24:51.001Z</time></trkpt><trkpt lat="43.30924899990726" lon="10.518787717734345"><ele>11.0</ele><time>2026-04-19T05:24:57.001Z</time></trkpt><trkpt lat="43.309213573296205" lon="10.518695545820869"><ele>11.0</ele><time>2026-04-19T05:25:02.001Z</time></trkpt><trkpt lat="43.30920255482049" lon="10.518597429892589"><ele>11.0</ele><time>2026-04-19T05:25:06.001Z</time></trkpt><trkpt lat="43.30921678576082" lon="10.518507818779428"><ele>11.0</ele><time>2026-04-19T05:25:15.001Z</time></trkpt><trkpt lat="43.30919882630493" lon="10.518424342005483"><ele>11.0</ele><time>2026-04-19T05:25:47.001Z</time></trkpt><trkpt lat="43.309116908679364" lon="10.518260677159603"><ele>11.142857142857142</ele><time>2026-04-19T05:26:11.001Z</time></trkpt><trkpt lat="43.30910088053523" lon="10.518172687718883"><ele>11.285714285714285</ele><time>2026-04-19T05:26:15.201Z</time></trkpt><trkpt lat="43.30909251956634" lon="10.518082195489914"><ele>11.428571428571427</ele><time>2026-04-19T05:26:27.001Z</time></trkpt><trkpt lat="43.30914316312169" lon="10.518013782378164"><ele>11.571428571428571</ele><time>2026-04-19T05:26:37.301Z</time></trkpt><trkpt lat="43.30916842681398" lon="10.517917533614801"><ele>11.714285714285714</ele><time>2026-04-19T05:26:43.001Z</time></trkpt><trkpt lat="43.309193343938176" lon="10.517829853161391"><ele>11.857142857142856</ele><time>2026-04-19T05:26:49.001Z</time></trkpt><trkpt lat="43.309226560929126" lon="10.517755898330044"><ele>12.0</ele><time>2026-04-19T05:26:54.001Z</time></trkpt><trkpt lat="43.309243168777186" lon="10.517658542930512"><ele>12.428571428571427</ele><time>2026-04-19T05:27:00.001Z</time></trkpt><trkpt lat="43.30918641821998" lon="10.51758447885409"><ele>12.857142857142858</ele><time>2026-04-19T05:27:07.001Z</time></trkpt><trkpt lat="43.309158306422844" lon="10.517500424473397"><ele>13.285714285714285</ele><time>2026-04-19T05:27:10.001Z</time></trkpt><trkpt lat="43.30913620874107" lon="10.517415619283533"><ele>13.714285714285714</ele><time>2026-04-19T05:27:14.001Z</time></trkpt><trkpt lat="43.309176580483864" lon="10.51734544415912"><ele>14.142857142857142</ele><time>2026-04-19T05:27:17.001Z</time></trkpt><trkpt lat="43.30917008815242" lon="10.517238898222539"><ele>14.571428571428571</ele><time>2026-04-19T05:27:22.001Z</time></trkpt><trkpt lat="43.3091150121425" lon="10.517176008515175"><ele>15.0</ele><time>2026-04-19T05:27:26.001Z</time></trkpt><trkpt lat="43.30910384539752" lon="10.517087436270288"><ele>14.571428571428571</ele><time>2026-04-19T05:27:33.001Z</time></trkpt><trkpt lat="43.30905726403888" lon="10.516999049963125"><ele>14.142857142857142</ele><time>2026-04-19T05:27:41.001Z</time></trkpt><trkpt lat="43.30902963369919" lon="10.516898670251997"><ele>13.714285714285714</ele><time>2026-04-19T05:27:46.001Z</time></trkpt><trkpt lat="43.30902664591651" lon="10.516799279948797"><ele>13.285714285714285</ele><time>2026-04-19T05:27:51.001Z</time></trkpt><trkpt lat="43.309006656475354" lon="10.516707501270616"><ele>12.857142857142858</ele><time>2026-04-19T05:27:56.001Z</time></trkpt><trkpt lat="43.30897178214933" lon="10.516631390911062"><ele>12.428571428571427</ele><time>2026-04-19T05:28:01.001Z</time></trkpt><trkpt lat="43.3089629229629" lon="10.516534054237123"><ele>12.0</ele><time>2026-04-19T05:28:48.001Z</time></trkpt><trkpt lat="43.308950896382306" lon="10.516436991824149"><ele>12.0</ele><time>2026-04-19T05:29:06.001Z</time></trkpt><trkpt lat="43.30900791748656" lon="10.516281355949333"><ele>12.0</ele><time>2026-04-19T05:29:18.001Z</time></trkpt><trkpt lat="43.30891878425398" lon="10.516330916967071"><ele>12.0</ele><time>2026-04-19T05:30:25.001Z</time></trkpt><trkpt lat="43.30886766136809" lon="10.516396950405472"><ele>12.0</ele><time>2026-04-19T05:30:33.001Z</time></trkpt><trkpt lat="43.30894086092297" lon="10.516408853664714"><ele>12.0</ele><time>2026-04-19T05:31:11Z</time></trkpt><trkpt lat="43.30890874661793" lon="10.516486166443428"><ele>12.0</ele><time>2026-04-19T05:31:17Z</time></trkpt><trkpt lat="43.30886417850346" lon="10.516548364357728"><ele>12.0</ele><time>2026-04-19T05:31:24Z</time></trkpt><trkpt lat="43.308952349993746" lon="10.516518829726001"><ele>12.0</ele><time>2026-04-19T05:31:35Z</time></trkpt><trkpt lat="43.30888226210934" lon="10.516557044137722"><ele>12.0</ele><time>2026-04-19T05:31:49Z</time></trkpt><trkpt lat="43.308965306733995" lon="10.51643491829735"><ele>12.0</ele><time>2026-04-19T05:31:56Z</time></trkpt><trkpt lat="43.30894106681829" lon="10.516349328120059"><ele>12.0</ele><time>2026-04-19T05:32:05Z</time></trkpt><trkpt lat="43.308870757975015" lon="10.51632271969646"><ele>12.0</ele><time>2026-04-19T05:32:14Z</time></trkpt><trkpt lat="43.30886864641036" lon="10.516235572431606"><ele>11.571428571428571</ele><time>2026-04-19T05:32:17Z</time></trkpt><trkpt lat="43.30893634536214" lon="10.516191190553204"><ele>11.142857142857142</ele><time>2026-04-19T05:32:33Z</time></trkpt><trkpt lat="43.308993694117866" lon="10.516153798403359"><ele>10.714285714285715</ele><time>2026-04-19T05:32:38Z</time></trkpt><trkpt lat="43.30904140813786" lon="10.51609454165964"><ele>10.285714285714285</ele><time>2026-04-19T05:32:42Z</time></trkpt><trkpt lat="43.3091030138358" lon="10.516044733121243"><ele>9.857142857142858</ele><time>2026-04-19T05:32:48Z</time></trkpt><trkpt lat="43.30917154056586" lon="10.51600649445614"><ele>9.428571428571429</ele><time>2026-04-19T05:32:54Z</time></trkpt><trkpt lat="43.30923903117828" lon="10.515974663823163"><ele>9.0</ele><time>2026-04-19T05:32:59Z</time></trkpt><trkpt lat="43.309294388797014" lon="10.515894410360051"><ele>9.000000000000002</ele><time>2026-04-19T05:33:02Z</time></trkpt><trkpt lat="43.30933263615699" lon="10.515802248201473"><ele>9.0</ele><time>2026-04-19T05:33:06Z</time></trkpt><trkpt lat="43.30937841041885" lon="10.515726066594283"><ele>9.0</ele><time>2026-04-19T05:33:12Z</time></trkpt><trkpt lat="43.30943190849308" lon="10.5156785483338"><ele>9.0</ele><time>2026-04-19T05:33:16Z</time></trkpt><trkpt lat="43.30944668736116" lon="10.515593566336419"><ele>9.0</ele><time>2026-04-19T05:33:20Z</time></trkpt><trkpt lat="43.30946031468268" lon="10.515502053269259"><ele>9.000000000000002</ele><time>2026-04-19T05:33:25Z</time></trkpt><trkpt lat="43.30944920302385" lon="10.515408987952858"><ele>9.0</ele><time>2026-04-19T05:33:30Z</time></trkpt><trkpt lat="43.3094294937067" lon="10.515306603861076"><ele>9.0</ele><time>2026-04-19T05:33:35Z</time></trkpt><trkpt lat="43.30941516231822" lon="10.515209342643493"><ele>9.0</ele><time>2026-04-19T05:33:39Z</time></trkpt><trkpt lat="43.30941235471051" lon="10.515109636320894"><ele>9.0</ele><time>2026-04-19T05:33:43Z</time></trkpt><trkpt lat="43.30941642100956" lon="10.515018620394722"><ele>9.0</ele><time>2026-04-19T05:33:47Z</time></trkpt><trkpt lat="43.30939569218255" lon="10.514472438080244"><ele>8.833333333333334</ele><time>2026-04-19T05:34:21.7Z</time></trkpt><trkpt lat="43.309279467595054" lon="10.514425656190578"><ele>8.666666666666666</ele><time>2026-04-19T05:34:22.65Z</time></trkpt><trkpt lat="43.309212668727575" lon="10.514392871860199"><ele>8.5</ele><time>2026-04-19T05:34:24.55Z</time></trkpt><trkpt lat="43.309186353444105" lon="10.514290867402048"><ele>8.333333333333332</ele><time>2026-04-19T05:34:31.2Z</time></trkpt><trkpt lat="43.30917479288386" lon="10.514195869162048"><ele>8.166666666666666</ele><time>2026-04-19T05:34:36Z</time></trkpt><trkpt lat="43.309136955716376" lon="10.514113525302465"><ele>8.0</ele><time>2026-04-19T05:34:42Z</time></trkpt><trkpt lat="43.30906329268092" lon="10.51412199912639"><ele>8.0</ele><time>2026-04-19T05:34:48Z</time></trkpt><trkpt lat="43.30900164724846" lon="10.514091885253308"><ele>7.999999999999999</ele><time>2026-04-19T05:34:55Z</time></trkpt><trkpt lat="43.308957274966055" lon="10.514011591463836"><ele>8.0</ele><time>2026-04-19T05:35:00Z</time></trkpt><trkpt lat="43.30892520856209" lon="10.513936290378169"><ele>8.0</ele><time>2026-04-19T05:35:05Z</time></trkpt><trkpt lat="43.308896535818285" lon="10.513841015119278"><ele>7.999999999999999</ele><time>2026-04-19T05:35:10Z</time></trkpt><trkpt lat="43.30887894332202" lon="10.513751789788202"><ele>8.0</ele><time>2026-04-19T05:35:15Z</time></trkpt><trkpt lat="43.308863389172146" lon="10.513657014933955"><ele>8.0</ele><time>2026-04-19T05:35:20Z</time></trkpt><trkpt lat="43.30883483032787" lon="10.513563705494773"><ele>8.0</ele><time>2026-04-19T05:35:25Z</time></trkpt><trkpt lat="43.30881911808499" lon="10.513479825233523"><ele>7.999999999999999</ele><time>2026-04-19T05:35:30Z</time></trkpt><trkpt lat="43.308777129401804" lon="10.513410762819605"><ele>8.0</ele><time>2026-04-19T05:35:34Z</time></trkpt><trkpt lat="43.30872415108532" lon="10.513344736808849"><ele>8.0</ele><time>2026-04-19T05:35:38Z</time></trkpt><trkpt lat="43.30867212561824" lon="10.513249597454928"><ele>7.999999999999999</ele><time>2026-04-19T05:35:42Z</time></trkpt><trkpt lat="43.30863676604074" lon="10.513168665113659"><ele>8.0</ele><time>2026-04-19T05:35:45Z</time></trkpt><trkpt lat="43.308592302261815" lon="10.513097619607205"><ele>8.0</ele><time>2026-04-19T05:35:50Z</time></trkpt><trkpt lat="43.308547318075476" lon="10.513030764085082"><ele>8.0</ele><time>2026-04-19T05:35:54Z</time></trkpt><trkpt lat="43.30850461374665" lon="10.512951260106467"><ele>7.999999999999999</ele><time>2026-04-19T05:35:58Z</time></trkpt><trkpt lat="43.308495289625746" lon="10.512865655753185"><ele>8.0</ele><time>2026-04-19T05:36:04Z</time></trkpt><trkpt lat="43.30844832509158" lon="10.512790138292953"><ele>8.0</ele><time>2026-04-19T05:36:09Z</time></trkpt><trkpt lat="43.308411100735626" lon="10.512711803594202"><ele>7.999999999999999</ele><time>2026-04-19T05:36:14Z</time></trkpt><trkpt lat="43.308395982739206" lon="10.512610495074837"><ele>8.0</ele><time>2026-04-19T05:36:18Z</time></trkpt><trkpt lat="43.30835214247014" lon="10.512525402568759"><ele>8.0</ele><time>2026-04-19T05:36:22Z</time></trkpt><trkpt lat="43.30830118964578" lon="10.51243664599412"><ele>7.857142857142857</ele><time>2026-04-19T05:36:26Z</time></trkpt><trkpt lat="43.30825387842701" lon="10.512362828636334"><ele>7.7142857142857135</ele><time>2026-04-19T05:36:30Z</time></trkpt><trkpt lat="43.308226204907136" lon="10.512277521853253"><ele>7.571428571428571</ele><time>2026-04-19T05:36:36Z</time></trkpt><trkpt lat="43.30819896569893" lon="10.51219479194921"><ele>7.428571428571429</ele><time>2026-04-19T05:36:44Z</time></trkpt><trkpt lat="43.30818444394311" lon="10.51211023238041"><ele>7.285714285714286</ele><time>2026-04-19T05:36:49Z</time></trkpt><trkpt lat="43.30815693597677" lon="10.51202878017172"><ele>7.142857142857142</ele><time>2026-04-19T05:36:53Z</time></trkpt><trkpt lat="43.30810355178346" lon="10.511981765497712"><ele>7.0</ele><time>2026-04-19T05:36:56Z</time></trkpt><trkpt lat="43.30806586765981" lon="10.511909049979401"><ele>7.0</ele><time>2026-04-19T05:37:01Z</time></trkpt><trkpt lat="43.308032821869695" lon="10.511829326514611"><ele>7.0</ele><time>2026-04-19T05:37:05Z</time></trkpt><trkpt lat="43.30799673198385" lon="10.511747997703786"><ele>7.0</ele><time>2026-04-19T05:37:08Z</time></trkpt><trkpt lat="43.307954111183605" lon="10.511668828582852"><ele>7.0</ele><time>2026-04-19T05:37:12Z</time></trkpt><trkpt lat="43.307922679262084" lon="10.511589655217026"><ele>7.0</ele><time>2026-04-19T05:37:17Z</time></trkpt><trkpt lat="43.30787557080362" lon="10.51152725390425"><ele>7.0</ele><time>2026-04-19T05:37:22Z</time></trkpt><trkpt lat="43.30784250451476" lon="10.511445577392212"><ele>7.0</ele><time>2026-04-19T05:37:27Z</time></trkpt><trkpt lat="43.30780149781852" lon="10.511369453351977"><ele>7.0</ele><time>2026-04-19T05:37:32Z</time></trkpt><trkpt lat="43.307771519778136" lon="10.511274606504522"><ele>7.0</ele><time>2026-04-19T05:37:37Z</time></trkpt><trkpt lat="43.307728571915234" lon="10.511188108991643"><ele>7.0</ele><time>2026-04-19T05:37:41Z</time></trkpt><trkpt lat="43.30769429662028" lon="10.51110625737519"><ele>7.0</ele><time>2026-04-19T05:37:45Z</time></trkpt><trkpt lat="43.30763740585352" lon="10.511025912449574"><ele>7.0</ele><time>2026-04-19T05:37:50Z</time></trkpt><trkpt lat="43.307590807603425" lon="10.510948995197957"><ele>7.0</ele><time>2026-04-19T05:37:55Z</time></trkpt><trkpt lat="43.307552877471345" lon="10.510878624070262"><ele>7.0</ele><time>2026-04-19T05:37:59Z</time></trkpt><trkpt lat="43.30752110857542" lon="10.510801680546203"><ele>7.0</ele><time>2026-04-19T05:38:03Z</time></trkpt><trkpt lat="43.30748798380917" lon="10.510716276368433"><ele>7.0</ele><time>2026-04-19T05:38:07Z</time></trkpt><trkpt lat="43.30745492829855" lon="10.510625732439111"><ele>7.0</ele><time>2026-04-19T05:38:13Z</time></trkpt><trkpt lat="43.30741822102314" lon="10.51054694732528"><ele>7.0</ele><time>2026-04-19T05:38:18Z</time></trkpt><trkpt lat="43.3073720360069" lon="10.510462755631963"><ele>7.0</ele><time>2026-04-19T05:38:25Z</time></trkpt><trkpt lat="43.30732974001312" lon="10.510395987904255"><ele>7.0</ele><time>2026-04-19T05:38:30Z</time></trkpt><trkpt lat="43.3072792769679" lon="10.510330044141673"><ele>7.0</ele><time>2026-04-19T05:38:36Z</time></trkpt><trkpt lat="43.30724117008255" lon="10.510236772725523"><ele>7.0</ele><time>2026-04-19T05:38:40Z</time></trkpt><trkpt lat="43.307187372511954" lon="10.510163749167775"><ele>7.0</ele><time>2026-04-19T05:38:46Z</time></trkpt><trkpt lat="43.30715371998103" lon="10.510076849980322"><ele>7.0</ele><time>2026-04-19T05:38:54Z</time></trkpt><trkpt lat="43.30713914319171" lon="10.50997457888143"><ele>7.0</ele><time>2026-04-19T05:38:58Z</time></trkpt><trkpt lat="43.30710051196319" lon="10.509904317404397"><ele>7.0</ele><time>2026-04-19T05:39:01Z</time></trkpt><trkpt lat="43.30705145019775" lon="10.509827493267935"><ele>7.0</ele><time>2026-04-19T05:39:05Z</time></trkpt><trkpt lat="43.30700050481268" lon="10.509747728120022"><ele>7.0</ele><time>2026-04-19T05:39:10Z</time></trkpt><trkpt lat="43.30696437759835" lon="10.509670953420693"><ele>6.857142857142857</ele><time>2026-04-19T05:39:14Z</time></trkpt><trkpt lat="43.306949940209996" lon="10.509573171462856"><ele>6.714285714285714</ele><time>2026-04-19T05:39:19Z</time></trkpt><trkpt lat="43.306923966543195" lon="10.50948580929707"><ele>6.571428571428571</ele><time>2026-04-19T05:39:24Z</time></trkpt><trkpt lat="43.30687698312109" lon="10.509425791315344"><ele>6.428571428571429</ele><time>2026-04-19T05:39:29Z</time></trkpt><trkpt lat="43.30681894358091" lon="10.509359657278434"><ele>6.285714285714286</ele><time>2026-04-19T05:39:34Z</time></trkpt><trkpt lat="43.30678383560616" lon="10.509277419376382"><ele>6.142857142857142</ele><time>2026-04-19T05:39:39Z</time></trkpt><trkpt lat="43.306766306795375" lon="10.509182463882558"><ele>6.0</ele><time>2026-04-19T05:39:44Z</time></trkpt><trkpt lat="43.30672211216703" lon="10.50912057098632"><ele>5.999999999999999</ele><time>2026-04-19T05:39:47Z</time></trkpt><trkpt lat="43.30668586224979" lon="10.509049791519862"><ele>6.0</ele><time>2026-04-19T05:39:50Z</time></trkpt><trkpt lat="43.306641680719814" lon="10.508970789091547"><ele>6.0</ele><time>2026-04-19T05:39:54Z</time></trkpt><trkpt lat="43.30662266915301" lon="10.508887056700209"><ele>6.0</ele><time>2026-04-19T05:40:00Z</time></trkpt><trkpt lat="43.306588785442635" lon="10.508794689766622"><ele>6.0</ele><time>2026-04-19T05:40:07Z</time></trkpt><trkpt lat="43.306541008695824" lon="10.508723616701435"><ele>5.999999999999999</ele><time>2026-04-19T05:40:11Z</time></trkpt><trkpt lat="43.30646819919796" lon="10.508667905475603"><ele>6.0</ele><time>2026-04-19T05:40:15Z</time></trkpt><trkpt lat="43.306417870903324" lon="10.508613449360181"><ele>6.142857142857142</ele><time>2026-04-19T05:40:19Z</time></trkpt><trkpt lat="43.306390642848505" lon="10.508516755803956"><ele>6.285714285714286</ele><time>2026-04-19T05:40:25Z</time></trkpt><trkpt lat="43.30636462290124" lon="10.508437466612273"><ele>6.428571428571429</ele><time>2026-04-19T05:40:30Z</time></trkpt><trkpt lat="43.30633312497419" lon="10.508351370230205"><ele>6.571428571428571</ele><time>2026-04-19T05:40:35Z</time></trkpt><trkpt lat="43.30630403660586" lon="10.50827012318338"><ele>6.714285714285714</ele><time>2026-04-19T05:40:39Z</time></trkpt><trkpt lat="43.306274781520266" lon="10.50819093790746"><ele>6.857142857142857</ele><time>2026-04-19T05:40:43Z</time></trkpt><trkpt lat="43.30624426001984" lon="10.508106315612833"><ele>7.0</ele><time>2026-04-19T05:40:47Z</time></trkpt><trkpt lat="43.306213055126975" lon="10.508014572307648"><ele>7.0</ele><time>2026-04-19T05:40:53Z</time></trkpt><trkpt lat="43.30618552310131" lon="10.507929345154372"><ele>7.0</ele><time>2026-04-19T05:40:58Z</time></trkpt><trkpt lat="43.30610799948131" lon="10.507864778703837"><ele>7.0</ele><time>2026-04-19T05:41:02Z</time></trkpt><trkpt lat="43.30605134017937" lon="10.50781202953184"><ele>7.0</ele><time>2026-04-19T05:41:05Z</time></trkpt><trkpt lat="43.306022214368404" lon="10.507734821724672"><ele>7.0</ele><time>2026-04-19T05:41:12Z</time></trkpt><trkpt lat="43.30599480413098" lon="10.50765453452338"><ele>7.0</ele><time>2026-04-19T05:41:18Z</time></trkpt><trkpt lat="43.30597422866149" lon="10.507560142827002"><ele>7.0</ele><time>2026-04-19T05:41:22Z</time></trkpt><trkpt lat="43.30592697114005" lon="10.507473814744655"><ele>7.0</ele><time>2026-04-19T05:41:26Z</time></trkpt><trkpt lat="43.30588344970199" lon="10.507370470739495"><ele>7.0</ele><time>2026-04-19T05:41:31Z</time></trkpt><trkpt lat="43.3058496138254" lon="10.50728306536241"><ele>7.0</ele><time>2026-04-19T05:41:34Z</time></trkpt><trkpt lat="43.305799961569335" lon="10.507217228852658"><ele>7.0</ele><time>2026-04-19T05:41:37Z</time></trkpt><trkpt lat="43.30575589708234" lon="10.507150201267619"><ele>7.0</ele><time>2026-04-19T05:41:43Z</time></trkpt><trkpt lat="43.305722781817735" lon="10.507063180646103"><ele>7.0</ele><time>2026-04-19T05:41:48Z</time></trkpt><trkpt lat="43.30570680595628" lon="10.506970871284713"><ele>7.0</ele><time>2026-04-19T05:41:53Z</time></trkpt><trkpt lat="43.305663398292104" lon="10.506872643339285"><ele>6.857142857142857</ele><time>2026-04-19T05:41:59Z</time></trkpt><trkpt lat="43.30561340239268" lon="10.50681150514686"><ele>6.714285714285714</ele><time>2026-04-19T05:42:02Z</time></trkpt><trkpt lat="43.30556712154201" lon="10.506747862040932"><ele>6.571428571428571</ele><time>2026-04-19T05:42:06Z</time></trkpt><trkpt lat="43.3055342663044" lon="10.50667346680259"><ele>6.428571428571429</ele><time>2026-04-19T05:42:11Z</time></trkpt><trkpt lat="43.30553007673242" lon="10.506571375216762"><ele>6.285714285714286</ele><time>2026-04-19T05:42:17Z</time></trkpt><trkpt lat="43.30548350977218" lon="10.506497094619032"><ele>6.142857142857142</ele><time>2026-04-19T05:42:21Z</time></trkpt><trkpt lat="43.30544347843932" lon="10.506407935713744"><ele>6.0</ele><time>2026-04-19T05:42:27Z</time></trkpt><trkpt lat="43.30540821673505" lon="10.506334434375892"><ele>5.857142857142857</ele><time>2026-04-19T05:42:31Z</time></trkpt><trkpt lat="43.305366353573625" lon="10.506255107116015"><ele>5.714285714285714</ele><time>2026-04-19T05:42:35Z</time></trkpt><trkpt lat="43.30532175266139" lon="10.506188220576053"><ele>5.571428571428571</ele><time>2026-04-19T05:42:41Z</time></trkpt><trkpt lat="43.30527539278027" lon="10.506103817579664"><ele>5.428571428571429</ele><time>2026-04-19T05:42:47Z</time></trkpt><trkpt lat="43.30523523738456" lon="10.506016626372068"><ele>5.285714285714286</ele><time>2026-04-19T05:42:51Z</time></trkpt><trkpt lat="43.30518848762978" lon="10.505922711015817"><ele>5.142857142857142</ele><time>2026-04-19T05:42:55Z</time></trkpt><trkpt lat="43.30514856471055" lon="10.505834634049599"><ele>5.0</ele><time>2026-04-19T05:42:59Z</time></trkpt><trkpt lat="43.3051174753666" lon="10.505738995113818"><ele>4.857142857142857</ele><time>2026-04-19T05:43:09Z</time></trkpt><trkpt lat="43.30505199123631" lon="10.505661491905173"><ele>4.714285714285714</ele><time>2026-04-19T05:43:13Z</time></trkpt><trkpt lat="43.304998814975036" lon="10.505611414892613"><ele>4.571428571428571</ele><time>2026-04-19T05:43:15Z</time></trkpt><trkpt lat="43.30494370808978" lon="10.505543802820757"><ele>4.428571428571429</ele><time>2026-04-19T05:43:19Z</time></trkpt><trkpt lat="43.30491101636904" lon="10.505460106636905"><ele>4.285714285714286</ele><time>2026-04-19T05:43:23Z</time></trkpt><trkpt lat="43.3048896564427" lon="10.505376085573412"><ele>4.142857142857142</ele><time>2026-04-19T05:43:27Z</time></trkpt><trkpt lat="43.304862388747864" lon="10.50529117501573"><ele>4.0</ele><time>2026-04-19T05:43:32Z</time></trkpt><trkpt lat="43.304816462599625" lon="10.505208980604333"><ele>4.0</ele><time>2026-04-19T05:43:37Z</time></trkpt><trkpt lat="43.3047815522655" lon="10.505132589417997"><ele>3.9999999999999996</ele><time>2026-04-19T05:43:41Z</time></trkpt><trkpt lat="43.30477287964759" lon="10.505031436046051"><ele>4.0</ele><time>2026-04-19T05:43:46Z</time></trkpt><trkpt lat="43.30472694145223" lon="10.504957267221565"><ele>4.0</ele><time>2026-04-19T05:43:53Z</time></trkpt><trkpt lat="43.30468339813666" lon="10.504883093640776"><ele>3.9999999999999996</ele><time>2026-04-19T05:43:57Z</time></trkpt><trkpt lat="43.304644439174965" lon="10.504790391767107"><ele>4.0</ele><time>2026-04-19T05:44:02Z</time></trkpt><trkpt lat="43.30459720102056" lon="10.504707599813676"><ele>4.0</ele><time>2026-04-19T05:44:08Z</time></trkpt><trkpt lat="43.30455228595418" lon="10.504623991170812"><ele>4.0</ele><time>2026-04-19T05:44:13Z</time></trkpt><trkpt lat="43.304509583826786" lon="10.504543106964764"><ele>3.9999999999999996</ele><time>2026-04-19T05:44:17Z</time></trkpt><trkpt lat="43.30447524669011" lon="10.504461408517868"><ele>4.0</ele><time>2026-04-19T05:44:23Z</time></trkpt><trkpt lat="43.30442217768703" lon="10.504385615995657"><ele>4.0</ele><time>2026-04-19T05:44:28Z</time></trkpt><trkpt lat="43.304376189792336" lon="10.504302719590154"><ele>3.9999999999999996</ele><time>2026-04-19T05:44:32Z</time></trkpt><trkpt lat="43.30433136470071" lon="10.504218547781255"><ele>4.0</ele><time>2026-04-19T05:44:37Z</time></trkpt><trkpt lat="43.30427919155082" lon="10.504156907361473"><ele>4.0</ele><time>2026-04-19T05:44:41Z</time></trkpt><trkpt lat="43.3042434928781" lon="10.504071344321723"><ele>4.0</ele><time>2026-04-19T05:44:46Z</time></trkpt><trkpt lat="43.30422434659325" lon="10.503985657751565"><ele>3.9999999999999996</ele><time>2026-04-19T05:44:50Z</time></trkpt><trkpt lat="43.30419482267448" lon="10.503888617966972"><ele>4.0</ele><time>2026-04-19T05:44:55Z</time></trkpt><trkpt lat="43.30416464954265" lon="10.503799041465477"><ele>4.0</ele><time>2026-04-19T05:45:00Z</time></trkpt><trkpt lat="43.30415637250991" lon="10.503703935910723"><ele>3.9999999999999996</ele><time>2026-04-19T05:45:08Z</time></trkpt><trkpt lat="43.30411145773195" lon="10.503617642573735"><ele>4.0</ele><time>2026-04-19T05:45:13Z</time></trkpt><trkpt lat="43.304074968339485" lon="10.50354183151536"><ele>4.0</ele><time>2026-04-19T05:45:19Z</time></trkpt><trkpt lat="43.30402955645501" lon="10.503467588543458"><ele>4.0</ele><time>2026-04-19T05:45:23Z</time></trkpt><trkpt lat="43.30398935055503" lon="10.503398051563952"><ele>3.9999999999999996</ele><time>2026-04-19T05:45:27Z</time></trkpt><trkpt lat="43.30395155529551" lon="10.503320130266038"><ele>4.0</ele><time>2026-04-19T05:45:32Z</time></trkpt><trkpt lat="43.303911906527034" lon="10.503224587544615"><ele>4.0</ele><time>2026-04-19T05:45:37Z</time></trkpt><trkpt lat="43.30388159118303" lon="10.503131695459105"><ele>3.9999999999999996</ele><time>2026-04-19T05:45:41Z</time></trkpt><trkpt lat="43.303837684495356" lon="10.50304240165954"><ele>4.0</ele><time>2026-04-19T05:45:45Z</time></trkpt><trkpt lat="43.3038069822768" lon="10.502964581177263"><ele>4.0</ele><time>2026-04-19T05:45:51Z</time></trkpt><trkpt lat="43.30375412536769" lon="10.502903024975154"><ele>3.8571428571428568</ele><time>2026-04-19T05:45:55Z</time></trkpt><trkpt lat="43.303706369895366" lon="10.502836628348588"><ele>3.714285714285714</ele><time>2026-04-19T05:46:01Z</time></trkpt><trkpt lat="43.30365512540313" lon="10.502758397347872"><ele>3.571428571428571</ele><time>2026-04-19T05:46:07Z</time></trkpt><trkpt lat="43.30361430069401" lon="10.502686869696106"><ele>3.4285714285714284</ele><time>2026-04-19T05:46:11Z</time></trkpt><trkpt lat="43.30357881603258" lon="10.502599201948783"><ele>3.2857142857142856</ele><time>2026-04-19T05:46:15Z</time></trkpt><trkpt lat="43.303553875796275" lon="10.50250676038892"><ele>3.1428571428571423</ele><time>2026-04-19T05:46:21Z</time></trkpt><trkpt lat="43.303517842891736" lon="10.5024229301997"><ele>3.0</ele><time>2026-04-19T05:46:27Z</time></trkpt><trkpt lat="43.30346597139866" lon="10.502343787140791"><ele>2.9999999999999996</ele><time>2026-04-19T05:46:32Z</time></trkpt><trkpt lat="43.303421226392764" lon="10.502258362095484"><ele>3.0</ele><time>2026-04-19T05:46:37Z</time></trkpt><trkpt lat="43.30338756708119" lon="10.50218358942589"><ele>3.0</ele><time>2026-04-19T05:46:42Z</time></trkpt><trkpt lat="43.30334728660543" lon="10.502107317781851"><ele>3.0</ele><time>2026-04-19T05:46:47Z</time></trkpt><trkpt lat="43.30329270724332" lon="10.502037037706774"><ele>3.0</ele><time>2026-04-19T05:46:51Z</time></trkpt><trkpt lat="43.30324274626967" lon="10.501955265253004"><ele>2.9999999999999996</ele><time>2026-04-19T05:46:55Z</time></trkpt><trkpt lat="43.30322517645508" lon="10.501861841038592"><ele>3.0</ele><time>2026-04-19T05:47:00Z</time></trkpt><trkpt lat="43.30321124303142" lon="10.501758491216943"><ele>2.9999999999999996</ele><time>2026-04-19T05:47:05Z</time></trkpt><trkpt lat="43.30316111178915" lon="10.501680160287389"><ele>3.0</ele><time>2026-04-19T05:47:10Z</time></trkpt><trkpt lat="43.30311925735223" lon="10.50160594465746"><ele>3.0</ele><time>2026-04-19T05:47:15Z</time></trkpt><trkpt lat="43.30307002968918" lon="10.501531731936955"><ele>3.0</ele><time>2026-04-19T05:47:20Z</time></trkpt><trkpt lat="43.30301337018255" lon="10.501444550164297"><ele>3.0</ele><time>2026-04-19T05:47:25Z</time></trkpt><trkpt lat="43.302973797183455" lon="10.501361023375127"><ele>2.9999999999999996</ele><time>2026-04-19T05:47:29Z</time></trkpt><trkpt lat="43.30293963580077" lon="10.501276222773662"><ele>3.0</ele><time>2026-04-19T05:47:33Z</time></trkpt><trkpt lat="43.30290865715023" lon="10.501198561662353"><ele>3.1428571428571423</ele><time>2026-04-19T05:47:38Z</time></trkpt><trkpt lat="43.30286745957858" lon="10.501126380541399"><ele>3.2857142857142856</ele><time>2026-04-19T05:47:42Z</time></trkpt><trkpt lat="43.30281032747029" lon="10.501051835606441"><ele>3.4285714285714284</ele><time>2026-04-19T05:47:47Z</time></trkpt><trkpt lat="43.30276496510848" lon="10.50098484742336"><ele>3.571428571428571</ele><time>2026-04-19T05:47:52Z</time></trkpt><trkpt lat="43.30272501062013" lon="10.500899424084778"><ele>3.714285714285714</ele><time>2026-04-19T05:47:57Z</time></trkpt><trkpt lat="43.30268795966419" lon="10.50080950263563"><ele>3.8571428571428568</ele><time>2026-04-19T05:48:03Z</time></trkpt><trkpt lat="43.30265719197325" lon="10.500715719107465"><ele>4.0</ele><time>2026-04-19T05:48:08Z</time></trkpt><trkpt lat="43.30264492326937" lon="10.500627803070657"><ele>4.0</ele><time>2026-04-19T05:48:14Z</time></trkpt><trkpt lat="43.30262643527106" lon="10.500539778897068"><ele>3.9999999999999996</ele><time>2026-04-19T05:48:19Z</time></trkpt><trkpt lat="43.30257995110487" lon="10.500473089627977"><ele>4.0</ele><time>2026-04-19T05:48:23Z</time></trkpt><trkpt lat="43.30250995939983" lon="10.500412441748491"><ele>4.0</ele><time>2026-04-19T05:48:28Z</time></trkpt><trkpt lat="43.3024667301069" lon="10.500343051306656"><ele>3.9999999999999996</ele><time>2026-04-19T05:48:33Z</time></trkpt><trkpt lat="43.302421783722494" lon="10.500262145459493"><ele>4.0</ele><time>2026-04-19T05:48:38Z</time></trkpt><trkpt lat="43.30239630347595" lon="10.500165107506348"><ele>4.0</ele><time>2026-04-19T05:48:43Z</time></trkpt><trkpt lat="43.302377486548785" lon="10.50007712104382"><ele>4.0</ele><time>2026-04-19T05:48:48Z</time></trkpt><trkpt lat="43.30235943796357" lon="10.49998852265412"><ele>3.9999999999999996</ele><time>2026-04-19T05:48:51Z</time></trkpt><trkpt lat="43.30233771862465" lon="10.499896340505463"><ele>4.0</ele><time>2026-04-19T05:48:55Z</time></trkpt><trkpt lat="43.30229227048344" lon="10.499831141766107"><ele>4.0</ele><time>2026-04-19T05:48:59Z</time></trkpt><trkpt lat="43.3022354346183" lon="10.499775388558875"><ele>3.9999999999999996</ele><time>2026-04-19T05:49:05Z</time></trkpt><trkpt lat="43.30223358219529" lon="10.499674259124905"><ele>4.0</ele><time>2026-04-19T05:49:10Z</time></trkpt><trkpt lat="43.30218823987781" lon="10.499609377276203"><ele>4.0</ele><time>2026-04-19T05:49:14Z</time></trkpt><trkpt lat="43.30212973872249" lon="10.49954786767582"><ele>3.9999999999999996</ele><time>2026-04-19T05:49:18Z</time></trkpt><trkpt lat="43.30207464548325" lon="10.499477938883565"><ele>4.0</ele><time>2026-04-19T05:49:23Z</time></trkpt><trkpt lat="43.30203573971169" lon="10.499408315492534"><ele>4.0</ele><time>2026-04-19T05:49:27Z</time></trkpt><trkpt lat="43.301968899200766" lon="10.499346511843719"><ele>4.0</ele><time>2026-04-19T05:49:32Z</time></trkpt><trkpt lat="43.301906924542955" lon="10.499271284221388"><ele>3.9999999999999996</ele><time>2026-04-19T05:49:37Z</time></trkpt><trkpt lat="43.30187265090809" lon="10.499187215971054"><ele>4.0</ele><time>2026-04-19T05:49:42Z</time></trkpt><trkpt lat="43.30189788716922" lon="10.499084491475116"><ele>4.0</ele><time>2026-04-19T05:49:49Z</time></trkpt><trkpt lat="43.30188202575251" lon="10.498997880031407"><ele>3.9999999999999996</ele><time>2026-04-19T05:49:54Z</time></trkpt><trkpt lat="43.301851903071885" lon="10.498900212852089"><ele>4.0</ele><time>2026-04-19T05:50:00Z</time></trkpt><trkpt lat="43.301812221840834" lon="10.49881874797757"><ele>4.0</ele><time>2026-04-19T05:50:03Z</time></trkpt><trkpt lat="43.30176294613294" lon="10.498744710804683"><ele>3.9999999999999996</ele><time>2026-04-19T05:50:06Z</time></trkpt><trkpt lat="43.301710186097104" lon="10.498672569079785"><ele>4.0</ele><time>2026-04-19T05:50:10Z</time></trkpt><trkpt lat="43.301661754091754" lon="10.498615568969198"><ele>4.0</ele><time>2026-04-19T05:50:16Z</time></trkpt><trkpt lat="43.30162261632253" lon="10.498541423437839"><ele>4.0</ele><time>2026-04-19T05:50:23Z</time></trkpt><trkpt lat="43.301596288398564" lon="10.49846048287267"><ele>3.9999999999999996</ele><time>2026-04-19T05:50:27Z</time></trkpt><trkpt lat="43.30159528288465" lon="10.49835926520695"><ele>4.0</ele><time>2026-04-19T05:50:30Z</time></trkpt><trkpt lat="43.30158256998347" lon="10.49826635099375"><ele>4.0</ele><time>2026-04-19T05:50:34Z</time></trkpt><trkpt lat="43.301546187747995" lon="10.498190146196919"><ele>3.9999999999999996</ele><time>2026-04-19T05:50:38Z</time></trkpt><trkpt lat="43.3014905608089" lon="10.498119574712169"><ele>4.0</ele><time>2026-04-19T05:50:42Z</time></trkpt><trkpt lat="43.301427903516455" lon="10.49806142955611"><ele>4.0</ele><time>2026-04-19T05:50:48Z</time></trkpt><trkpt lat="43.301373692269294" lon="10.498000064281465"><ele>3.8571428571428568</ele><time>2026-04-19T05:50:52Z</time></trkpt><trkpt lat="43.30135522062595" lon="10.497909433615142"><ele>3.714285714285714</ele><time>2026-04-19T05:50:55Z</time></trkpt><trkpt lat="43.30132508124436" lon="10.497822483071527"><ele>3.571428571428571</ele><time>2026-04-19T05:51:00Z</time></trkpt><trkpt lat="43.301280474308555" lon="10.497741150786428"><ele>3.4285714285714284</ele><time>2026-04-19T05:51:04Z</time></trkpt><trkpt lat="43.30123216805694" lon="10.497661654609066"><ele>3.2857142857142856</ele><time>2026-04-19T05:51:08Z</time></trkpt><trkpt lat="43.301202901972665" lon="10.497582091859385"><ele>3.1428571428571423</ele><time>2026-04-19T05:51:13Z</time></trkpt><trkpt lat="43.30116481313739" lon="10.49751100716252"><ele>3.0</ele><time>2026-04-19T05:51:17Z</time></trkpt><trkpt lat="43.30111194319973" lon="10.497426299466001"><ele>2.9999999999999996</ele><time>2026-04-19T05:51:22Z</time></trkpt><trkpt lat="43.30108042821796" lon="10.497350198476402"><ele>3.0</ele><time>2026-04-19T05:51:26Z</time></trkpt><trkpt lat="43.30102847364723" lon="10.497282782398504"><ele>3.0</ele><time>2026-04-19T05:51:31Z</time></trkpt><trkpt lat="43.30098646722033" lon="10.497212573954142"><ele>3.0</ele><time>2026-04-19T05:51:38Z</time></trkpt><trkpt lat="43.300955221390254" lon="10.497131312725374"><ele>3.0</ele><time>2026-04-19T05:51:43Z</time></trkpt><trkpt lat="43.30091150979325" lon="10.497059344135824"><ele>2.9999999999999996</ele><time>2026-04-19T05:51:51Z</time></trkpt><trkpt lat="43.30089674385844" lon="10.496971323505019"><ele>3.0</ele><time>2026-04-19T05:51:56Z</time></trkpt><trkpt lat="43.30090257769527" lon="10.496872483171146"><ele>2.9999999999999996</ele><time>2026-04-19T05:52:00Z</time></trkpt><trkpt lat="43.30083732342682" lon="10.49683450871488"><ele>3.0</ele><time>2026-04-19T05:52:04Z</time></trkpt><trkpt lat="43.30076022921373" lon="10.49685433826261"><ele>3.0</ele><time>2026-04-19T05:52:08Z</time></trkpt><trkpt lat="43.30068236286254" lon="10.496869566399472"><ele>3.0</ele><time>2026-04-19T05:52:15Z</time></trkpt><trkpt lat="43.30066200420838" lon="10.496782048463828"><ele>3.0</ele><time>2026-04-19T05:52:23Z</time></trkpt><trkpt lat="43.30069689712615" lon="10.49669231391223"><ele>2.9999999999999996</ele><time>2026-04-19T05:52:29Z</time></trkpt><trkpt lat="43.30070381713413" lon="10.496592998575606"><ele>3.0</ele><time>2026-04-19T05:54:15Z</time></trkpt><trkpt lat="43.30069119764223" lon="10.496505422882958"><ele>2.9999999999999996</ele><time>2026-04-19T05:54:20Z</time></trkpt><trkpt lat="43.30064803830104" lon="10.496425845775958"><ele>3.0</ele><time>2026-04-19T05:54:25Z</time></trkpt><trkpt lat="43.30060919777998" lon="10.496336049498174"><ele>3.0</ele><time>2026-04-19T05:54:29Z</time></trkpt><trkpt lat="43.30056369418451" lon="10.496262886336746"><ele>3.0</ele><time>2026-04-19T05:54:33Z</time></trkpt><trkpt lat="43.30050315498343" lon="10.49619546573274"><ele>3.0</ele><time>2026-04-19T05:54:41Z</time></trkpt><trkpt lat="43.300456084511644" lon="10.496134895422086"><ele>2.9999999999999996</ele><time>2026-04-19T05:54:46Z</time></trkpt><trkpt lat="43.300425907690276" lon="10.496025084049018"><ele>3.0</ele><time>2026-04-19T05:54:50Z</time></trkpt><trkpt lat="43.300388855652315" lon="10.495941590626806"><ele>2.9999999999999996</ele><time>2026-04-19T05:54:53Z</time></trkpt><trkpt lat="43.30034208680506" lon="10.495860380779424"><ele>3.0</ele><time>2026-04-19T05:54:57Z</time></trkpt><trkpt lat="43.300307622840336" lon="10.495760311566112"><ele>3.0</ele><time>2026-04-19T05:55:01Z</time></trkpt><trkpt lat="43.3002655123155" lon="10.4956747369211"><ele>3.0</ele><time>2026-04-19T05:55:05Z</time></trkpt><trkpt lat="43.30021987100628" lon="10.495586185759276"><ele>3.0</ele><time>2026-04-19T05:55:09Z</time></trkpt><trkpt lat="43.300166711486725" lon="10.49552687033502"><ele>2.9999999999999996</ele><time>2026-04-19T05:55:13Z</time></trkpt><trkpt lat="43.300117163931866" lon="10.495463427278988"><ele>3.0</ele><time>2026-04-19T05:55:17Z</time></trkpt><trkpt lat="43.30009541359601" lon="10.495381007993823"><ele>2.9999999999999996</ele><time>2026-04-19T05:55:21Z</time></trkpt><trkpt lat="43.30005792613822" lon="10.495304754784812"><ele>3.0</ele><time>2026-04-19T05:55:26Z</time></trkpt><trkpt lat="43.300026647221756" lon="10.495212356459094"><ele>3.0</ele><time>2026-04-19T05:55:37Z</time></trkpt><trkpt lat="43.29996956572334" lon="10.495131552322578"><ele>3.0</ele><time>2026-04-19T05:55:41Z</time></trkpt><trkpt lat="43.29991890653461" lon="10.495065879992753"><ele>3.0</ele><time>2026-04-19T05:55:45Z</time></trkpt><trkpt lat="43.299884322842" lon="10.494965290716374"><ele>2.9999999999999996</ele><time>2026-04-19T05:55:49Z</time></trkpt><trkpt lat="43.29986023728287" lon="10.494870721614499"><ele>3.0</ele><time>2026-04-19T05:55:52Z</time></trkpt><trkpt lat="43.29984639424663" lon="10.494781010361342"><ele>2.9999999999999996</ele><time>2026-04-19T05:55:56Z</time></trkpt><trkpt lat="43.299801560595554" lon="10.494689115926771"><ele>3.0</ele><time>2026-04-19T05:56:01Z</time></trkpt><trkpt lat="43.29974366759693" lon="10.494618540272295"><ele>3.0</ele><time>2026-04-19T05:56:05Z</time></trkpt><trkpt lat="43.299700901814724" lon="10.494552512780094"><ele>3.0</ele><time>2026-04-19T05:56:08Z</time></trkpt><trkpt lat="43.29963155967651" lon="10.494484835035525"><ele>3.0</ele><time>2026-04-19T05:56:12Z</time></trkpt><trkpt lat="43.29958469348169" lon="10.494420279987422"><ele>2.9999999999999996</ele><time>2026-04-19T05:56:16Z</time></trkpt><trkpt lat="43.29956447052736" lon="10.49432767342905"><ele>3.0</ele><time>2026-04-19T05:56:21Z</time></trkpt><trkpt lat="43.29952635249211" lon="10.494251497818746"><ele>3.2857142857142856</ele><time>2026-04-19T05:56:26Z</time></trkpt><trkpt lat="43.299495353687085" lon="10.494163077373107"><ele>3.571428571428571</ele><time>2026-04-19T05:56:31Z</time></trkpt><trkpt lat="43.29945461786392" lon="10.49408821779599"><ele>3.8571428571428568</ele><time>2026-04-19T05:56:36Z</time></trkpt><trkpt lat="43.29942660793447" lon="10.494002950531753"><ele>4.142857142857142</ele><time>2026-04-19T05:56:40Z</time></trkpt><trkpt lat="43.29938681609122" lon="10.493933827419937"><ele>4.428571428571429</ele><time>2026-04-19T05:56:44Z</time></trkpt><trkpt lat="43.29931744804938" lon="10.493911549882087"><ele>4.714285714285714</ele><time>2026-04-19T05:56:52Z</time></trkpt><trkpt lat="43.29925559920965" lon="10.49387767875359"><ele>5.0</ele><time>2026-04-19T05:57:04Z</time></trkpt><trkpt lat="43.29919074101258" lon="10.493863963453263"><ele>5.0</ele><time>2026-04-19T05:57:12Z</time></trkpt><trkpt lat="43.29914480910596" lon="10.49393693578731"><ele>5.0</ele><time>2026-04-19T05:57:21Z</time></trkpt><trkpt lat="43.29909020592875" lon="10.494020603903792"><ele>5.0</ele><time>2026-04-19T05:57:26Z</time></trkpt><trkpt lat="43.29902629883299" lon="10.494074370173117"><ele>5.0</ele><time>2026-04-19T05:57:30Z</time></trkpt><trkpt lat="43.29897353242887" lon="10.494130763346316"><ele>5.0</ele><time>2026-04-19T05:57:34Z</time></trkpt><trkpt lat="43.29891664089792" lon="10.494177103087353"><ele>5.0</ele><time>2026-04-19T05:57:39Z</time></trkpt><trkpt lat="43.29886993091479" lon="10.49424192201065"><ele>5.0</ele><time>2026-04-19T05:57:47Z</time></trkpt><trkpt lat="43.298824107049654" lon="10.494301722997008"><ele>5.0</ele><time>2026-04-19T05:57:51Z</time></trkpt><trkpt lat="43.2987867526671" lon="10.494378091627446"><ele>5.0</ele><time>2026-04-19T05:57:54Z</time></trkpt><trkpt lat="43.298734763313114" lon="10.494447353589091"><ele>5.0</ele><time>2026-04-19T05:57:58Z</time></trkpt><trkpt lat="43.2986855841058" lon="10.494523076202082"><ele>5.0</ele><time>2026-04-19T05:58:03Z</time></trkpt><trkpt lat="43.298640665825936" lon="10.494590815765775"><ele>5.0</ele><time>2026-04-19T05:58:07Z</time></trkpt><trkpt lat="43.2985885239675" lon="10.494673904694125"><ele>5.0</ele><time>2026-04-19T05:58:12Z</time></trkpt><trkpt lat="43.29853268105234" lon="10.494727001956047"><ele>5.0</ele><time>2026-04-19T05:58:18Z</time></trkpt><trkpt lat="43.29847912130422" lon="10.49477741643474"><ele>5.0</ele><time>2026-04-19T05:58:21Z</time></trkpt><trkpt lat="43.29842777490614" lon="10.494852913015265"><ele>5.0</ele><time>2026-04-19T05:58:28Z</time></trkpt><trkpt lat="43.29837552676185" lon="10.49491111273388"><ele>5.0</ele><time>2026-04-19T05:58:32Z</time></trkpt><trkpt lat="43.29831221643916" lon="10.494976909208813"><ele>5.0</ele><time>2026-04-19T05:58:35Z</time></trkpt><trkpt lat="43.29829054898575" lon="10.495072794682875"><ele>5.0</ele><time>2026-04-19T05:58:39Z</time></trkpt><trkpt lat="43.29823891657066" lon="10.495135608101817"><ele>5.0</ele><time>2026-04-19T05:58:44Z</time></trkpt><trkpt lat="43.29819006799229" lon="10.495205545480816"><ele>5.0</ele><time>2026-04-19T05:58:48Z</time></trkpt><trkpt lat="43.29814742733723" lon="10.495289646913031"><ele>5.0</ele><time>2026-04-19T05:58:52Z</time></trkpt><trkpt lat="43.298098610601755" lon="10.495357644121611"><ele>5.0</ele><time>2026-04-19T05:58:59Z</time></trkpt><trkpt lat="43.29804391384194" lon="10.495402667028284"><ele>5.0</ele><time>2026-04-19T05:59:04Z</time></trkpt><trkpt lat="43.29801663996341" lon="10.495482982794556"><ele>5.0</ele><time>2026-04-19T05:59:09Z</time></trkpt><trkpt lat="43.29800540238438" lon="10.495570298628927"><ele>5.0</ele><time>2026-04-19T05:59:18Z</time></trkpt><trkpt lat="43.29795837893792" lon="10.495630020234747"><ele>5.0</ele><time>2026-04-19T05:59:24Z</time></trkpt><trkpt lat="43.297876289943275" lon="10.49568677271041"><ele>5.0</ele><time>2026-04-19T05:59:28Z</time></trkpt><trkpt lat="43.29781410172351" lon="10.495758278938835"><ele>5.166666666666667</ele><time>2026-04-19T05:59:31Z</time></trkpt><trkpt lat="43.29775008091989" lon="10.495834955868794"><ele>5.333333333333334</ele><time>2026-04-19T05:59:34Z</time></trkpt><trkpt lat="43.297680964655804" lon="10.49590686806547"><ele>5.5</ele><time>2026-04-19T05:59:37Z</time></trkpt><trkpt lat="43.297626597195844" lon="10.495965148355547"><ele>5.666666666666667</ele><time>2026-04-19T05:59:40Z</time></trkpt><trkpt lat="43.297566458363285" lon="10.496004161932381"><ele>5.833333333333333</ele><time>2026-04-19T05:59:44Z</time></trkpt><trkpt lat="43.2975093824472" lon="10.496045119566585"><ele>6.0</ele><time>2026-04-19T05:59:48Z</time></trkpt><trkpt lat="43.297433005157835" lon="10.496108267711445"><ele>6.0</ele><time>2026-04-19T05:59:52Z</time></trkpt><trkpt lat="43.29735217681325" lon="10.496187663541226"><ele>6.0</ele><time>2026-04-19T05:59:55Z</time></trkpt><trkpt lat="43.29731152411359" lon="10.496265581360147"><ele>6.0</ele><time>2026-04-19T05:59:59Z</time></trkpt><trkpt lat="43.29728261094266" lon="10.496370627237653"><ele>6.0</ele><time>2026-04-19T06:00:04Z</time></trkpt><trkpt lat="43.29725040542818" lon="10.49646723055929"><ele>6.0</ele><time>2026-04-19T06:00:08Z</time></trkpt><trkpt lat="43.297237026156346" lon="10.496568148820277"><ele>6.0</ele><time>2026-04-19T06:00:13Z</time></trkpt><trkpt lat="43.297193911998484" lon="10.496650416214756"><ele>5.857142857142857</ele><time>2026-04-19T06:00:17Z</time></trkpt><trkpt lat="43.29715204802801" lon="10.496715331616514"><ele>5.714285714285714</ele><time>2026-04-19T06:00:20Z</time></trkpt><trkpt lat="43.29711685998884" lon="10.496802173143012"><ele>5.571428571428571</ele><time>2026-04-19T06:00:24Z</time></trkpt><trkpt lat="43.29706230482292" lon="10.496860090081876"><ele>5.428571428571429</ele><time>2026-04-19T06:00:28Z</time></trkpt><trkpt lat="43.29699570785889" lon="10.496923300849275"><ele>5.285714285714286</ele><time>2026-04-19T06:00:32Z</time></trkpt><trkpt lat="43.29692871724285" lon="10.496986042603458"><ele>5.142857142857142</ele><time>2026-04-19T06:00:36Z</time></trkpt><trkpt lat="43.29687556486848" lon="10.497046576595658"><ele>5.0</ele><time>2026-04-19T06:00:42Z</time></trkpt><trkpt lat="43.29682170231797" lon="10.49709353762898"><ele>5.0</ele><time>2026-04-19T06:00:47Z</time></trkpt><trkpt lat="43.296765557607756" lon="10.49715088932219"><ele>5.0</ele><time>2026-04-19T06:00:51Z</time></trkpt><trkpt lat="43.29671794704366" lon="10.497209483125859"><ele>5.0</ele><time>2026-04-19T06:00:55Z</time></trkpt><trkpt lat="43.29667295446408" lon="10.497280579478748"><ele>5.0</ele><time>2026-04-19T06:01:00Z</time></trkpt><trkpt lat="43.29666824308804" lon="10.497385367286936"><ele>5.0</ele><time>2026-04-19T06:01:07Z</time></trkpt><trkpt lat="43.29667534206402" lon="10.497490470115077"><ele>5.0</ele><time>2026-04-19T06:01:11Z</time></trkpt><trkpt lat="43.29668096312144" lon="10.497577050809664"><ele>5.0</ele><time>2026-04-19T06:01:15Z</time></trkpt><trkpt lat="43.29663139515888" lon="10.497636329606875"><ele>5.0</ele><time>2026-04-19T06:01:23Z</time></trkpt><trkpt lat="43.296604825256466" lon="10.497716435676447"><ele>5.0</ele><time>2026-04-19T06:01:30Z</time></trkpt><trkpt lat="43.2965623340259" lon="10.49780659206196"><ele>5.0</ele><time>2026-04-19T06:01:34Z</time></trkpt><trkpt lat="43.296534961945895" lon="10.497897758276197"><ele>5.0</ele><time>2026-04-19T06:01:39Z</time></trkpt><trkpt lat="43.29647671845522" lon="10.497955882470102"><ele>5.0</ele><time>2026-04-19T06:01:44Z</time></trkpt><trkpt lat="43.29643324436551" lon="10.498020725106961"><ele>5.0</ele><time>2026-04-19T06:01:48Z</time></trkpt><trkpt lat="43.296414008882415" lon="10.498116655014373"><ele>5.0</ele><time>2026-04-19T06:01:54Z</time></trkpt><trkpt lat="43.296376791138435" lon="10.498193548479158"><ele>5.714285714285714</ele><time>2026-04-19T06:02:00Z</time></trkpt><trkpt lat="43.29633528730265" lon="10.498274791900883"><ele>6.428571428571429</ele><time>2026-04-19T06:02:05Z</time></trkpt><trkpt lat="43.296301812435445" lon="10.498367719519958"><ele>7.142857142857142</ele><time>2026-04-19T06:02:11Z</time></trkpt><trkpt lat="43.29625673330399" lon="10.498443974775512"><ele>7.857142857142858</ele><time>2026-04-19T06:02:15Z</time></trkpt><trkpt lat="43.296223859393265" lon="10.498533569700745"><ele>8.571428571428571</ele><time>2026-04-19T06:02:19Z</time></trkpt><trkpt lat="43.29623867198656" lon="10.498626280517868"><ele>9.285714285714285</ele><time>2026-04-19T06:02:24Z</time></trkpt><trkpt lat="43.29621597688244" lon="10.498721583519742"><ele>10.0</ele><time>2026-04-19T06:02:33Z</time></trkpt><trkpt lat="43.296158283893995" lon="10.498756701134461"><ele>10.0</ele><time>2026-04-19T06:02:37Z</time></trkpt><trkpt lat="43.29609021383576" lon="10.498800045002255"><ele>10.0</ele><time>2026-04-19T06:02:42Z</time></trkpt><trkpt lat="43.29605053690454" lon="10.49887028949896"><ele>10.0</ele><time>2026-04-19T06:02:47Z</time></trkpt><trkpt lat="43.29601738002317" lon="10.49895285894876"><ele>10.0</ele><time>2026-04-19T06:02:51Z</time></trkpt><trkpt lat="43.295978018473676" lon="10.499051915379459"><ele>10.0</ele><time>2026-04-19T06:02:54Z</time></trkpt><trkpt lat="43.29595019762703" lon="10.499143892338589"><ele>10.0</ele><time>2026-04-19T06:02:57Z</time></trkpt><trkpt lat="43.29591547206537" lon="10.499242518745941"><ele>10.0</ele><time>2026-04-19T06:03:01Z</time></trkpt><trkpt lat="43.29586906861673" lon="10.499305384822105"><ele>10.0</ele><time>2026-04-19T06:03:03Z</time></trkpt><trkpt lat="43.29582662540767" lon="10.499393743445816"><ele>10.0</ele><time>2026-04-19T06:03:07Z</time></trkpt><trkpt lat="43.29581115249988" lon="10.499484788663652"><ele>10.0</ele><time>2026-04-19T06:03:10Z</time></trkpt><trkpt lat="43.29579372308783" lon="10.49957666308298"><ele>10.0</ele><time>2026-04-19T06:03:15Z</time></trkpt><trkpt lat="43.29575740630992" lon="10.499658429129708"><ele>10.0</ele><time>2026-04-19T06:03:21Z</time></trkpt><trkpt lat="43.29570213375446" lon="10.49971788539284"><ele>10.0</ele><time>2026-04-19T06:03:25Z</time></trkpt><trkpt lat="43.295660333391666" lon="10.499797006963425"><ele>10.0</ele><time>2026-04-19T06:03:29Z</time></trkpt><trkpt lat="43.2956289706359" lon="10.499876076754886"><ele>9.857142857142858</ele><time>2026-04-19T06:03:33Z</time></trkpt><trkpt lat="43.29562073820452" lon="10.499963033211168"><ele>9.714285714285715</ele><time>2026-04-19T06:03:38Z</time></trkpt><trkpt lat="43.295596133049045" lon="10.500043900926071"><ele>9.571428571428573</ele><time>2026-04-19T06:03:45Z</time></trkpt><trkpt lat="43.29555985808515" lon="10.500134507400082"><ele>9.428571428571429</ele><time>2026-04-19T06:03:50Z</time></trkpt><trkpt lat="43.295515051999125" lon="10.500201725434081"><ele>9.285714285714286</ele><time>2026-04-19T06:03:54Z</time></trkpt><trkpt lat="43.29546592792964" lon="10.500273692815961"><ele>9.142857142857144</ele><time>2026-04-19T06:04:01Z</time></trkpt><trkpt lat="43.295464420453335" lon="10.500363750980727"><ele>9.0</ele><time>2026-04-19T06:04:04Z</time></trkpt><trkpt lat="43.295447376129744" lon="10.500457805853284"><ele>9.000000000000002</ele><time>2026-04-19T06:04:07Z</time></trkpt><trkpt lat="43.29540451051097" lon="10.50053200225171"><ele>9.0</ele><time>2026-04-19T06:04:10Z</time></trkpt><trkpt lat="43.295342728763366" lon="10.500593908626527"><ele>9.0</ele><time>2026-04-19T06:04:15Z</time></trkpt><trkpt lat="43.295284511957085" lon="10.500647616225772"><ele>9.0</ele><time>2026-04-19T06:04:21Z</time></trkpt><trkpt lat="43.29525408631155" lon="10.500741399516688"><ele>9.0</ele><time>2026-04-19T06:04:27Z</time></trkpt><trkpt lat="43.295248614257794" lon="10.50084383995758"><ele>9.000000000000002</ele><time>2026-04-19T06:04:33Z</time></trkpt><trkpt lat="43.29521516331357" lon="10.500934567163121"><ele>9.0</ele><time>2026-04-19T06:04:37Z</time></trkpt><trkpt lat="43.29515923423395" lon="10.500994147597337"><ele>9.0</ele><time>2026-04-19T06:04:41Z</time></trkpt><trkpt lat="43.295097619761236" lon="10.50105021497838"><ele>9.0</ele><time>2026-04-19T06:04:47Z</time></trkpt><trkpt lat="43.29499329946764" lon="10.501065505269226"><ele>9.0</ele><time>2026-04-19T06:04:52Z</time></trkpt><trkpt lat="43.29492312479464" lon="10.501056163807808"><ele>9.0</ele><time>2026-04-19T06:04:58Z</time></trkpt><trkpt lat="43.294877552811904" lon="10.500986069331121"><ele>9.0</ele><time>2026-04-19T06:05:04Z</time></trkpt><trkpt lat="43.29480757296691" lon="10.500945560551184"><ele>9.0</ele><time>2026-04-19T06:05:09Z</time></trkpt><trkpt lat="43.29474480678086" lon="10.50091384495621"><ele>8.571428571428573</ele><time>2026-04-19T06:05:13Z</time></trkpt><trkpt lat="43.29468452154925" lon="10.50086253817723"><ele>8.142857142857142</ele><time>2026-04-19T06:05:20Z</time></trkpt><trkpt lat="43.29465260377162" lon="10.50077919415454"><ele>7.714285714285714</ele><time>2026-04-19T06:05:25Z</time></trkpt><trkpt lat="43.294597718123526" lon="10.500721088101113"><ele>7.2857142857142865</ele><time>2026-04-19T06:05:31Z</time></trkpt><trkpt lat="43.294537095532135" lon="10.500666820324549"><ele>6.857142857142858</ele><time>2026-04-19T06:05:36Z</time></trkpt><trkpt lat="43.294476210358894" lon="10.500633004511403"><ele>6.428571428571428</ele><time>2026-04-19T06:05:39Z</time></trkpt><trkpt lat="43.29440360067611" lon="10.500593054239491"><ele>6.0</ele><time>2026-04-19T06:05:43Z</time></trkpt><trkpt lat="43.29433883658878" lon="10.500558522446596"><ele>5.999999999999999</ele><time>2026-04-19T06:05:46Z</time></trkpt><trkpt lat="43.294276664735264" lon="10.500493920122125"><ele>6.0</ele><time>2026-04-19T06:05:50Z</time></trkpt><trkpt lat="43.29422579392517" lon="10.500439709696204"><ele>6.0</ele><time>2026-04-19T06:05:56Z</time></trkpt><trkpt lat="43.29416218936302" lon="10.500419804296163"><ele>6.0</ele><time>2026-04-19T06:06:01Z</time></trkpt><trkpt lat="43.294099191848794" lon="10.500388077693813"><ele>6.0</ele><time>2026-04-19T06:06:04Z</time></trkpt><trkpt lat="43.29403965827575" lon="10.500323818725184"><ele>5.999999999999999</ele><time>2026-04-19T06:06:08Z</time></trkpt><trkpt lat="43.29399743036237" lon="10.500249319058323"><ele>6.0</ele><time>2026-04-19T06:06:12Z</time></trkpt><trkpt lat="43.293942684562126" lon="10.500183955110574"><ele>5.571428571428571</ele><time>2026-04-19T06:06:16Z</time></trkpt><trkpt lat="43.293883882662044" lon="10.500149450809468"><ele>5.142857142857142</ele><time>2026-04-19T06:06:19Z</time></trkpt><trkpt lat="43.29382231836299" lon="10.500114062256044"><ele>4.7142857142857135</ele><time>2026-04-19T06:06:22Z</time></trkpt><trkpt lat="43.293746330200555" lon="10.500085689273213"><ele>4.285714285714286</ele><time>2026-04-19T06:06:25Z</time></trkpt><trkpt lat="43.29368218790423" lon="10.500040554661252"><ele>3.8571428571428568</ele><time>2026-04-19T06:06:30Z</time></trkpt><trkpt lat="43.29364554759642" lon="10.499942038223924"><ele>3.4285714285714284</ele><time>2026-04-19T06:06:35Z</time></trkpt><trkpt lat="43.293581087002664" lon="10.499887942937418"><ele>3.0</ele><time>2026-04-19T06:06:40Z</time></trkpt><trkpt lat="43.29351557310005" lon="10.499828288198644"><ele>2.9999999999999996</ele><time>2026-04-19T06:06:47Z</time></trkpt><trkpt lat="43.29345064724535" lon="10.499782665434218"><ele>3.0</ele><time>2026-04-19T06:06:50Z</time></trkpt><trkpt lat="43.29338661243034" lon="10.49974449487232"><ele>3.0</ele><time>2026-04-19T06:06:55Z</time></trkpt><trkpt lat="43.29334353939104" lon="10.499661464462767"><ele>3.0</ele><time>2026-04-19T06:07:00Z</time></trkpt><trkpt lat="43.2932953245292" lon="10.499598778848004"><ele>3.0</ele><time>2026-04-19T06:07:04Z</time></trkpt><trkpt lat="43.29325384243082" lon="10.49952777580973"><ele>2.9999999999999996</ele><time>2026-04-19T06:07:07Z</time></trkpt><trkpt lat="43.29319189864953" lon="10.499468708898135"><ele>3.0</ele><time>2026-04-19T06:07:12Z</time></trkpt><trkpt lat="43.29312028118209" lon="10.499424840028718"><ele>2.8571428571428568</ele><time>2026-04-19T06:07:18Z</time></trkpt><trkpt lat="43.293072505720765" lon="10.499361306857868"><ele>2.7142857142857144</ele><time>2026-04-19T06:07:23Z</time></trkpt><trkpt lat="43.293069091812825" lon="10.499274680136022"><ele>2.571428571428571</ele><time>2026-04-19T06:07:27Z</time></trkpt><trkpt lat="43.293111820929454" lon="10.499210838729937"><ele>2.4285714285714284</ele><time>2026-04-19T06:07:34Z</time></trkpt><trkpt lat="43.29317546152687" lon="10.49915621076384"><ele>2.2857142857142856</ele><time>2026-04-19T06:07:39Z</time></trkpt><trkpt lat="43.29324022702335" lon="10.499094564850402"><ele>2.142857142857143</ele><time>2026-04-19T06:07:44Z</time></trkpt><trkpt lat="43.293309821958665" lon="10.4990338228328"><ele>2.0</ele><time>2026-04-19T06:07:49Z</time></trkpt><trkpt lat="43.293368398683995" lon="10.498974261149876"><ele>2.0</ele><time>2026-04-19T06:07:54Z</time></trkpt><trkpt lat="43.29342029361316" lon="10.498917608357322"><ele>1.9999999999999998</ele><time>2026-04-19T06:07:58Z</time></trkpt><trkpt lat="43.29346972574899" lon="10.498861883475184"><ele>2.0</ele><time>2026-04-19T06:08:02Z</time></trkpt><trkpt lat="43.29353105112529" lon="10.498797803678878"><ele>2.0</ele><time>2026-04-19T06:08:07Z</time></trkpt><trkpt lat="43.293581256766615" lon="10.498737480829387"><ele>1.9999999999999998</ele><time>2026-04-19T06:08:11Z</time></trkpt><trkpt lat="43.29363548601351" lon="10.498679671230866"><ele>2.0</ele><time>2026-04-19T06:08:15Z</time></trkpt><trkpt lat="43.293697375987186" lon="10.498618450783878"><ele>2.0</ele><time>2026-04-19T06:08:20Z</time></trkpt><trkpt lat="43.293749503611934" lon="10.49856258396335"><ele>1.857142857142857</ele><time>2026-04-19T06:08:25Z</time></trkpt><trkpt lat="43.29380632291935" lon="10.498503025373259"><ele>1.714285714285714</ele><time>2026-04-19T06:08:32Z</time></trkpt><trkpt lat="43.29386368687634" lon="10.498428976082518"><ele>1.5714285714285714</ele><time>2026-04-19T06:08:37Z</time></trkpt><trkpt lat="43.29391851198432" lon="10.498358591166555"><ele>1.4285714285714284</ele><time>2026-04-19T06:08:42Z</time></trkpt><trkpt lat="43.29398270173981" lon="10.498301316687247"><ele>1.2857142857142856</ele><time>2026-04-19T06:08:47Z</time></trkpt><trkpt lat="43.294044380917086" lon="10.498252122223894"><ele>1.1428571428571428</ele><time>2026-04-19T06:08:51Z</time></trkpt><trkpt lat="43.29410053638801" lon="10.498192245954526"><ele>1.0</ele><time>2026-04-19T06:08:56Z</time></trkpt><trkpt lat="43.29416763936337" lon="10.498138084828069"><ele>1.1428571428571428</ele><time>2026-04-19T06:09:01Z</time></trkpt><trkpt lat="43.29422265353509" lon="10.49808327492185"><ele>1.2857142857142856</ele><time>2026-04-19T06:09:06Z</time></trkpt><trkpt lat="43.294286292347266" lon="10.498037492801616"><ele>1.4285714285714284</ele><time>2026-04-19T06:09:13Z</time></trkpt><trkpt lat="43.294342734386504" lon="10.497997126123769"><ele>1.5714285714285714</ele><time>2026-04-19T06:09:17Z</time></trkpt><trkpt lat="43.294397555821234" lon="10.497929331681267"><ele>1.714285714285714</ele><time>2026-04-19T06:09:22Z</time></trkpt><trkpt lat="43.294448769174906" lon="10.497858642884415"><ele>1.857142857142857</ele><time>2026-04-19T06:09:27Z</time></trkpt><trkpt lat="43.29450210605882" lon="10.497790624548228"><ele>2.0</ele><time>2026-04-19T06:09:32Z</time></trkpt><trkpt lat="43.294558781113096" lon="10.497723447919862"><ele>2.0</ele><time>2026-04-19T06:09:37Z</time></trkpt><trkpt lat="43.294609603828775" lon="10.497666132720461"><ele>1.9999999999999998</ele><time>2026-04-19T06:09:41Z</time></trkpt><trkpt lat="43.29466583504257" lon="10.497613337614817"><ele>2.0</ele><time>2026-04-19T06:09:45Z</time></trkpt><trkpt lat="43.29472648010576" lon="10.497562959060247"><ele>2.0</ele><time>2026-04-19T06:09:49Z</time></trkpt><trkpt lat="43.29478626131264" lon="10.497518244110523"><ele>1.9999999999999998</ele><time>2026-04-19T06:09:54Z</time></trkpt><trkpt lat="43.294860604019924" lon="10.49748410974445"><ele>2.0</ele><time>2026-04-19T06:10:01Z</time></trkpt><trkpt lat="43.294920989261186" lon="10.497421401332858"><ele>2.0</ele><time>2026-04-19T06:10:07Z</time></trkpt><trkpt lat="43.29496182115856" lon="10.497352964847153"><ele>2.2857142857142856</ele><time>2026-04-19T06:10:11Z</time></trkpt><trkpt lat="43.2950221349982" lon="10.497293892850491"><ele>2.571428571428571</ele><time>2026-04-19T06:10:15Z</time></trkpt><trkpt lat="43.29507532877805" lon="10.497241548345997"><ele>2.8571428571428568</ele><time>2026-04-19T06:10:19Z</time></trkpt><trkpt lat="43.29512702860474" lon="10.497176479398044"><ele>3.142857142857143</ele><time>2026-04-19T06:10:25Z</time></trkpt><trkpt lat="43.295187682060856" lon="10.497125314596326"><ele>3.428571428571428</ele><time>2026-04-19T06:10:30Z</time></trkpt><trkpt lat="43.29524280899644" lon="10.49707209502803"><ele>3.714285714285714</ele><time>2026-04-19T06:10:34Z</time></trkpt><trkpt lat="43.295295464880034" lon="10.497005091986278"><ele>4.0</ele><time>2026-04-19T06:10:39Z</time></trkpt><trkpt lat="43.29535181923432" lon="10.496956084479422"><ele>3.8571428571428568</ele><time>2026-04-19T06:10:43Z</time></trkpt><trkpt lat="43.295407639640494" lon="10.4968922522569"><ele>3.714285714285714</ele><time>2026-04-19T06:10:48Z</time></trkpt><trkpt lat="43.29545497333351" lon="10.49683059827387"><ele>3.571428571428571</ele><time>2026-04-19T06:10:53Z</time></trkpt><trkpt lat="43.295514581739006" lon="10.496769062661587"><ele>3.4285714285714284</ele><time>2026-04-19T06:10:58Z</time></trkpt><trkpt lat="43.295569751070914" lon="10.49671831947704"><ele>3.2857142857142856</ele><time>2026-04-19T06:11:02Z</time></trkpt><trkpt lat="43.29562563668299" lon="10.496652672417238"><ele>3.1428571428571423</ele><time>2026-04-19T06:11:07Z</time></trkpt><trkpt lat="43.29567138179853" lon="10.496585215288286"><ele>3.0</ele><time>2026-04-19T06:11:12Z</time></trkpt><trkpt lat="43.29573369516224" lon="10.49654108699059"><ele>2.9999999999999996</ele><time>2026-04-19T06:11:18Z</time></trkpt><trkpt lat="43.29580329474168" lon="10.496491596925875"><ele>3.0</ele><time>2026-04-19T06:11:25Z</time></trkpt><trkpt lat="43.295866020685125" lon="10.49642649908914"><ele>3.0</ele><time>2026-04-19T06:11:29Z</time></trkpt><trkpt lat="43.295920543410446" lon="10.496378607612762"><ele>3.0</ele><time>2026-04-19T06:11:33Z</time></trkpt><trkpt lat="43.295975294182014" lon="10.49631481229787"><ele>3.0</ele><time>2026-04-19T06:11:37Z</time></trkpt><trkpt lat="43.2960316971607" lon="10.496261329035045"><ele>2.9999999999999996</ele><time>2026-04-19T06:11:41Z</time></trkpt><trkpt lat="43.29609017784535" lon="10.496199106695538"><ele>3.0</ele><time>2026-04-19T06:11:46Z</time></trkpt><trkpt lat="43.29614280514587" lon="10.496147969658937"><ele>2.8571428571428568</ele><time>2026-04-19T06:11:50Z</time></trkpt><trkpt lat="43.29621031963292" lon="10.496102719774498"><ele>2.7142857142857144</ele><time>2026-04-19T06:11:56Z</time></trkpt><trkpt lat="43.29625536108234" lon="10.496031106612799"><ele>2.571428571428571</ele><time>2026-04-19T06:12:02Z</time></trkpt><trkpt lat="43.296326384779796" lon="10.495982733334179"><ele>2.4285714285714284</ele><time>2026-04-19T06:12:08Z</time></trkpt><trkpt lat="43.29638981471002" lon="10.495923555719273"><ele>2.2857142857142856</ele><time>2026-04-19T06:12:14Z</time></trkpt><trkpt lat="43.29642652045941" lon="10.495845150567238"><ele>2.142857142857143</ele><time>2026-04-19T06:12:18Z</time></trkpt><trkpt lat="43.29647612197925" lon="10.495779572337819"><ele>2.0</ele><time>2026-04-19T06:12:22Z</time></trkpt><trkpt lat="43.29652880800151" lon="10.495713033501596"><ele>2.2857142857142856</ele><time>2026-04-19T06:12:26Z</time></trkpt><trkpt lat="43.296567472263156" lon="10.495637195668523"><ele>2.571428571428571</ele><time>2026-04-19T06:12:31Z</time></trkpt><trkpt lat="43.296625579065676" lon="10.495564357655166"><ele>2.8571428571428568</ele><time>2026-04-19T06:12:36Z</time></trkpt><trkpt lat="43.29668427931418" lon="10.495504451961821"><ele>3.142857142857143</ele><time>2026-04-19T06:12:41Z</time></trkpt><trkpt lat="43.296744181218344" lon="10.495473905377413"><ele>3.428571428571428</ele><time>2026-04-19T06:12:46Z</time></trkpt><trkpt lat="43.29678172325018" lon="10.495403982332768"><ele>3.714285714285714</ele><time>2026-04-19T06:12:50Z</time></trkpt><trkpt lat="43.29682877642516" lon="10.495340812337126"><ele>4.0</ele><time>2026-04-19T06:12:54Z</time></trkpt><trkpt lat="43.29686582799455" lon="10.495266072570512"><ele>4.142857142857142</ele><time>2026-04-19T06:13:01Z</time></trkpt><trkpt lat="43.296910550434944" lon="10.495199702073297"><ele>4.285714285714286</ele><time>2026-04-19T06:13:06Z</time></trkpt><trkpt lat="43.296954915664834" lon="10.495130178208079"><ele>4.428571428571429</ele><time>2026-04-19T06:13:11Z</time></trkpt><trkpt lat="43.29700366305382" lon="10.495064878900546"><ele>4.571428571428571</ele><time>2026-04-19T06:13:15Z</time></trkpt><trkpt lat="43.2970492387811" lon="10.494984708749447"><ele>4.714285714285714</ele><time>2026-04-19T06:13:20Z</time></trkpt><trkpt lat="43.297107353620646" lon="10.49491067044657"><ele>4.857142857142857</ele><time>2026-04-19T06:13:25Z</time></trkpt><trkpt lat="43.29715606752828" lon="10.494838614911831"><ele>5.0</ele><time>2026-04-19T06:13:29Z</time></trkpt><trkpt lat="43.297196927549464" lon="10.494763885289291"><ele>5.0</ele><time>2026-04-19T06:13:37Z</time></trkpt><trkpt lat="43.29725205618395" lon="10.494701592592909"><ele>5.0</ele><time>2026-04-19T06:13:45Z</time></trkpt><trkpt lat="43.29730380751656" lon="10.494633762409936"><ele>5.0</ele><time>2026-04-19T06:13:53Z</time></trkpt><trkpt lat="43.29736794661536" lon="10.49456950392553"><ele>5.0</ele><time>2026-04-19T06:13:58Z</time></trkpt><trkpt lat="43.297429395167676" lon="10.494518467021193"><ele>5.0</ele><time>2026-04-19T06:14:01Z</time></trkpt><trkpt lat="43.29749506670003" lon="10.49446137077532"><ele>5.0</ele><time>2026-04-19T06:14:04Z</time></trkpt><trkpt lat="43.29755115544087" lon="10.494422071692359"><ele>5.0</ele><time>2026-04-19T06:14:07Z</time></trkpt><trkpt lat="43.29761903866359" lon="10.494385739826722"><ele>4.714285714285714</ele><time>2026-04-19T06:14:11Z</time></trkpt><trkpt lat="43.297668296798044" lon="10.494316236028446"><ele>4.428571428571429</ele><time>2026-04-19T06:14:17Z</time></trkpt><trkpt lat="43.29771308828534" lon="10.494232457416116"><ele>4.142857142857142</ele><time>2026-04-19T06:14:22Z</time></trkpt><trkpt lat="43.297763819178044" lon="10.494158580571124"><ele>3.8571428571428568</ele><time>2026-04-19T06:14:28Z</time></trkpt><trkpt lat="43.29781332271834" lon="10.494083382743213"><ele>3.571428571428571</ele><time>2026-04-19T06:14:33Z</time></trkpt><trkpt lat="43.297866729110595" lon="10.494016318380563"><ele>3.2857142857142856</ele><time>2026-04-19T06:14:37Z</time></trkpt><trkpt lat="43.297909548871125" lon="10.493937701619165"><ele>3.0</ele><time>2026-04-19T06:14:41Z</time></trkpt><trkpt lat="43.297959498890215" lon="10.493861357283764"><ele>2.9999999999999996</ele><time>2026-04-19T06:14:45Z</time></trkpt><trkpt lat="43.2980152326407" lon="10.49379182934429"><ele>3.0</ele><time>2026-04-19T06:14:50Z</time></trkpt><trkpt lat="43.29806949319402" lon="10.493735007396227"><ele>3.0</ele><time>2026-04-19T06:14:54Z</time></trkpt><trkpt lat="43.29813120432552" lon="10.493671642392528"><ele>3.0</ele><time>2026-04-19T06:14:59Z</time></trkpt><trkpt lat="43.29818301560912" lon="10.493621499198293"><ele>3.0</ele><time>2026-04-19T06:15:03Z</time></trkpt><trkpt lat="43.29823997783829" lon="10.493559524002515"><ele>2.9999999999999996</ele><time>2026-04-19T06:15:08Z</time></trkpt><trkpt lat="43.2983003697414" lon="10.493519435714957"><ele>3.0</ele><time>2026-04-19T06:15:12Z</time></trkpt><trkpt lat="43.29834120960658" lon="10.49345072543899"><ele>2.9999999999999996</ele><time>2026-04-19T06:15:16Z</time></trkpt><trkpt lat="43.298382924717174" lon="10.493375323695394"><ele>3.0</ele><time>2026-04-19T06:15:21Z</time></trkpt><trkpt lat="43.298411169155074" lon="10.493287474706891"><ele>3.0</ele><time>2026-04-19T06:15:26Z</time></trkpt><trkpt lat="43.29846154556017" lon="10.493209256665452"><ele>3.0</ele><time>2026-04-19T06:15:31Z</time></trkpt><trkpt lat="43.29850931407827" lon="10.49312960445491"><ele>3.0</ele><time>2026-04-19T06:15:36Z</time></trkpt><trkpt lat="43.29856435810613" lon="10.493067959644137"><ele>2.9999999999999996</ele><time>2026-04-19T06:15:41Z</time></trkpt><trkpt lat="43.298604918869934" lon="10.492971216847799"><ele>3.0</ele><time>2026-04-19T06:15:45Z</time></trkpt><trkpt lat="43.29867371365591" lon="10.49291858457835"><ele>2.9999999999999996</ele><time>2026-04-19T06:15:49Z</time></trkpt><trkpt lat="43.29872669095352" lon="10.49285022994745"><ele>3.0</ele><time>2026-04-19T06:15:54Z</time></trkpt><trkpt lat="43.29878330121201" lon="10.492796383930004"><ele>3.0</ele><time>2026-04-19T06:15:59Z</time></trkpt><trkpt lat="43.29884507933623" lon="10.492748618414522"><ele>3.0</ele><time>2026-04-19T06:16:05Z</time></trkpt><trkpt lat="43.29890314163912" lon="10.492695017011217"><ele>3.0</ele><time>2026-04-19T06:16:10Z</time></trkpt><trkpt lat="43.29895203331855" lon="10.492628458807028"><ele>2.9999999999999996</ele><time>2026-04-19T06:16:14Z</time></trkpt><trkpt lat="43.298999271362476" lon="10.492563827058385"><ele>3.0</ele><time>2026-04-19T06:16:18Z</time></trkpt><trkpt lat="43.299051789901895" lon="10.492503898069497"><ele>2.9999999999999996</ele><time>2026-04-19T06:16:22Z</time></trkpt><trkpt lat="43.29910957551341" lon="10.492454576233705"><ele>3.0</ele><time>2026-04-19T06:16:26Z</time></trkpt><trkpt lat="43.29916229949851" lon="10.492392353383707"><ele>3.0</ele><time>2026-04-19T06:16:31Z</time></trkpt><trkpt lat="43.2991995167545" lon="10.492321668214826"><ele>3.0</ele><time>2026-04-19T06:16:36Z</time></trkpt><trkpt lat="43.299241739476905" lon="10.49225282867488"><ele>3.0</ele><time>2026-04-19T06:16:41Z</time></trkpt><trkpt lat="43.29929028179585" lon="10.492195635888415"><ele>2.9999999999999996</ele><time>2026-04-19T06:16:45Z</time></trkpt><trkpt lat="43.29933999169204" lon="10.492118168143248"><ele>3.0</ele><time>2026-04-19T06:16:50Z</time></trkpt><trkpt lat="43.2993821386974" lon="10.492050301981427"><ele>2.8571428571428568</ele><time>2026-04-19T06:16:55Z</time></trkpt><trkpt lat="43.29943452362769" lon="10.49197832017675"><ele>2.7142857142857144</ele><time>2026-04-19T06:17:00Z</time></trkpt><trkpt lat="43.29949925169692" lon="10.491931602313148"><ele>2.571428571428571</ele><time>2026-04-19T06:17:05Z</time></trkpt><trkpt lat="43.299558684262664" lon="10.491885733334906"><ele>2.4285714285714284</ele><time>2026-04-19T06:17:09Z</time></trkpt><trkpt lat="43.29961247224269" lon="10.491829729634807"><ele>2.2857142857142856</ele><time>2026-04-19T06:17:13Z</time></trkpt><trkpt lat="43.29965756764305" lon="10.491745495143563"><ele>2.142857142857143</ele><time>2026-04-19T06:17:18Z</time></trkpt><trkpt lat="43.2997070466761" lon="10.49166446706278"><ele>2.0</ele><time>2026-04-19T06:17:22Z</time></trkpt><trkpt lat="43.29975734337079" lon="10.491603337243498"><ele>2.0</ele><time>2026-04-19T06:17:26Z</time></trkpt><trkpt lat="43.299816740937466" lon="10.491549514207904"><ele>1.9999999999999998</ele><time>2026-04-19T06:17:31Z</time></trkpt><trkpt lat="43.29987386157919" lon="10.491491808795319"><ele>2.0</ele><time>2026-04-19T06:17:36Z</time></trkpt><trkpt lat="43.29993303667212" lon="10.491423587744851"><ele>2.0</ele><time>2026-04-19T06:17:40Z</time></trkpt><trkpt lat="43.29997434620751" lon="10.49134514994745"><ele>1.9999999999999998</ele><time>2026-04-19T06:17:44Z</time></trkpt><trkpt lat="43.30002483936598" lon="10.491262976615593"><ele>2.0</ele><time>2026-04-19T06:17:50Z</time></trkpt><trkpt lat="43.300073093057904" lon="10.491202076848824"><ele>2.0</ele><time>2026-04-19T06:17:54Z</time></trkpt><trkpt lat="43.300137288563874" lon="10.491139094023831"><ele>2.0</ele><time>2026-04-19T06:17:59Z</time></trkpt><trkpt lat="43.300207235079064" lon="10.491110794562276"><ele>1.9999999999999998</ele><time>2026-04-19T06:18:04Z</time></trkpt><trkpt lat="43.300272056250456" lon="10.491169194482874"><ele>2.0</ele><time>2026-04-19T06:18:14Z</time></trkpt><trkpt lat="43.300327635568756" lon="10.491220855289104"><ele>2.0</ele><time>2026-04-19T06:18:19Z</time></trkpt><trkpt lat="43.30038391593299" lon="10.491265818404502"><ele>1.9999999999999998</ele><time>2026-04-19T06:18:23Z</time></trkpt><trkpt lat="43.30045275689916" lon="10.49127694580311"><ele>2.0</ele><time>2026-04-19T06:18:27Z</time></trkpt><trkpt lat="43.30052462110084" lon="10.491247808014888"><ele>2.0</ele><time>2026-04-19T06:18:31Z</time></trkpt><trkpt lat="43.30059488578032" lon="10.491205323273286"><ele>2.142857142857143</ele><time>2026-04-19T06:18:36Z</time></trkpt><trkpt lat="43.30065538684256" lon="10.491154740414721"><ele>2.2857142857142856</ele><time>2026-04-19T06:18:41Z</time></trkpt><trkpt lat="43.3007199419767" lon="10.491113678512923"><ele>2.4285714285714284</ele><time>2026-04-19T06:18:46Z</time></trkpt><trkpt lat="43.300775111037964" lon="10.491071564659597"><ele>2.571428571428571</ele><time>2026-04-19T06:18:51Z</time></trkpt><trkpt lat="43.30084428208461" lon="10.491021613616661"><ele>2.7142857142857144</ele><time>2026-04-19T06:18:56Z</time></trkpt><trkpt lat="43.300916435110466" lon="10.490994248776556"><ele>2.8571428571428568</ele><time>2026-04-19T06:19:01Z</time></trkpt><trkpt lat="43.30098617033437" lon="10.491002962353072"><ele>3.0</ele><time>2026-04-19T06:19:06Z</time></trkpt><trkpt lat="43.30105567089195" lon="10.491028564304163"><ele>2.9999999999999996</ele><time>2026-04-19T06:19:11Z</time></trkpt><trkpt lat="43.30108903497749" lon="10.49110549540019"><ele>3.0</ele><time>2026-04-19T06:19:16Z</time></trkpt><trkpt lat="43.301146653884544" lon="10.49117725832902"><ele>3.0</ele><time>2026-04-19T06:19:22Z</time></trkpt><trkpt lat="43.30118451240462" lon="10.49124857823486"><ele>3.0</ele><time>2026-04-19T06:19:26Z</time></trkpt><trkpt lat="43.30122735093109" lon="10.491332288122333"><ele>3.0</ele><time>2026-04-19T06:19:32Z</time></trkpt><trkpt lat="43.30126231136755" lon="10.491416740273838"><ele>2.9999999999999996</ele><time>2026-04-19T06:19:37Z</time></trkpt><trkpt lat="43.30129915932028" lon="10.49150727719455"><ele>3.0</ele><time>2026-04-19T06:19:42Z</time></trkpt><trkpt lat="43.3013239795262" lon="10.491590829440739"><ele>2.9999999999999996</ele><time>2026-04-19T06:19:47Z</time></trkpt><trkpt lat="43.30136861537241" lon="10.491662265885317"><ele>3.0</ele><time>2026-04-19T06:19:52Z</time></trkpt><trkpt lat="43.30140469143162" lon="10.491737229607272"><ele>3.0</ele><time>2026-04-19T06:19:59Z</time></trkpt><trkpt lat="43.30144571052678" lon="10.491810835219466"><ele>3.0</ele><time>2026-04-19T06:20:05Z</time></trkpt><trkpt lat="43.30147590079104" lon="10.49189155413234"><ele>3.0</ele><time>2026-04-19T06:20:11Z</time></trkpt><trkpt lat="43.30152829439033" lon="10.491941051229452"><ele>2.9999999999999996</ele><time>2026-04-19T06:20:15Z</time></trkpt><trkpt lat="43.30158191083248" lon="10.492030679361429"><ele>3.0</ele><time>2026-04-19T06:20:19Z</time></trkpt><trkpt lat="43.301636552423524" lon="10.492100589467064"><ele>2.9999999999999996</ele><time>2026-04-19T06:20:23Z</time></trkpt><trkpt lat="43.301678994619365" lon="10.492191923948175"><ele>3.0</ele><time>2026-04-19T06:20:27Z</time></trkpt><trkpt lat="43.301711373895955" lon="10.492284020298287"><ele>3.0</ele><time>2026-04-19T06:20:31Z</time></trkpt><trkpt lat="43.301733327754235" lon="10.49237554463349"><ele>3.0</ele><time>2026-04-19T06:20:35Z</time></trkpt><trkpt lat="43.30175916873953" lon="10.492471298503864"><ele>3.0</ele><time>2026-04-19T06:20:40Z</time></trkpt><trkpt lat="43.301804659814294" lon="10.492549904141011"><ele>2.9999999999999996</ele><time>2026-04-19T06:20:45Z</time></trkpt><trkpt lat="43.30182803567968" lon="10.492631604679639"><ele>3.0</ele><time>2026-04-19T06:20:52Z</time></trkpt><trkpt lat="43.3018653674877" lon="10.492714476331443"><ele>2.9999999999999996</ele><time>2026-04-19T06:21:00Z</time></trkpt><trkpt lat="43.30191494318636" lon="10.49277568606369"><ele>3.0</ele><time>2026-04-19T06:21:04Z</time></trkpt><trkpt lat="43.30196485620758" lon="10.49284923424255"><ele>3.0</ele><time>2026-04-19T06:21:08Z</time></trkpt><trkpt lat="43.30201751405098" lon="10.492935436250852"><ele>3.0</ele><time>2026-04-19T06:21:12Z</time></trkpt><trkpt lat="43.302065733140594" lon="10.493005823624015"><ele>3.0</ele><time>2026-04-19T06:21:16Z</time></trkpt><trkpt lat="43.30210565043438" lon="10.493074322605473"><ele>2.9999999999999996</ele><time>2026-04-19T06:21:20Z</time></trkpt><trkpt lat="43.302155726326006" lon="10.493150327901576"><ele>3.0</ele><time>2026-04-19T06:21:25Z</time></trkpt><trkpt lat="43.302172682409164" lon="10.49324135615507"><ele>2.8571428571428568</ele><time>2026-04-19T06:21:29Z</time></trkpt><trkpt lat="43.30221165482977" lon="10.493325484632575"><ele>2.7142857142857144</ele><time>2026-04-19T06:21:35Z</time></trkpt><trkpt lat="43.30224410448943" lon="10.493411736701985"><ele>2.571428571428571</ele><time>2026-04-19T06:21:40Z</time></trkpt><trkpt lat="43.302295145478645" lon="10.493497792760326"><ele>2.4285714285714284</ele><time>2026-04-19T06:21:46Z</time></trkpt><trkpt lat="43.302329353134446" lon="10.493590114545148"><ele>2.2857142857142856</ele><time>2026-04-19T06:21:50Z</time></trkpt><trkpt lat="43.30235985998719" lon="10.493668472151997"><ele>2.142857142857143</ele><time>2026-04-19T06:21:54Z</time></trkpt><trkpt lat="43.30239414509285" lon="10.493748088895313"><ele>2.0</ele><time>2026-04-19T06:21:58Z</time></trkpt><trkpt lat="43.302402937404416" lon="10.493839604595331"><ele>2.0</ele><time>2026-04-19T06:22:06Z</time></trkpt><trkpt lat="43.30245654432896" lon="10.493892727526173"><ele>1.9999999999999998</ele><time>2026-04-19T06:22:11Z</time></trkpt><trkpt lat="43.302512947133565" lon="10.49396059937454"><ele>2.0</ele><time>2026-04-19T06:22:16Z</time></trkpt><trkpt lat="43.302565939411345" lon="10.494014063941941"><ele>2.0</ele><time>2026-04-19T06:22:20Z</time></trkpt><trkpt lat="43.302613234865376" lon="10.4940757395253"><ele>1.9999999999999998</ele><time>2026-04-19T06:22:24Z</time></trkpt><trkpt lat="43.30266002831291" lon="10.494136019320033"><ele>2.0</ele><time>2026-04-19T06:22:29Z</time></trkpt><trkpt lat="43.30271678779247" lon="10.494180259493804"><ele>2.0</ele><time>2026-04-19T06:22:37Z</time></trkpt><trkpt lat="43.30279099191471" lon="10.494204961517925"><ele>2.0</ele><time>2026-04-19T06:22:41Z</time></trkpt><trkpt lat="43.3028639180002" lon="10.494210084421715"><ele>1.9999999999999998</ele><time>2026-04-19T06:22:45Z</time></trkpt><trkpt lat="43.302920516661594" lon="10.494159792173063"><ele>2.0</ele><time>2026-04-19T06:22:50Z</time></trkpt><trkpt lat="43.30296864029934" lon="10.494094911295111"><ele>2.0</ele><time>2026-04-19T06:22:55Z</time></trkpt><trkpt lat="43.30302721842836" lon="10.494042112423614"><ele>1.9999999999999998</ele><time>2026-04-19T06:23:00Z</time></trkpt><trkpt lat="43.30309239007782" lon="10.49401273390092"><ele>2.0</ele><time>2026-04-19T06:23:03Z</time></trkpt><trkpt lat="43.30316116567373" lon="10.493961472783374"><ele>2.0</ele><time>2026-04-19T06:23:07Z</time></trkpt><trkpt lat="43.303219782368224" lon="10.493916586201122"><ele>2.0</ele><time>2026-04-19T06:23:11Z</time></trkpt><trkpt lat="43.303275797100824" lon="10.493869670078519"><ele>1.9999999999999998</ele><time>2026-04-19T06:23:18Z</time></trkpt><trkpt lat="43.30333097646842" lon="10.49381369735265"><ele>2.0</ele><time>2026-04-19T06:23:25Z</time></trkpt><trkpt lat="43.303383862350394" lon="10.493754398621773"><ele>2.0</ele><time>2026-04-19T06:23:30Z</time></trkpt><trkpt lat="43.303440514865514" lon="10.493703480579587"><ele>1.9999999999999998</ele><time>2026-04-19T06:23:34Z</time></trkpt><trkpt lat="43.30350002057434" lon="10.493651762166527"><ele>2.0</ele><time>2026-04-19T06:23:38Z</time></trkpt><trkpt lat="43.30355774977823" lon="10.493604518101284"><ele>2.0</ele><time>2026-04-19T06:23:42Z</time></trkpt><trkpt lat="43.30361829349322" lon="10.493551745559856"><ele>1.857142857142857</ele><time>2026-04-19T06:23:47Z</time></trkpt><trkpt lat="43.303680618699595" lon="10.493497083516962"><ele>1.714285714285714</ele><time>2026-04-19T06:23:52Z</time></trkpt><trkpt lat="43.30373875293512" lon="10.493448566681431"><ele>1.5714285714285714</ele><time>2026-04-19T06:23:57Z</time></trkpt><trkpt lat="43.303807333598" lon="10.493399446951361"><ele>1.4285714285714284</ele><time>2026-04-19T06:24:02Z</time></trkpt><trkpt lat="43.30387163252449" lon="10.493345919102753"><ele>1.2857142857142856</ele><time>2026-04-19T06:24:07Z</time></trkpt><trkpt lat="43.3039351914853" lon="10.493291395979988"><ele>1.1428571428571428</ele><time>2026-04-19T06:24:12Z</time></trkpt><trkpt lat="43.303991340421" lon="10.493243167910691"><ele>1.0</ele><time>2026-04-19T06:24:16Z</time></trkpt><trkpt lat="43.304055126116566" lon="10.493191437691893"><ele>0.8571428571428571</ele><time>2026-04-19T06:24:21Z</time></trkpt><trkpt lat="43.30412260981003" lon="10.493136155215279"><ele>0.7142857142857142</ele><time>2026-04-19T06:24:26Z</time></trkpt><trkpt lat="43.30418211411177" lon="10.493086455548001"><ele>0.5714285714285714</ele><time>2026-04-19T06:24:31Z</time></trkpt><trkpt lat="43.3042452813663" lon="10.493034249917557"><ele>0.42857142857142855</ele><time>2026-04-19T06:24:36Z</time></trkpt><trkpt lat="43.3043084513756" lon="10.492980980600583"><ele>0.2857142857142857</ele><time>2026-04-19T06:24:41Z</time></trkpt><trkpt lat="43.304365657855094" lon="10.492931630124376"><ele>0.14285714285714285</ele><time>2026-04-19T06:24:46Z</time></trkpt><trkpt lat="43.30442213012376" lon="10.492886095344412"><ele>0.0</ele><time>2026-04-19T06:24:50Z</time></trkpt><trkpt lat="43.304482438714295" lon="10.492837561699986"><ele>0.0</ele><time>2026-04-19T06:24:55Z</time></trkpt><trkpt lat="43.30454599247299" lon="10.49277640174141"><ele>0.0</ele><time>2026-04-19T06:25:00Z</time></trkpt><trkpt lat="43.30462369748756" lon="10.492734410586227"><ele>0.0</ele><time>2026-04-19T06:25:06Z</time></trkpt><trkpt lat="43.3046892120931" lon="10.492683337098233"><ele>0.0</ele><time>2026-04-19T06:25:11Z</time></trkpt><trkpt lat="43.3047494456959" lon="10.49263373665552"><ele>0.0</ele><time>2026-04-19T06:25:16Z</time></trkpt><trkpt lat="43.304815893918665" lon="10.49257963680526"><ele>0.0</ele><time>2026-04-19T06:25:21Z</time></trkpt><trkpt lat="43.30487641821528" lon="10.492520153733935"><ele>0.0</ele><time>2026-04-19T06:25:26Z</time></trkpt><trkpt lat="43.3049286954422" lon="10.492468852635136"><ele>0.0</ele><time>2026-04-19T06:25:30Z</time></trkpt><trkpt lat="43.30499410764959" lon="10.492409439563787"><ele>0.0</ele><time>2026-04-19T06:25:35Z</time></trkpt><trkpt lat="43.30504764250358" lon="10.492355899156449"><ele>0.0</ele><time>2026-04-19T06:25:40Z</time></trkpt><trkpt lat="43.305107753623744" lon="10.492308046286377"><ele>0.0</ele><time>2026-04-19T06:25:45Z</time></trkpt><trkpt lat="43.30516795037795" lon="10.492250807822817"><ele>0.0</ele><time>2026-04-19T06:25:50Z</time></trkpt><trkpt lat="43.305228073481835" lon="10.492190251181512"><ele>0.0</ele><time>2026-04-19T06:25:55Z</time></trkpt><trkpt lat="43.30529280350911" lon="10.492133597895101"><ele>0.0</ele><time>2026-04-19T06:26:00Z</time></trkpt><trkpt lat="43.305355360780354" lon="10.492078354994772"><ele>0.0</ele><time>2026-04-19T06:26:05Z</time></trkpt><trkpt lat="43.30541764817533" lon="10.492025433687255"><ele>0.0</ele><time>2026-04-19T06:26:10Z</time></trkpt><trkpt lat="43.30547935810292" lon="10.491968494656724"><ele>0.0</ele><time>2026-04-19T06:26:15Z</time></trkpt><trkpt lat="43.305543735153044" lon="10.491912256709723"><ele>0.0</ele><time>2026-04-19T06:26:20Z</time></trkpt><trkpt lat="43.305611050440106" lon="10.491857413412522"><ele>0.0</ele><time>2026-04-19T06:26:25Z</time></trkpt><trkpt lat="43.30567605529885" lon="10.49181223773894"><ele>0.0</ele><time>2026-04-19T06:26:30Z</time></trkpt><trkpt lat="43.30573968595119" lon="10.491749778123578"><ele>0.16666666666666666</ele><time>2026-04-19T06:26:35Z</time></trkpt><trkpt lat="43.30579980038988" lon="10.49169187645376"><ele>0.3333333333333333</ele><time>2026-04-19T06:26:40Z</time></trkpt><trkpt lat="43.30586381060076" lon="10.491634905127956"><ele>0.5</ele><time>2026-04-19T06:26:45Z</time></trkpt><trkpt lat="43.305925819332266" lon="10.491575858755164"><ele>0.6666666666666666</ele><time>2026-04-19T06:26:50Z</time></trkpt><trkpt lat="43.305991736926785" lon="10.491519682211385"><ele>0.8333333333333333</ele><time>2026-04-19T06:26:55Z</time></trkpt><trkpt lat="43.30605211204799" lon="10.491463062298536"><ele>1.0</ele><time>2026-04-19T06:27:00Z</time></trkpt><trkpt lat="43.30611508496778" lon="10.491404783541366"><ele>1.0</ele><time>2026-04-19T06:27:05Z</time></trkpt><trkpt lat="43.30617442681599" lon="10.491346455410476"><ele>0.9999999999999999</ele><time>2026-04-19T06:27:10Z</time></trkpt><trkpt lat="43.30624108376609" lon="10.49128567397342"><ele>1.0</ele><time>2026-04-19T06:27:15Z</time></trkpt><trkpt lat="43.3062958163816" lon="10.49123762471082"><ele>1.0</ele><time>2026-04-19T06:27:19Z</time></trkpt><trkpt lat="43.30635580936467" lon="10.491187413505822"><ele>0.9999999999999999</ele><time>2026-04-19T06:27:24Z</time></trkpt><trkpt lat="43.30641943875231" lon="10.491129213092293"><ele>1.0</ele><time>2026-04-19T06:27:29Z</time></trkpt><trkpt lat="43.30647634332705" lon="10.491081610538162"><ele>1.0</ele><time>2026-04-19T06:27:33Z</time></trkpt><trkpt lat="43.30653779168948" lon="10.491028907339826"><ele>1.2857142857142856</ele><time>2026-04-19T06:27:38Z</time></trkpt><trkpt lat="43.30660219124179" lon="10.49097119238071"><ele>1.5714285714285712</ele><time>2026-04-19T06:27:43Z</time></trkpt><trkpt lat="43.30666696417839" lon="10.490918290175971"><ele>1.857142857142857</ele><time>2026-04-19T06:27:48Z</time></trkpt><trkpt lat="43.306722183832896" lon="10.490865103917159"><ele>2.142857142857143</ele><time>2026-04-19T06:27:53Z</time></trkpt><trkpt lat="43.306775596222145" lon="10.490815010610058"><ele>2.4285714285714284</ele><time>2026-04-19T06:27:57Z</time></trkpt><trkpt lat="43.306843122628834" lon="10.490756159133506"><ele>2.714285714285714</ele><time>2026-04-19T06:28:02Z</time></trkpt><trkpt lat="43.30690647039167" lon="10.49070006819924"><ele>3.0</ele><time>2026-04-19T06:28:07Z</time></trkpt><trkpt lat="43.3069658762862" lon="10.49064272350712"><ele>2.9999999999999996</ele><time>2026-04-19T06:28:12Z</time></trkpt><trkpt lat="43.30702594517493" lon="10.490585695582478"><ele>3.0</ele><time>2026-04-19T06:28:17Z</time></trkpt><trkpt lat="43.307088523832455" lon="10.490529504332937"><ele>3.0</ele><time>2026-04-19T06:28:22Z</time></trkpt><trkpt lat="43.307142288176074" lon="10.490483643870034"><ele>3.0</ele><time>2026-04-19T06:28:26Z</time></trkpt><trkpt lat="43.307201275649724" lon="10.4904296473105"><ele>3.0</ele><time>2026-04-19T06:28:31Z</time></trkpt><trkpt lat="43.30726451269599" lon="10.490377828780185"><ele>2.9999999999999996</ele><time>2026-04-19T06:28:36Z</time></trkpt><trkpt lat="43.30732330498876" lon="10.490322259281836"><ele>3.0</ele><time>2026-04-19T06:28:41Z</time></trkpt><trkpt lat="43.307386427491174" lon="10.490262463861479"><ele>3.1428571428571423</ele><time>2026-04-19T06:28:46Z</time></trkpt><trkpt lat="43.307448069792066" lon="10.490216764939003"><ele>3.2857142857142856</ele><time>2026-04-19T06:28:51Z</time></trkpt><trkpt lat="43.307502225179334" lon="10.490164540862768"><ele>3.4285714285714284</ele><time>2026-04-19T06:28:56Z</time></trkpt><trkpt lat="43.30756506869561" lon="10.490112070235867"><ele>3.571428571428571</ele><time>2026-04-19T06:29:01Z</time></trkpt><trkpt lat="43.30763300814124" lon="10.490057134345374"><ele>3.714285714285714</ele><time>2026-04-19T06:29:06Z</time></trkpt><trkpt lat="43.30769048918713" lon="10.490000890692325"><ele>3.8571428571428568</ele><time>2026-04-19T06:29:11Z</time></trkpt><trkpt lat="43.30774188317039" lon="10.489948736912627"><ele>4.0</ele><time>2026-04-19T06:29:15Z</time></trkpt><trkpt lat="43.30780700165653" lon="10.489885496517596"><ele>3.9999999999999996</ele><time>2026-04-19T06:29:20Z</time></trkpt><trkpt lat="43.30786888515282" lon="10.489837372209214"><ele>4.0</ele><time>2026-04-19T06:29:25Z</time></trkpt><trkpt lat="43.307931537819755" lon="10.48978394889134"><ele>4.0</ele><time>2026-04-19T06:29:30Z</time></trkpt><trkpt lat="43.30799713367014" lon="10.489727271366958"><ele>4.0</ele><time>2026-04-19T06:29:35Z</time></trkpt><trkpt lat="43.30806160570828" lon="10.489670449714431"><ele>3.9999999999999996</ele><time>2026-04-19T06:29:40Z</time></trkpt><trkpt lat="43.30812261467572" lon="10.489614384702877"><ele>4.0</ele><time>2026-04-19T06:29:45Z</time></trkpt><trkpt lat="43.308188368529976" lon="10.489548698952234"><ele>3.571428571428571</ele><time>2026-04-19T06:29:50Z</time></trkpt><trkpt lat="43.30824996717068" lon="10.489492551914118"><ele>3.1428571428571423</ele><time>2026-04-19T06:29:55Z</time></trkpt><trkpt lat="43.308317211326575" lon="10.48943122463829"><ele>2.714285714285714</ele><time>2026-04-19T06:30:00Z</time></trkpt><trkpt lat="43.308382087600286" lon="10.48937543383927"><ele>2.2857142857142856</ele><time>2026-04-19T06:30:05Z</time></trkpt><trkpt lat="43.30844497017727" lon="10.489328158722085"><ele>1.857142857142857</ele><time>2026-04-19T06:30:10Z</time></trkpt><trkpt lat="43.308500901481885" lon="10.489270823654177"><ele>1.4285714285714284</ele><time>2026-04-19T06:30:15Z</time></trkpt><trkpt lat="43.30855975678514" lon="10.489220794251114"><ele>1.0</ele><time>2026-04-19T06:30:21Z</time></trkpt><trkpt lat="43.3086135836333" lon="10.489167181645207"><ele>1.0</ele><time>2026-04-19T06:30:25Z</time></trkpt><trkpt lat="43.30867593149687" lon="10.489115253060863"><ele>0.9999999999999999</ele><time>2026-04-19T06:30:30Z</time></trkpt><trkpt lat="43.30874479883656" lon="10.48905954680392"><ele>1.0</ele><time>2026-04-19T06:30:35Z</time></trkpt><trkpt lat="43.30880910423236" lon="10.489008020563666"><ele>1.0</ele><time>2026-04-19T06:30:40Z</time></trkpt><trkpt lat="43.30886361449904" lon="10.488958869761314"><ele>0.9999999999999999</ele><time>2026-04-19T06:30:44Z</time></trkpt><trkpt lat="43.30891475864385" lon="10.488904966857184"><ele>1.0</ele><time>2026-04-19T06:30:48Z</time></trkpt><trkpt lat="43.30897830145063" lon="10.488850949498946"><ele>1.0</ele><time>2026-04-19T06:30:53Z</time></trkpt><trkpt lat="43.30904146882596" lon="10.488795369279034"><ele>0.8333333333333333</ele><time>2026-04-19T06:30:58Z</time></trkpt><trkpt lat="43.30910200290046" lon="10.488734560324275"><ele>0.6666666666666666</ele><time>2026-04-19T06:31:03Z</time></trkpt><trkpt lat="43.309166864928436" lon="10.488676675016578"><ele>0.5</ele><time>2026-04-19T06:31:08Z</time></trkpt><trkpt lat="43.30922782016726" lon="10.488622142037416"><ele>0.3333333333333333</ele><time>2026-04-19T06:31:13Z</time></trkpt><trkpt lat="43.30928720626269" lon="10.488571141713624"><ele>0.16666666666666666</ele><time>2026-04-19T06:31:17Z</time></trkpt><trkpt lat="43.30935439614821" lon="10.488507979948556"><ele>0.0</ele><time>2026-04-19T06:31:22Z</time></trkpt><trkpt lat="43.30941785869576" lon="10.488443493148887"><ele>0.0</ele><time>2026-04-19T06:31:27Z</time></trkpt><trkpt lat="43.30948392627211" lon="10.488384195790337"><ele>0.0</ele><time>2026-04-19T06:31:32Z</time></trkpt><trkpt lat="43.309544186305295" lon="10.488333371749567"><ele>0.0</ele><time>2026-04-19T06:31:37Z</time></trkpt><trkpt lat="43.30960393607559" lon="10.488271703332105"><ele>0.0</ele><time>2026-04-19T06:31:42Z</time></trkpt><trkpt lat="43.30966895326148" lon="10.488216595823046"><ele>0.0</ele><time>2026-04-19T06:31:47Z</time></trkpt><trkpt lat="43.309729220576706" lon="10.488162072773855"><ele>0.0</ele><time>2026-04-19T06:31:52Z</time></trkpt><trkpt lat="43.30979524765408" lon="10.488109820190687"><ele>0.0</ele><time>2026-04-19T06:31:57Z</time></trkpt><trkpt lat="43.30984798234466" lon="10.488061127334872"><ele>0.14285714285714285</ele><time>2026-04-19T06:32:01Z</time></trkpt><trkpt lat="43.3099086634701" lon="10.488007807887689"><ele>0.2857142857142857</ele><time>2026-04-19T06:32:06Z</time></trkpt><trkpt lat="43.3099733932793" lon="10.48795575884044"><ele>0.42857142857142855</ele><time>2026-04-19T06:32:11Z</time></trkpt><trkpt lat="43.31003092361954" lon="10.48791221916182"><ele>0.5714285714285714</ele><time>2026-04-19T06:32:16Z</time></trkpt><trkpt lat="43.310093683577335" lon="10.487852895402748"><ele>0.7142857142857142</ele><time>2026-04-19T06:32:21Z</time></trkpt><trkpt lat="43.310154187909546" lon="10.4878009517726"><ele>0.8571428571428571</ele><time>2026-04-19T06:32:26Z</time></trkpt><trkpt lat="43.31020792437286" lon="10.487755378487405"><ele>1.0</ele><time>2026-04-19T06:32:30Z</time></trkpt><trkpt lat="43.31027497236094" lon="10.487698138125472"><ele>1.0</ele><time>2026-04-19T06:32:35Z</time></trkpt><trkpt lat="43.31033514880604" lon="10.487638277511715"><ele>0.9999999999999999</ele><time>2026-04-19T06:32:40Z</time></trkpt><trkpt lat="43.31039859829391" lon="10.487582838684961"><ele>1.0</ele><time>2026-04-19T06:32:45Z</time></trkpt><trkpt lat="43.31046166641029" lon="10.487524571827466"><ele>1.0</ele><time>2026-04-19T06:32:50Z</time></trkpt><trkpt lat="43.31052390649913" lon="10.487467029608197"><ele>0.9999999999999999</ele><time>2026-04-19T06:32:55Z</time></trkpt><trkpt lat="43.31057746188966" lon="10.487420452585782"><ele>1.0</ele><time>2026-04-19T06:32:59Z</time></trkpt><trkpt lat="43.31063198139567" lon="10.48736355909486"><ele>1.0</ele><time>2026-04-19T06:33:04Z</time></trkpt><trkpt lat="43.3106951588623" lon="10.48731273608708"><ele>1.0</ele><time>2026-04-19T06:33:09Z</time></trkpt><trkpt lat="43.31075444528149" lon="10.487248612685741"><ele>0.9999999999999999</ele><time>2026-04-19T06:33:14Z</time></trkpt><trkpt lat="43.31081232686837" lon="10.487209686482545"><ele>1.0</ele><time>2026-04-19T06:33:18Z</time></trkpt><trkpt lat="43.310878517930504" lon="10.48717346909211"><ele>1.0</ele><time>2026-04-19T06:33:23Z</time></trkpt><trkpt lat="43.31094643737635" lon="10.487136741120814"><ele>0.9999999999999999</ele><time>2026-04-19T06:33:28Z</time></trkpt><trkpt lat="43.311011419714504" lon="10.48711240331"><ele>1.0</ele><time>2026-04-19T06:33:32Z</time></trkpt><trkpt lat="43.311075762672836" lon="10.487088860440533"><ele>1.0</ele><time>2026-04-19T06:33:36Z</time></trkpt><trkpt lat="43.311148407280875" lon="10.48705739911847"><ele>1.0</ele><time>2026-04-19T06:33:41Z</time></trkpt><trkpt lat="43.3112177525481" lon="10.487036244546958"><ele>0.9999999999999999</ele><time>2026-04-19T06:33:46Z</time></trkpt><trkpt lat="43.31128885153307" lon="10.487034879592143"><ele>1.0</ele><time>2026-04-19T06:33:51Z</time></trkpt><trkpt lat="43.31135299667248" lon="10.487056643816262"><ele>1.0</ele><time>2026-04-19T06:33:56Z</time></trkpt><trkpt lat="43.31142201616414" lon="10.487091717336128"><ele>0.9999999999999999</ele><time>2026-04-19T06:34:01Z</time></trkpt><trkpt lat="43.31147506702938" lon="10.487139014320014"><ele>1.0</ele><time>2026-04-19T06:34:05Z</time></trkpt><trkpt lat="43.31152551986887" lon="10.487208978958531"><ele>1.0</ele><time>2026-04-19T06:34:10Z</time></trkpt><trkpt lat="43.31157995258994" lon="10.487289867660467"><ele>0.8571428571428571</ele><time>2026-04-19T06:34:15Z</time></trkpt><trkpt lat="43.3116258208232" lon="10.487365915351983"><ele>0.7142857142857142</ele><time>2026-04-19T06:34:20Z</time></trkpt><trkpt lat="43.31167459183128" lon="10.487447421264601"><ele>0.5714285714285714</ele><time>2026-04-19T06:34:25Z</time></trkpt><trkpt lat="43.31171469805499" lon="10.48751959014591"><ele>0.42857142857142855</ele><time>2026-04-19T06:34:29Z</time></trkpt><trkpt lat="43.31176069026218" lon="10.487599238760842"><ele>0.2857142857142857</ele><time>2026-04-19T06:34:34Z</time></trkpt><trkpt lat="43.31180550951694" lon="10.487671348280667"><ele>0.14285714285714285</ele><time>2026-04-19T06:34:39Z</time></trkpt><trkpt lat="43.31185280572504" lon="10.487752830510244"><ele>0.0</ele><time>2026-04-19T06:34:44Z</time></trkpt><trkpt lat="43.31189983894973" lon="10.487830171266065"><ele>0.0</ele><time>2026-04-19T06:34:49Z</time></trkpt><trkpt lat="43.311941919433224" lon="10.48790266056478"><ele>0.0</ele><time>2026-04-19T06:34:53Z</time></trkpt><trkpt lat="43.31198500352657" lon="10.487970807992081"><ele>0.0</ele><time>2026-04-19T06:34:58Z</time></trkpt><trkpt lat="43.31202397630733" lon="10.488043055674426"><ele>0.0</ele><time>2026-04-19T06:35:02Z</time></trkpt><trkpt lat="43.31206974540681" lon="10.488118688444192"><ele>0.0</ele><time>2026-04-19T06:35:07Z</time></trkpt><trkpt lat="43.31211209632018" lon="10.488197931801546"><ele>0.0</ele><time>2026-04-19T06:35:12Z</time></trkpt><trkpt lat="43.31215873088187" lon="10.488274845042916"><ele>0.0</ele><time>2026-04-19T06:35:17Z</time></trkpt><trkpt lat="43.31219848884173" lon="10.488342237441826"><ele>0.0</ele><time>2026-04-19T06:35:21Z</time></trkpt><trkpt lat="43.312239266977656" lon="10.48841104881286"><ele>0.0</ele><time>2026-04-19T06:35:25Z</time></trkpt><trkpt lat="43.3122841323501" lon="10.48849115307587"><ele>0.0</ele><time>2026-04-19T06:35:30Z</time></trkpt><trkpt lat="43.312332028844125" lon="10.488571401786658"><ele>0.0</ele><time>2026-04-19T06:35:35Z</time></trkpt><trkpt lat="43.312377542038554" lon="10.488641916264495"><ele>0.0</ele><time>2026-04-19T06:35:40Z</time></trkpt><trkpt lat="43.3124198696743" lon="10.488722970560234"><ele>0.0</ele><time>2026-04-19T06:35:45Z</time></trkpt><trkpt lat="43.31246750953835" lon="10.488799953782229"><ele>0.0</ele><time>2026-04-19T06:35:50Z</time></trkpt><trkpt lat="43.312511698574134" lon="10.488877945472888"><ele>-0.14285714285714285</ele><time>2026-04-19T06:35:55Z</time></trkpt><trkpt lat="43.312555666478424" lon="10.488953513993138"><ele>-0.2857142857142857</ele><time>2026-04-19T06:36:00Z</time></trkpt><trkpt lat="43.312603067102344" lon="10.489029866274011"><ele>-0.42857142857142855</ele><time>2026-04-19T06:36:05Z</time></trkpt><trkpt lat="43.31264911106331" lon="10.48911072291653"><ele>-0.5714285714285714</ele><time>2026-04-19T06:36:10Z</time></trkpt><trkpt lat="43.31269538878923" lon="10.489191374268453"><ele>-0.7142857142857142</ele><time>2026-04-19T06:36:15Z</time></trkpt><trkpt lat="43.312747320337046" lon="10.48927640966163"><ele>-0.8571428571428571</ele><time>2026-04-19T06:36:20Z</time></trkpt><trkpt lat="43.31279098000254" lon="10.489358767902138"><ele>-1.0</ele><time>2026-04-19T06:36:25Z</time></trkpt><trkpt lat="43.31283671074973" lon="10.489435754810735"><ele>-0.9999999999999999</ele><time>2026-04-19T06:36:30Z</time></trkpt><trkpt lat="43.312881685759564" lon="10.489513094993768"><ele>-1.0</ele><time>2026-04-19T06:36:35Z</time></trkpt><trkpt lat="43.31292887461066" lon="10.489589411695409"><ele>-1.0</ele><time>2026-04-19T06:36:40Z</time></trkpt><trkpt lat="43.31297042418915" lon="10.489669076592692"><ele>-1.0</ele><time>2026-04-19T06:36:45Z</time></trkpt><trkpt lat="43.31301745443245" lon="10.489747813869368"><ele>-0.9999999999999999</ele><time>2026-04-19T06:36:50Z</time></trkpt><trkpt lat="43.313069983248134" lon="10.489839189388727"><ele>-1.0</ele><time>2026-04-19T06:36:55Z</time></trkpt><trkpt lat="43.31311664814318" lon="10.489919168502658"><ele>-0.5714285714285714</ele><time>2026-04-19T06:37:01Z</time></trkpt><trkpt lat="43.31316058380261" lon="10.48999180501042"><ele>-0.1428571428571428</ele><time>2026-04-19T06:37:06Z</time></trkpt><trkpt lat="43.313205179126726" lon="10.490068515307389"><ele>0.2857142857142857</ele><time>2026-04-19T06:37:11Z</time></trkpt><trkpt lat="43.31324975301949" lon="10.490145479402823"><ele>0.7142857142857142</ele><time>2026-04-19T06:37:16Z</time></trkpt><trkpt lat="43.31330056080126" lon="10.490227138500781"><ele>1.1428571428571428</ele><time>2026-04-19T06:37:21Z</time></trkpt><trkpt lat="43.313344136124655" lon="10.490303975351356"><ele>1.5714285714285714</ele><time>2026-04-19T06:37:26Z</time></trkpt><trkpt lat="43.313381751216895" lon="10.49037799435641"><ele>2.0</ele><time>2026-04-19T06:37:31Z</time></trkpt><trkpt lat="43.3134262529312" lon="10.490449513166872"><ele>2.142857142857143</ele><time>2026-04-19T06:37:36Z</time></trkpt><trkpt lat="43.31347320117479" lon="10.490535473926316"><ele>2.2857142857142856</ele><time>2026-04-19T06:37:42Z</time></trkpt><trkpt lat="43.313508822768675" lon="10.49060791024103"><ele>2.4285714285714284</ele><time>2026-04-19T06:37:46Z</time></trkpt><trkpt lat="43.31355987027886" lon="10.490671749561903"><ele>2.571428571428571</ele><time>2026-04-19T06:37:51Z</time></trkpt><trkpt lat="43.3136066358691" lon="10.490746024918467"><ele>2.7142857142857144</ele><time>2026-04-19T06:37:56Z</time></trkpt><trkpt lat="43.3136477492982" lon="10.490816494686953"><ele>2.8571428571428568</ele><time>2026-04-19T06:38:01Z</time></trkpt><trkpt lat="43.313687428873095" lon="10.490889169164678"><ele>3.0</ele><time>2026-04-19T06:38:06Z</time></trkpt><trkpt lat="43.313734737899566" lon="10.490968095106835"><ele>2.9999999999999996</ele><time>2026-04-19T06:38:11Z</time></trkpt><trkpt lat="43.31378012436479" lon="10.491042768548331"><ele>3.0</ele><time>2026-04-19T06:38:16Z</time></trkpt><trkpt lat="43.313827132958714" lon="10.491126051862826"><ele>3.0</ele><time>2026-04-19T06:38:21Z</time></trkpt><trkpt lat="43.313868370145414" lon="10.491202440076574"><ele>3.0</ele><time>2026-04-19T06:38:26Z</time></trkpt><trkpt lat="43.31391867126479" lon="10.491282312679097"><ele>3.0</ele><time>2026-04-19T06:38:31Z</time></trkpt><trkpt lat="43.313962783540525" lon="10.491351500564445"><ele>2.9999999999999996</ele><time>2026-04-19T06:38:36Z</time></trkpt><trkpt lat="43.31400631801068" lon="10.491425590496291"><ele>3.0</ele><time>2026-04-19T06:38:41Z</time></trkpt><trkpt lat="43.31404289850449" lon="10.49149733780136"><ele>2.8571428571428568</ele><time>2026-04-19T06:38:45Z</time></trkpt><trkpt lat="43.314091477056735" lon="10.491578024709948"><ele>2.7142857142857144</ele><time>2026-04-19T06:38:50Z</time></trkpt><trkpt lat="43.31413869612955" lon="10.49165908530523"><ele>2.571428571428571</ele><time>2026-04-19T06:38:55Z</time></trkpt><trkpt lat="43.31418410927542" lon="10.49173506799693"><ele>2.4285714285714284</ele><time>2026-04-19T06:39:00Z</time></trkpt><trkpt lat="43.31422811852054" lon="10.491814501560526"><ele>2.2857142857142856</ele><time>2026-04-19T06:39:05Z</time></trkpt><trkpt lat="43.31427499257465" lon="10.491892566470819"><ele>2.142857142857143</ele><time>2026-04-19T06:39:10Z</time></trkpt><trkpt lat="43.314322412508574" lon="10.491977510080822"><ele>2.0</ele><time>2026-04-19T06:39:15Z</time></trkpt><trkpt lat="43.31437006077734" lon="10.492056202508069"><ele>2.0</ele><time>2026-04-19T06:39:20Z</time></trkpt><trkpt lat="43.314412324954326" lon="10.49213406900164"><ele>1.9999999999999998</ele><time>2026-04-19T06:39:25Z</time></trkpt><trkpt lat="43.314461524004926" lon="10.492210806452194"><ele>2.0</ele><time>2026-04-19T06:39:30Z</time></trkpt><trkpt lat="43.314512567129476" lon="10.492292903282229"><ele>2.0</ele><time>2026-04-19T06:39:35Z</time></trkpt><trkpt lat="43.3145568437499" lon="10.492369381156198"><ele>1.9999999999999998</ele><time>2026-04-19T06:39:40Z</time></trkpt><trkpt lat="43.31459794791597" lon="10.492445128424977"><ele>2.0</ele><time>2026-04-19T06:39:45Z</time></trkpt><trkpt lat="43.314642972173544" lon="10.49252009049333"><ele>2.0</ele><time>2026-04-19T06:39:50Z</time></trkpt><trkpt lat="43.31468566965342" lon="10.4925926028445"><ele>2.0</ele><time>2026-04-19T06:39:55Z</time></trkpt><trkpt lat="43.314732227221675" lon="10.49266676965103"><ele>1.9999999999999998</ele><time>2026-04-19T06:40:00Z</time></trkpt><trkpt lat="43.3147759147396" lon="10.492745253405412"><ele>2.0</ele><time>2026-04-19T06:40:05Z</time></trkpt><trkpt lat="43.31481875419655" lon="10.492824978878941"><ele>2.0</ele><time>2026-04-19T06:40:10Z</time></trkpt><trkpt lat="43.31486173896645" lon="10.4928904659328"><ele>1.9999999999999998</ele><time>2026-04-19T06:40:14Z</time></trkpt><trkpt lat="43.3149003311649" lon="10.49296436465684"><ele>2.0</ele><time>2026-04-19T06:40:18Z</time></trkpt><trkpt lat="43.314948867184754" lon="10.493044167963816"><ele>2.0</ele><time>2026-04-19T06:40:23Z</time></trkpt><trkpt lat="43.314990436012515" lon="10.493112400229652"><ele>1.9999999999999998</ele><time>2026-04-19T06:40:27Z</time></trkpt><trkpt lat="43.31503735815959" lon="10.493193381373922"><ele>2.0</ele><time>2026-04-19T06:40:32Z</time></trkpt><trkpt lat="43.31508084704693" lon="10.493273190696847"><ele>2.0</ele><time>2026-04-19T06:40:37Z</time></trkpt><trkpt lat="43.3151248069344" lon="10.493350439607788"><ele>2.0</ele><time>2026-04-19T06:40:42Z</time></trkpt><trkpt lat="43.315175573660404" lon="10.493434238557025"><ele>1.9999999999999998</ele><time>2026-04-19T06:40:47Z</time></trkpt><trkpt lat="43.31522258167241" lon="10.493515770659174"><ele>2.0</ele><time>2026-04-19T06:40:52Z</time></trkpt><trkpt lat="43.31527538457857" lon="10.493595800227551"><ele>2.0</ele><time>2026-04-19T06:40:57Z</time></trkpt><trkpt lat="43.31532046731888" lon="10.49368076121586"><ele>1.9999999999999998</ele><time>2026-04-19T06:41:02Z</time></trkpt><trkpt lat="43.31536752894847" lon="10.493756458282993"><ele>2.0</ele><time>2026-04-19T06:41:07Z</time></trkpt><trkpt lat="43.3154086819585" lon="10.493824134663946"><ele>2.0</ele><time>2026-04-19T06:41:11Z</time></trkpt><trkpt lat="43.31545404967227" lon="10.49391038312388"><ele>1.9999999999999998</ele><time>2026-04-19T06:41:16Z</time></trkpt><trkpt lat="43.31549746999355" lon="10.493988780103845"><ele>2.0</ele><time>2026-04-19T06:41:21Z</time></trkpt><trkpt lat="43.315546832178036" lon="10.494067371207874"><ele>2.0</ele><time>2026-04-19T06:41:26Z</time></trkpt><trkpt lat="43.315592458572596" lon="10.494144333638685"><ele>2.0</ele><time>2026-04-19T06:41:31Z</time></trkpt><trkpt lat="43.315638358252144" lon="10.494220256620943"><ele>1.9999999999999998</ele><time>2026-04-19T06:41:36Z</time></trkpt><trkpt lat="43.31567395509174" lon="10.494299119311185"><ele>2.0</ele><time>2026-04-19T06:41:41Z</time></trkpt><trkpt lat="43.3157200901843" lon="10.494376481571422"><ele>2.0</ele><time>2026-04-19T06:41:46Z</time></trkpt><trkpt lat="43.31577306953232" lon="10.494454782589802"><ele>1.9999999999999998</ele><time>2026-04-19T06:41:52Z</time></trkpt><trkpt lat="43.315813048777215" lon="10.494532556092562"><ele>2.0</ele><time>2026-04-19T06:41:57Z</time></trkpt><trkpt lat="43.31585697647347" lon="10.494609689549582"><ele>2.0</ele><time>2026-04-19T06:42:03Z</time></trkpt><trkpt lat="43.31590215281146" lon="10.494688042012985"><ele>2.0</ele><time>2026-04-19T06:42:08Z</time></trkpt><trkpt lat="43.315942873415246" lon="10.494756776726284"><ele>1.9999999999999998</ele><time>2026-04-19T06:42:13Z</time></trkpt><trkpt lat="43.31599753385817" lon="10.494817628713294"><ele>2.0</ele><time>2026-04-19T06:42:18Z</time></trkpt><trkpt lat="43.316041901582416" lon="10.494893965469888"><ele>2.0</ele><time>2026-04-19T06:42:23Z</time></trkpt><trkpt lat="43.316085524195266" lon="10.494973689943247"><ele>1.9999999999999998</ele><time>2026-04-19T06:42:28Z</time></trkpt><trkpt lat="43.316127968674316" lon="10.495058558868093"><ele>2.0</ele><time>2026-04-19T06:42:33Z</time></trkpt><trkpt lat="43.31617088694962" lon="10.495130155790125"><ele>2.0</ele><time>2026-04-19T06:42:38Z</time></trkpt><trkpt lat="43.31622251896182" lon="10.49520057584999"><ele>2.0</ele><time>2026-04-19T06:42:43Z</time></trkpt><trkpt lat="43.316268486722706" lon="10.495282042217756"><ele>1.9999999999999998</ele><time>2026-04-19T06:42:48Z</time></trkpt><trkpt lat="43.31631384151267" lon="10.495358321623009"><ele>2.0</ele><time>2026-04-19T06:42:53Z</time></trkpt><trkpt lat="43.31635963074019" lon="10.495429908141755"><ele>2.0</ele><time>2026-04-19T06:42:58Z</time></trkpt><trkpt lat="43.3164078350214" lon="10.495501633983425"><ele>1.9999999999999998</ele><time>2026-04-19T06:43:03Z</time></trkpt><trkpt lat="43.3164477162312" lon="10.495568927903312"><ele>2.0</ele><time>2026-04-19T06:43:07Z</time></trkpt><trkpt lat="43.31649360747322" lon="10.49564853262637"><ele>2.0</ele><time>2026-04-19T06:43:12Z</time></trkpt><trkpt lat="43.31653521097304" lon="10.495715205553457"><ele>1.8333333333333333</ele><time>2026-04-19T06:43:16Z</time></trkpt><trkpt lat="43.3165800595219" lon="10.49580968770213"><ele>1.6666666666666665</ele><time>2026-04-19T06:43:21Z</time></trkpt><trkpt lat="43.31662685665505" lon="10.495888714552562"><ele>1.5</ele><time>2026-04-19T06:43:26Z</time></trkpt><trkpt lat="43.316671564131376" lon="10.495974848977648"><ele>1.3333333333333333</ele><time>2026-04-19T06:43:31Z</time></trkpt><trkpt lat="43.316718371166715" lon="10.496057829452639"><ele>1.1666666666666665</ele><time>2026-04-19T06:43:36Z</time></trkpt><trkpt lat="43.316768780461246" lon="10.496132337413295"><ele>1.0</ele><time>2026-04-19T06:43:41Z</time></trkpt><trkpt lat="43.31681592366049" lon="10.49620986733322"><ele>1.1428571428571428</ele><time>2026-04-19T06:43:46Z</time></trkpt><trkpt lat="43.316857044001985" lon="10.496282868053335"><ele>1.2857142857142856</ele><time>2026-04-19T06:43:51Z</time></trkpt><trkpt lat="43.31690870125337" lon="10.496364210352828"><ele>1.4285714285714284</ele><time>2026-04-19T06:43:56Z</time></trkpt><trkpt lat="43.31695669723241" lon="10.496446086170572"><ele>1.5714285714285714</ele><time>2026-04-19T06:44:01Z</time></trkpt><trkpt lat="43.31700587150738" lon="10.496529124963418"><ele>1.714285714285714</ele><time>2026-04-19T06:44:06Z</time></trkpt><trkpt lat="43.317049562840054" lon="10.496604224925465"><ele>1.857142857142857</ele><time>2026-04-19T06:44:11Z</time></trkpt><trkpt lat="43.31709023842048" lon="10.49667362556684"><ele>2.0</ele><time>2026-04-19T06:44:15Z</time></trkpt><trkpt lat="43.317131630190836" lon="10.496746966845667"><ele>1.9999999999999998</ele><time>2026-04-19T06:44:20Z</time></trkpt><trkpt lat="43.317178506239046" lon="10.496829339495811"><ele>2.0</ele><time>2026-04-19T06:44:25Z</time></trkpt><trkpt lat="43.31722620562568" lon="10.496908439690769"><ele>2.0</ele><time>2026-04-19T06:44:30Z</time></trkpt><trkpt lat="43.31727137229782" lon="10.49698772480762"><ele>2.0</ele><time>2026-04-19T06:44:35Z</time></trkpt><trkpt lat="43.31731140940714" lon="10.49707002191574"><ele>1.9999999999999998</ele><time>2026-04-19T06:44:40Z</time></trkpt><trkpt lat="43.317355525960146" lon="10.497157389557595"><ele>2.0</ele><time>2026-04-19T06:44:45Z</time></trkpt><trkpt lat="43.31736535854589" lon="10.497261872316443"><ele>2.142857142857143</ele><time>2026-04-19T06:44:50Z</time></trkpt><trkpt lat="43.3173656652031" lon="10.497366617866996"><ele>2.2857142857142856</ele><time>2026-04-19T06:44:55Z</time></trkpt><trkpt lat="43.3173640810807" lon="10.497461379886113"><ele>2.4285714285714284</ele><time>2026-04-19T06:45:00Z</time></trkpt><trkpt lat="43.31736799567019" lon="10.497550777090122"><ele>2.571428571428571</ele><time>2026-04-19T06:45:05Z</time></trkpt><trkpt lat="43.31736418791684" lon="10.497654304040525"><ele>2.7142857142857144</ele><time>2026-04-19T06:45:10Z</time></trkpt><trkpt lat="43.31735221173858" lon="10.497753863743132"><ele>2.8571428571428568</ele><time>2026-04-19T06:45:15Z</time></trkpt><trkpt lat="43.31732655925227" lon="10.497842798137325"><ele>3.0</ele><time>2026-04-19T06:45:20Z</time></trkpt><trkpt lat="43.317289786590855" lon="10.497920960088443"><ele>2.9999999999999996</ele><time>2026-04-19T06:45:26Z</time></trkpt><trkpt lat="43.317280141355944" lon="10.49801535597682"><ele>3.0</ele><time>2026-04-19T06:45:31Z</time></trkpt><trkpt lat="43.317223633073574" lon="10.498063030057718"><ele>3.0</ele><time>2026-04-19T06:46:22Z</time></trkpt><trkpt lat="43.317221954211824" lon="10.49815575971654"><ele>3.0</ele><time>2026-04-19T06:46:28Z</time></trkpt><trkpt lat="43.317231941676376" lon="10.498249390410143"><ele>3.0</ele><time>2026-04-19T06:46:32Z</time></trkpt><trkpt lat="43.317273055043984" lon="10.498341106441286"><ele>2.9999999999999996</ele><time>2026-04-19T06:46:36Z</time></trkpt><trkpt lat="43.31731943462677" lon="10.498429928419315"><ele>3.0</ele><time>2026-04-19T06:46:41Z</time></trkpt><trkpt lat="43.317369777086796" lon="10.498504551116213"><ele>2.9999999999999996</ele><time>2026-04-19T06:46:46Z</time></trkpt><trkpt lat="43.317406517374714" lon="10.498575464704466"><ele>3.0</ele><time>2026-04-19T06:46:50Z</time></trkpt><trkpt lat="43.317447250840665" lon="10.498642888995532"><ele>3.0</ele><time>2026-04-19T06:46:54Z</time></trkpt><trkpt lat="43.31748789812" lon="10.49871100894066"><ele>3.0</ele><time>2026-04-19T06:46:58Z</time></trkpt><trkpt lat="43.317529989218016" lon="10.49877798023431"><ele>3.0</ele><time>2026-04-19T06:47:02Z</time></trkpt><trkpt lat="43.317575612031106" lon="10.498859935777743"><ele>2.9999999999999996</ele><time>2026-04-19T06:47:07Z</time></trkpt><trkpt lat="43.31762379041401" lon="10.498947413620533"><ele>3.0</ele><time>2026-04-19T06:47:12Z</time></trkpt><trkpt lat="43.31768259214286" lon="10.499018031590325"><ele>2.9999999999999996</ele><time>2026-04-19T06:47:17Z</time></trkpt><trkpt lat="43.31771884348782" lon="10.499101189017336"><ele>3.0</ele><time>2026-04-19T06:47:22Z</time></trkpt><trkpt lat="43.3177721625954" lon="10.499151257181326"><ele>3.0</ele><time>2026-04-19T06:47:26Z</time></trkpt><trkpt lat="43.317813240067" lon="10.499233608334729"><ele>3.0</ele><time>2026-04-19T06:47:31Z</time></trkpt><trkpt lat="43.317870683029" lon="10.499298703806911"><ele>3.0</ele><time>2026-04-19T06:47:36Z</time></trkpt><trkpt lat="43.3179162165578" lon="10.499372529871884"><ele>2.9999999999999996</ele><time>2026-04-19T06:47:41Z</time></trkpt><trkpt lat="43.317959979349226" lon="10.499439756374656"><ele>3.0</ele><time>2026-04-19T06:47:46Z</time></trkpt><trkpt lat="43.31801043076239" lon="10.4995080847042"><ele>3.1428571428571423</ele><time>2026-04-19T06:47:51Z</time></trkpt><trkpt lat="43.318081145501885" lon="10.499548097878474"><ele>3.2857142857142856</ele><time>2026-04-19T06:47:56Z</time></trkpt><trkpt lat="43.31814734065955" lon="10.49959092203304"><ele>3.4285714285714284</ele><time>2026-04-19T06:48:01Z</time></trkpt><trkpt lat="43.31820881781344" lon="10.499625238086079"><ele>3.571428571428571</ele><time>2026-04-19T06:48:05Z</time></trkpt><trkpt lat="43.31826906456466" lon="10.499668110990598"><ele>3.714285714285714</ele><time>2026-04-19T06:48:09Z</time></trkpt><trkpt lat="43.31833578711572" lon="10.499709772246096"><ele>3.8571428571428568</ele><time>2026-04-19T06:48:14Z</time></trkpt><trkpt lat="43.31840133057192" lon="10.499722212291346"><ele>4.0</ele><time>2026-04-19T06:48:18Z</time></trkpt><trkpt lat="43.31846854756293" lon="10.499732751470791"><ele>4.0</ele><time>2026-04-19T06:48:22Z</time></trkpt><trkpt lat="43.31854154620136" lon="10.499753680824895"><ele>3.9999999999999996</ele><time>2026-04-19T06:48:27Z</time></trkpt><trkpt lat="43.31860420190489" lon="10.499763040941264"><ele>4.0</ele><time>2026-04-19T06:48:31Z</time></trkpt><trkpt lat="43.318675163762784" lon="10.499771802262133"><ele>4.0</ele><time>2026-04-19T06:48:36Z</time></trkpt><trkpt lat="43.318751847436765" lon="10.499761270587394"><ele>3.9999999999999996</ele><time>2026-04-19T06:48:41Z</time></trkpt><trkpt lat="43.318820473655656" lon="10.499771818691432"><ele>4.0</ele><time>2026-04-19T06:48:46Z</time></trkpt><trkpt lat="43.31888521708271" lon="10.499791018898506"><ele>4.0</ele><time>2026-04-19T06:48:51Z</time></trkpt><trkpt lat="43.31893566769748" lon="10.499868193377454"><ele>3.8571428571428568</ele><time>2026-04-19T06:48:57Z</time></trkpt><trkpt lat="43.31898082163861" lon="10.499941437104095"><ele>3.714285714285714</ele><time>2026-04-19T06:49:01Z</time></trkpt><trkpt lat="43.31902967991546" lon="10.50001576282373"><ele>3.571428571428571</ele><time>2026-04-19T06:49:06Z</time></trkpt><trkpt lat="43.31907833819228" lon="10.500095320644363"><ele>3.4285714285714284</ele><time>2026-04-19T06:49:11Z</time></trkpt><trkpt lat="43.31911757590845" lon="10.500179149327533"><ele>3.2857142857142856</ele><time>2026-04-19T06:49:16Z</time></trkpt><trkpt lat="43.31915448716844" lon="10.50025571207515"><ele>3.1428571428571423</ele><time>2026-04-19T06:49:20Z</time></trkpt><trkpt lat="43.31919509169534" lon="10.500328179726242"><ele>3.0</ele><time>2026-04-19T06:49:24Z</time></trkpt><trkpt lat="43.31923325273016" lon="10.500404515722552"><ele>2.8571428571428568</ele><time>2026-04-19T06:49:29Z</time></trkpt><trkpt lat="43.31927363451629" lon="10.500490313146758"><ele>2.7142857142857144</ele><time>2026-04-19T06:49:34Z</time></trkpt><trkpt lat="43.3193162050649" lon="10.500578516270105"><ele>2.571428571428571</ele><time>2026-04-19T06:49:39Z</time></trkpt><trkpt lat="43.31936471437595" lon="10.500662312049103"><ele>2.4285714285714284</ele><time>2026-04-19T06:49:44Z</time></trkpt><trkpt lat="43.31940565129351" lon="10.500730208838977"><ele>2.2857142857142856</ele><time>2026-04-19T06:49:48Z</time></trkpt><trkpt lat="43.31944456405944" lon="10.500802103135545"><ele>2.142857142857143</ele><time>2026-04-19T06:49:53Z</time></trkpt><trkpt lat="43.319482913639014" lon="10.50088367747879"><ele>2.0</ele><time>2026-04-19T06:49:58Z</time></trkpt><trkpt lat="43.319524498049084" lon="10.50096647956024"><ele>2.0</ele><time>2026-04-19T06:50:03Z</time></trkpt><trkpt lat="43.31956248923339" lon="10.50104540548116"><ele>1.9999999999999998</ele><time>2026-04-19T06:50:07Z</time></trkpt><trkpt lat="43.319604733730316" lon="10.501133897232105"><ele>2.0</ele><time>2026-04-19T06:50:13Z</time></trkpt><trkpt lat="43.31964599806704" lon="10.501206784376933"><ele>2.0</ele><time>2026-04-19T06:50:17Z</time></trkpt><trkpt lat="43.31969425184248" lon="10.501291288440125"><ele>1.9999999999999998</ele><time>2026-04-19T06:50:22Z</time></trkpt><trkpt lat="43.319736876644996" lon="10.501365339253816"><ele>2.0</ele><time>2026-04-19T06:50:27Z</time></trkpt><trkpt lat="43.31977782570614" lon="10.501446795698742"><ele>2.0</ele><time>2026-04-19T06:50:32Z</time></trkpt><trkpt lat="43.31981138754075" lon="10.501531475169694"><ele>2.2857142857142856</ele><time>2026-04-19T06:50:38Z</time></trkpt><trkpt lat="43.31984835574606" lon="10.501604938517797"><ele>2.571428571428571</ele><time>2026-04-19T06:50:41Z</time></trkpt><trkpt lat="43.31989381126284" lon="10.501692731136968"><ele>2.8571428571428568</ele><time>2026-04-19T06:50:45Z</time></trkpt><trkpt lat="43.31993745001028" lon="10.50177862004306"><ele>3.142857142857143</ele><time>2026-04-19T06:50:50Z</time></trkpt><trkpt lat="43.31997903762075" lon="10.501848994314367"><ele>3.428571428571428</ele><time>2026-04-19T06:50:54Z</time></trkpt><trkpt lat="43.32001538719454" lon="10.501928775572427"><ele>3.714285714285714</ele><time>2026-04-19T06:50:58Z</time></trkpt><trkpt lat="43.3200604907115" lon="10.502014705445262"><ele>4.0</ele><time>2026-04-19T06:51:03Z</time></trkpt><trkpt lat="43.32010194209052" lon="10.502099243035026"><ele>3.9999999999999996</ele><time>2026-04-19T06:51:08Z</time></trkpt><trkpt lat="43.32015236547979" lon="10.502188857102901"><ele>4.0</ele><time>2026-04-19T06:51:13Z</time></trkpt><trkpt lat="43.3201987515493" lon="10.502274843218382"><ele>4.0</ele><time>2026-04-19T06:51:18Z</time></trkpt><trkpt lat="43.32023985809969" lon="10.502357184467119"><ele>4.0</ele><time>2026-04-19T06:51:23Z</time></trkpt><trkpt lat="43.320289824377596" lon="10.502449461755287"><ele>3.9999999999999996</ele><time>2026-04-19T06:51:28Z</time></trkpt><trkpt lat="43.320329694017296" lon="10.502520610375006"><ele>4.0</ele><time>2026-04-19T06:51:33Z</time></trkpt><trkpt lat="43.32037091402274" lon="10.502600331106596"><ele>4.0</ele><time>2026-04-19T06:51:38Z</time></trkpt><trkpt lat="43.320413921607866" lon="10.502682493833271"><ele>3.9999999999999996</ele><time>2026-04-19T06:51:43Z</time></trkpt><trkpt lat="43.320462677154296" lon="10.502772806532535"><ele>4.0</ele><time>2026-04-19T06:51:48Z</time></trkpt><trkpt lat="43.32050986566665" lon="10.50285884658371"><ele>4.0</ele><time>2026-04-19T06:51:53Z</time></trkpt><trkpt lat="43.320546893975546" lon="10.502929998562875"><ele>3.9999999999999996</ele><time>2026-04-19T06:51:57Z</time></trkpt><trkpt lat="43.32058565716219" lon="10.503004371429489"><ele>4.0</ele><time>2026-04-19T06:52:01Z</time></trkpt><trkpt lat="43.32062189624165" lon="10.503080212132282"><ele>4.0</ele><time>2026-04-19T06:52:05Z</time></trkpt><trkpt lat="43.32066572275863" lon="10.503166051839688"><ele>3.8571428571428568</ele><time>2026-04-19T06:52:10Z</time></trkpt><trkpt lat="43.320708952716835" lon="10.50324859365761"><ele>3.714285714285714</ele><time>2026-04-19T06:52:15Z</time></trkpt><trkpt lat="43.32075353130734" lon="10.50332699674464"><ele>3.571428571428571</ele><time>2026-04-19T06:52:20Z</time></trkpt><trkpt lat="43.32080211250574" lon="10.5034013806888"><ele>3.4285714285714284</ele><time>2026-04-19T06:52:26Z</time></trkpt><trkpt lat="43.32085839695191" lon="10.503479134947396"><ele>3.2857142857142856</ele><time>2026-04-19T06:52:31Z</time></trkpt><trkpt lat="43.32090609020485" lon="10.503567727002055"><ele>3.1428571428571423</ele><time>2026-04-19T06:52:35Z</time></trkpt><trkpt lat="43.32094310166815" lon="10.503649508282361"><ele>3.0</ele><time>2026-04-19T06:52:39Z</time></trkpt><trkpt lat="43.32098030239991" lon="10.503740712297809"><ele>2.8571428571428568</ele><time>2026-04-19T06:52:44Z</time></trkpt><trkpt lat="43.321023180805206" lon="10.503825014421018"><ele>2.7142857142857144</ele><time>2026-04-19T06:52:49Z</time></trkpt><trkpt lat="43.32104181384183" lon="10.503908081958157"><ele>2.571428571428571</ele><time>2026-04-19T06:52:53Z</time></trkpt><trkpt lat="43.32108329433937" lon="10.503989895087857"><ele>2.4285714285714284</ele><time>2026-04-19T06:52:58Z</time></trkpt><trkpt lat="43.321120402555366" lon="10.504068713494284"><ele>2.2857142857142856</ele><time>2026-04-19T06:53:03Z</time></trkpt><trkpt lat="43.321166873841406" lon="10.504150083196539"><ele>2.142857142857143</ele><time>2026-04-19T06:53:08Z</time></trkpt><trkpt lat="43.32120801877339" lon="10.504227341921572"><ele>2.0</ele><time>2026-04-19T06:53:13Z</time></trkpt><trkpt lat="43.32125192646623" lon="10.504309015126285"><ele>1.9999999999999998</ele><time>2026-04-19T06:53:18Z</time></trkpt><trkpt lat="43.32133144319086" lon="10.504387194602105"><ele>2.0</ele><time>2026-04-19T06:53:24Z</time></trkpt><trkpt lat="43.32135485493769" lon="10.504469158094103"><ele>2.0</ele><time>2026-04-19T06:53:29Z</time></trkpt><trkpt lat="43.32135759106435" lon="10.504560580879835"><ele>2.0</ele><time>2026-04-19T06:53:36Z</time></trkpt><trkpt lat="43.32140606191931" lon="10.504641232942333"><ele>1.9999999999999998</ele><time>2026-04-19T06:53:40Z</time></trkpt><trkpt lat="43.32144769657933" lon="10.504720736996438"><ele>2.0</ele><time>2026-04-19T06:53:44Z</time></trkpt><trkpt lat="43.32149508545466" lon="10.504810678682695"><ele>2.2857142857142856</ele><time>2026-04-19T06:53:49Z</time></trkpt><trkpt lat="43.32154518415617" lon="10.504898713295953"><ele>2.571428571428571</ele><time>2026-04-19T06:53:54Z</time></trkpt><trkpt lat="43.321593468388485" lon="10.504983639772131"><ele>2.8571428571428568</ele><time>2026-04-19T06:53:59Z</time></trkpt><trkpt lat="43.32164246575896" lon="10.505060179461005"><ele>3.142857142857143</ele><time>2026-04-19T06:54:04Z</time></trkpt><trkpt lat="43.321689261925954" lon="10.505132169640264"><ele>3.428571428571428</ele><time>2026-04-19T06:54:09Z</time></trkpt><trkpt lat="43.32173664573078" lon="10.505216110157791"><ele>3.714285714285714</ele><time>2026-04-19T06:54:14Z</time></trkpt><trkpt lat="43.321770805715204" lon="10.505295224487202"><ele>4.0</ele><time>2026-04-19T06:54:19Z</time></trkpt><trkpt lat="43.321826518736444" lon="10.505361225719822"><ele>4.0</ele><time>2026-04-19T06:54:24Z</time></trkpt><trkpt lat="43.321874319536334" lon="10.505446981226632"><ele>3.9999999999999996</ele><time>2026-04-19T06:54:29Z</time></trkpt><trkpt lat="43.32191130028515" lon="10.50552474538523"><ele>4.0</ele><time>2026-04-19T06:54:34Z</time></trkpt><trkpt lat="43.32193806428037" lon="10.505619092728068"><ele>4.0</ele><time>2026-04-19T06:54:39Z</time></trkpt><trkpt lat="43.32197125792552" lon="10.505699690313778"><ele>3.9999999999999996</ele><time>2026-04-19T06:54:45Z</time></trkpt><trkpt lat="43.322007098672124" lon="10.505775037870377"><ele>4.0</ele><time>2026-04-19T06:54:50Z</time></trkpt><trkpt lat="43.322051400816434" lon="10.505861345096672"><ele>4.0</ele><time>2026-04-19T06:54:55Z</time></trkpt><trkpt lat="43.32208856296814" lon="10.505946224574458"><ele>4.0</ele><time>2026-04-19T06:55:00Z</time></trkpt><trkpt lat="43.322132325796844" lon="10.506026757450519"><ele>3.9999999999999996</ele><time>2026-04-19T06:55:05Z</time></trkpt><trkpt lat="43.32217953042865" lon="10.506110245307626"><ele>4.0</ele><time>2026-04-19T06:55:10Z</time></trkpt><trkpt lat="43.32222845278424" lon="10.506193122285225"><ele>4.0</ele><time>2026-04-19T06:55:15Z</time></trkpt><trkpt lat="43.32226787388616" lon="10.506265035743512"><ele>3.9999999999999996</ele><time>2026-04-19T06:55:19Z</time></trkpt><trkpt lat="43.322312398661275" lon="10.506351433985838"><ele>4.0</ele><time>2026-04-19T06:55:24Z</time></trkpt><trkpt lat="43.32235325837987" lon="10.506421128248848"><ele>4.0</ele><time>2026-04-19T06:55:28Z</time></trkpt><trkpt lat="43.32239612329522" lon="10.50650427492227"><ele>4.142857142857142</ele><time>2026-04-19T06:55:33Z</time></trkpt><trkpt lat="43.32243362527463" lon="10.50658226047173"><ele>4.285714285714286</ele><time>2026-04-19T06:55:37Z</time></trkpt><trkpt lat="43.32246922793688" lon="10.506669235095062"><ele>4.428571428571429</ele><time>2026-04-19T06:55:42Z</time></trkpt><trkpt lat="43.32250292041044" lon="10.506753529552991"><ele>4.571428571428571</ele><time>2026-04-19T06:55:47Z</time></trkpt><trkpt lat="43.32254820364102" lon="10.506819588874526"><ele>4.714285714285714</ele><time>2026-04-19T06:55:51Z</time></trkpt><trkpt lat="43.32258903806982" lon="10.506889198031837"><ele>4.857142857142857</ele><time>2026-04-19T06:55:55Z</time></trkpt><trkpt lat="43.322624670812225" lon="10.506962455531358"><ele>5.0</ele><time>2026-04-19T06:55:59Z</time></trkpt><trkpt lat="43.32267037921016" lon="10.507047985055646"><ele>5.0</ele><time>2026-04-19T06:56:04Z</time></trkpt><trkpt lat="43.32271736856702" lon="10.507134530207358"><ele>5.0</ele><time>2026-04-19T06:56:10Z</time></trkpt><trkpt lat="43.322765671065405" lon="10.507217741586038"><ele>5.0</ele><time>2026-04-19T06:56:15Z</time></trkpt><trkpt lat="43.322805680255804" lon="10.507284920347692"><ele>5.0</ele><time>2026-04-19T06:56:19Z</time></trkpt><trkpt lat="43.322844641986585" lon="10.50735896713126"><ele>5.0</ele><time>2026-04-19T06:56:23Z</time></trkpt><trkpt lat="43.322891174844436" lon="10.507450213414224"><ele>5.0</ele><time>2026-04-19T06:56:28Z</time></trkpt><trkpt lat="43.32293236079345" lon="10.507542602412691"><ele>5.0</ele><time>2026-04-19T06:56:33Z</time></trkpt><trkpt lat="43.32296619903059" lon="10.507616019894153"><ele>5.0</ele><time>2026-04-19T06:56:37Z</time></trkpt><trkpt lat="43.32300935353113" lon="10.507682338271415"><ele>5.0</ele><time>2026-04-19T06:56:41Z</time></trkpt><trkpt lat="43.323049981916554" lon="10.507766760638336"><ele>5.0</ele><time>2026-04-19T06:56:46Z</time></trkpt><trkpt lat="43.32309205387282" lon="10.507838975700679"><ele>5.0</ele><time>2026-04-19T06:56:51Z</time></trkpt><trkpt lat="43.32313345599114" lon="10.507910448871272"><ele>5.0</ele><time>2026-04-19T06:56:56Z</time></trkpt><trkpt lat="43.32317128987732" lon="10.50798051130877"><ele>5.0</ele><time>2026-04-19T06:57:00Z</time></trkpt><trkpt lat="43.32320197367266" lon="10.508079030341298"><ele>5.0</ele><time>2026-04-19T06:57:05Z</time></trkpt><trkpt lat="43.32322147415776" lon="10.508172763148485"><ele>5.0</ele><time>2026-04-19T06:57:10Z</time></trkpt><trkpt lat="43.3232395181675" lon="10.508272965277298"><ele>5.0</ele><time>2026-04-19T06:57:14Z</time></trkpt><trkpt lat="43.323259383787075" lon="10.508357902871598"><ele>5.0</ele><time>2026-04-19T06:57:17Z</time></trkpt><trkpt lat="43.3232753783977" lon="10.50844205569909"><ele>5.0</ele><time>2026-04-19T06:57:21Z</time></trkpt><trkpt lat="43.32327579295976" lon="10.50853533550352"><ele>5.0</ele><time>2026-04-19T06:57:26Z</time></trkpt><trkpt lat="43.32325453247835" lon="10.50863192678893"><ele>5.0</ele><time>2026-04-19T06:57:31Z</time></trkpt><trkpt lat="43.323218597379274" lon="10.508728878715635"><ele>5.0</ele><time>2026-04-19T06:57:36Z</time></trkpt><trkpt lat="43.3231880561441" lon="10.50881317359663"><ele>5.0</ele><time>2026-04-19T06:57:40Z</time></trkpt><trkpt lat="43.32314963620077" lon="10.508884107530363"><ele>5.0</ele><time>2026-04-19T06:57:44Z</time></trkpt><trkpt lat="43.32311269795511" lon="10.508959205667582"><ele>5.0</ele><time>2026-04-19T06:57:48Z</time></trkpt><trkpt lat="43.32307037006865" lon="10.509026523981795"><ele>5.0</ele><time>2026-04-19T06:57:52Z</time></trkpt><trkpt lat="43.32302481510166" lon="10.509098499331506"><ele>5.0</ele><time>2026-04-19T06:57:56Z</time></trkpt><trkpt lat="43.32298508071268" lon="10.509170586862817"><ele>5.0</ele><time>2026-04-19T06:58:00Z</time></trkpt><trkpt lat="43.32295013203614" lon="10.509245572482797"><ele>5.0</ele><time>2026-04-19T06:58:04Z</time></trkpt><trkpt lat="43.322926023954075" lon="10.509340360418705"><ele>5.0</ele><time>2026-04-19T06:58:08Z</time></trkpt><trkpt lat="43.322924291420875" lon="10.509441738581025"><ele>5.0</ele><time>2026-04-19T06:58:12Z</time></trkpt><trkpt lat="43.322935630295746" lon="10.509535319574466"><ele>5.0</ele><time>2026-04-19T06:58:16Z</time></trkpt><trkpt lat="43.32294304795348" lon="10.509626876815688"><ele>5.0</ele><time>2026-04-19T06:58:20Z</time></trkpt><trkpt lat="43.3229537315743" lon="10.509719437783255"><ele>5.0</ele><time>2026-04-19T06:58:24Z</time></trkpt><trkpt lat="43.32296243930807" lon="10.509806453355976"><ele>5.0</ele><time>2026-04-19T06:58:28Z</time></trkpt><trkpt lat="43.322959208884186" lon="10.50990087150553"><ele>5.0</ele><time>2026-04-19T06:58:33Z</time></trkpt><trkpt lat="43.3229233934529" lon="10.509976744362373"><ele>5.0</ele><time>2026-04-19T06:58:39Z</time></trkpt><trkpt lat="43.32286585660449" lon="10.510033623647002"><ele>5.0</ele><time>2026-04-19T06:58:43Z</time></trkpt><trkpt lat="43.32280521896335" lon="10.510080818510236"><ele>5.0</ele><time>2026-04-19T06:58:47Z</time></trkpt><trkpt lat="43.32273888308172" lon="10.510107542259837"><ele>5.0</ele><time>2026-04-19T06:58:51Z</time></trkpt><trkpt lat="43.322677162676314" lon="10.510130157505678"><ele>5.0</ele><time>2026-04-19T06:58:55Z</time></trkpt><trkpt lat="43.32261416804186" lon="10.510161060902883"><ele>5.0</ele><time>2026-04-19T06:58:59Z</time></trkpt><trkpt lat="43.322557247144026" lon="10.510211273619454"><ele>5.0</ele><time>2026-04-19T06:59:03Z</time></trkpt><trkpt lat="43.322498392017785" lon="10.510243394366027"><ele>5.0</ele><time>2026-04-19T06:59:07Z</time></trkpt><trkpt lat="43.322430088442346" lon="10.510282156228783"><ele>5.0</ele><time>2026-04-19T06:59:12Z</time></trkpt><trkpt lat="43.32237199860599" lon="10.510328918055626"><ele>5.0</ele><time>2026-04-19T06:59:16Z</time></trkpt><trkpt lat="43.32230770485502" lon="10.510363122222785"><ele>5.0</ele><time>2026-04-19T06:59:20Z</time></trkpt><trkpt lat="43.32223851311298" lon="10.510404004936325"><ele>5.0</ele><time>2026-04-19T06:59:25Z</time></trkpt><trkpt lat="43.32217950581246" lon="10.510436904568211"><ele>5.0</ele><time>2026-04-19T06:59:29Z</time></trkpt><trkpt lat="43.32211980821935" lon="10.510482653357387"><ele>5.0</ele><time>2026-04-19T06:59:33Z</time></trkpt><trkpt lat="43.32206264185135" lon="10.510520612799466"><ele>4.714285714285714</ele><time>2026-04-19T06:59:37Z</time></trkpt><trkpt lat="43.32200559672468" lon="10.510561778117983"><ele>4.428571428571429</ele><time>2026-04-19T06:59:41Z</time></trkpt><trkpt lat="43.32194694153738" lon="10.510598134468097"><ele>4.142857142857142</ele><time>2026-04-19T06:59:45Z</time></trkpt><trkpt lat="43.32187819888985" lon="10.510640152266992"><ele>3.8571428571428568</ele><time>2026-04-19T06:59:50Z</time></trkpt><trkpt lat="43.32181726648207" lon="10.51068011918056"><ele>3.571428571428571</ele><time>2026-04-19T06:59:54Z</time></trkpt><trkpt lat="43.32175845225771" lon="10.51071880008101"><ele>3.2857142857142856</ele><time>2026-04-19T06:59:58Z</time></trkpt><trkpt lat="43.32169011184071" lon="10.510763337573652"><ele>3.0</ele><time>2026-04-19T07:00:03Z</time></trkpt><trkpt lat="43.32162477249725" lon="10.510803908015292"><ele>2.9999999999999996</ele><time>2026-04-19T07:00:08Z</time></trkpt><trkpt lat="43.321558209466225" lon="10.510839445366086"><ele>3.0</ele><time>2026-04-19T07:00:13Z</time></trkpt><trkpt lat="43.321493520091536" lon="10.510884768018574"><ele>3.0</ele><time>2026-04-19T07:00:18Z</time></trkpt><trkpt lat="43.321437225208406" lon="10.510924586796476"><ele>3.0</ele><time>2026-04-19T07:00:22Z</time></trkpt><trkpt lat="43.321375024485285" lon="10.510961566488193"><ele>3.0</ele><time>2026-04-19T07:00:26Z</time></trkpt><trkpt lat="43.32130188727869" lon="10.510998444142306"><ele>2.9999999999999996</ele><time>2026-04-19T07:00:31Z</time></trkpt><trkpt lat="43.321243423944175" lon="10.511033325505586"><ele>3.0</ele><time>2026-04-19T07:00:35Z</time></trkpt><trkpt lat="43.32118367823745" lon="10.511062660719775"><ele>3.2857142857142856</ele><time>2026-04-19T07:00:39Z</time></trkpt><trkpt lat="43.321114994324596" lon="10.511108808186663"><ele>3.571428571428571</ele><time>2026-04-19T07:00:44Z</time></trkpt><trkpt lat="43.321041413632756" lon="10.511155223390729"><ele>3.8571428571428568</ele><time>2026-04-19T07:00:49Z</time></trkpt><trkpt lat="43.320982291997396" lon="10.511193294459957"><ele>4.142857142857142</ele><time>2026-04-19T07:00:53Z</time></trkpt><trkpt lat="43.32092265494541" lon="10.511235863669384"><ele>4.428571428571429</ele><time>2026-04-19T07:00:57Z</time></trkpt><trkpt lat="43.32085358559286" lon="10.511278130185879"><ele>4.714285714285714</ele><time>2026-04-19T07:01:02Z</time></trkpt><trkpt lat="43.32078343175857" lon="10.511327029822512"><ele>5.0</ele><time>2026-04-19T07:01:08Z</time></trkpt><trkpt lat="43.320716341404264" lon="10.511372021249574"><ele>5.0</ele><time>2026-04-19T07:01:13Z</time></trkpt><trkpt lat="43.32064971338576" lon="10.511411874619887"><ele>5.0</ele><time>2026-04-19T07:01:18Z</time></trkpt><trkpt lat="43.32058319128809" lon="10.511448531999815"><ele>5.0</ele><time>2026-04-19T07:01:23Z</time></trkpt><trkpt lat="43.3205256365067" lon="10.511494874862167"><ele>5.0</ele><time>2026-04-19T07:01:27Z</time></trkpt><trkpt lat="43.320455779754795" lon="10.51154390201976"><ele>5.0</ele><time>2026-04-19T07:01:32Z</time></trkpt><trkpt lat="43.32038814053811" lon="10.511579899477677"><ele>5.0</ele><time>2026-04-19T07:01:37Z</time></trkpt><trkpt lat="43.32032887614181" lon="10.511617952928612"><ele>5.0</ele><time>2026-04-19T07:01:41Z</time></trkpt><trkpt lat="43.320267268243136" lon="10.511657735056113"><ele>5.0</ele><time>2026-04-19T07:01:46Z</time></trkpt><trkpt lat="43.320210834313" lon="10.511696598553103"><ele>5.0</ele><time>2026-04-19T07:01:51Z</time></trkpt><trkpt lat="43.320151072287146" lon="10.511732298947955"><ele>5.0</ele><time>2026-04-19T07:01:55Z</time></trkpt><trkpt lat="43.320093304555805" lon="10.511774544796195"><ele>5.0</ele><time>2026-04-19T07:01:59Z</time></trkpt><trkpt lat="43.32002991324735" lon="10.511810049620339"><ele>5.0</ele><time>2026-04-19T07:02:03Z</time></trkpt><trkpt lat="43.31996571789439" lon="10.51184727610368"><ele>5.0</ele><time>2026-04-19T07:02:07Z</time></trkpt><trkpt lat="43.31990239696833" lon="10.511888227813794"><ele>5.0</ele><time>2026-04-19T07:02:12Z</time></trkpt><trkpt lat="43.319839537349075" lon="10.511923723248893"><ele>5.0</ele><time>2026-04-19T07:02:17Z</time></trkpt><trkpt lat="43.31977373774125" lon="10.511961763743"><ele>5.0</ele><time>2026-04-19T07:02:21Z</time></trkpt><trkpt lat="43.31970313677172" lon="10.51198841549177"><ele>5.0</ele><time>2026-04-19T07:02:26Z</time></trkpt><trkpt lat="43.31963536976803" lon="10.512036432187388"><ele>5.0</ele><time>2026-04-19T07:02:31Z</time></trkpt><trkpt lat="43.31957902342975" lon="10.512078647419372"><ele>5.0</ele><time>2026-04-19T07:02:35Z</time></trkpt><trkpt lat="43.319516507765755" lon="10.51211920586966"><ele>5.0</ele><time>2026-04-19T07:02:39Z</time></trkpt><trkpt lat="43.31944885682366" lon="10.512169272349718"><ele>5.0</ele><time>2026-04-19T07:02:44Z</time></trkpt><trkpt lat="43.31938697706924" lon="10.512213552173883"><ele>5.142857142857142</ele><time>2026-04-19T07:02:49Z</time></trkpt><trkpt lat="43.3193225718744" lon="10.512248115565443"><ele>5.285714285714286</ele><time>2026-04-19T07:02:53Z</time></trkpt><trkpt lat="43.31925542300648" lon="10.51228436244784"><ele>5.428571428571429</ele><time>2026-04-19T07:02:57Z</time></trkpt><trkpt lat="43.31919732250378" lon="10.512325627127183"><ele>5.571428571428571</ele><time>2026-04-19T07:03:01Z</time></trkpt><trkpt lat="43.31912812320868" lon="10.51237243697118"><ele>5.714285714285714</ele><time>2026-04-19T07:03:06Z</time></trkpt><trkpt lat="43.31906013012144" lon="10.512407547588388"><ele>5.857142857142857</ele><time>2026-04-19T07:03:11Z</time></trkpt><trkpt lat="43.31900141920958" lon="10.512450530930057"><ele>6.0</ele><time>2026-04-19T07:03:15Z</time></trkpt><trkpt lat="43.3189441933323" lon="10.512493266951843"><ele>5.857142857142857</ele><time>2026-04-19T07:03:20Z</time></trkpt><trkpt lat="43.318872853187365" lon="10.512536367093976"><ele>5.714285714285714</ele><time>2026-04-19T07:03:25Z</time></trkpt><trkpt lat="43.31881269697345" lon="10.512568494007692"><ele>5.571428571428571</ele><time>2026-04-19T07:03:29Z</time></trkpt><trkpt lat="43.31874433225625" lon="10.512595522175175"><ele>5.428571428571429</ele><time>2026-04-19T07:03:33Z</time></trkpt><trkpt lat="43.31868218925172" lon="10.512625850537308"><ele>5.285714285714286</ele><time>2026-04-19T07:03:37Z</time></trkpt><trkpt lat="43.31860913215948" lon="10.512655591268338"><ele>5.142857142857142</ele><time>2026-04-19T07:03:42Z</time></trkpt><trkpt lat="43.318542005884666" lon="10.512689120107956"><ele>5.0</ele><time>2026-04-19T07:03:47Z</time></trkpt><trkpt lat="43.318476038441155" lon="10.512710467305977"><ele>5.0</ele><time>2026-04-19T07:03:52Z</time></trkpt><trkpt lat="43.31840547550611" lon="10.512741486183083"><ele>5.0</ele><time>2026-04-19T07:03:57Z</time></trkpt><trkpt lat="43.31833513938406" lon="10.512750182326648"><ele>5.0</ele><time>2026-04-19T07:04:02Z</time></trkpt><trkpt lat="43.31826732805924" lon="10.51278079463876"><ele>5.0</ele><time>2026-04-19T07:04:06Z</time></trkpt><trkpt lat="43.31820296156291" lon="10.51281296012659"><ele>5.0</ele><time>2026-04-19T07:04:10Z</time></trkpt><trkpt lat="43.31813738929973" lon="10.512839750948002"><ele>5.0</ele><time>2026-04-19T07:04:14Z</time></trkpt><trkpt lat="43.31807432190649" lon="10.512862258898235"><ele>5.0</ele><time>2026-04-19T07:04:18Z</time></trkpt><trkpt lat="43.31800123835129" lon="10.512896079477544"><ele>4.571428571428571</ele><time>2026-04-19T07:04:23Z</time></trkpt><trkpt lat="43.31793854065382" lon="10.512917248994405"><ele>4.142857142857143</ele><time>2026-04-19T07:04:27Z</time></trkpt><trkpt lat="43.317876387736966" lon="10.512945063079535"><ele>3.7142857142857144</ele><time>2026-04-19T07:04:31Z</time></trkpt><trkpt lat="43.317804083403246" lon="10.512978841885877"><ele>3.2857142857142856</ele><time>2026-04-19T07:04:36Z</time></trkpt><trkpt lat="43.31774163854945" lon="10.513000730767587"><ele>2.8571428571428568</ele><time>2026-04-19T07:04:40Z</time></trkpt><trkpt lat="43.31766784046746" lon="10.51302449614401"><ele>2.4285714285714284</ele><time>2026-04-19T07:04:45Z</time></trkpt><trkpt lat="43.3175891709695" lon="10.513049791518931"><ele>2.0</ele><time>2026-04-19T07:04:51Z</time></trkpt><trkpt lat="43.31752146501483" lon="10.513077664862298"><ele>2.0</ele><time>2026-04-19T07:04:56Z</time></trkpt><trkpt lat="43.31744804737433" lon="10.513105181678037"><ele>1.9999999999999998</ele><time>2026-04-19T07:05:01Z</time></trkpt><trkpt lat="43.31738049294002" lon="10.513132677291312"><ele>2.0</ele><time>2026-04-19T07:05:06Z</time></trkpt><trkpt lat="43.3173091058899" lon="10.513153477029428"><ele>2.0</ele><time>2026-04-19T07:05:11Z</time></trkpt><trkpt lat="43.31724613373447" lon="10.513170425615856"><ele>1.9999999999999998</ele><time>2026-04-19T07:05:15Z</time></trkpt><trkpt lat="43.31718604937581" lon="10.51319690145469"><ele>2.0</ele><time>2026-04-19T07:05:19Z</time></trkpt><trkpt lat="43.317118536940676" lon="10.513216084649867"><ele>2.0</ele><time>2026-04-19T07:05:24Z</time></trkpt><trkpt lat="43.31705101540143" lon="10.51324437592246"><ele>2.142857142857143</ele><time>2026-04-19T07:05:28Z</time></trkpt><trkpt lat="43.31699453831503" lon="10.513283101465035"><ele>2.2857142857142856</ele><time>2026-04-19T07:05:32Z</time></trkpt><trkpt lat="43.316922065740215" lon="10.513323201980619"><ele>2.4285714285714284</ele><time>2026-04-19T07:05:36Z</time></trkpt><trkpt lat="43.31685342264679" lon="10.513349948634337"><ele>2.571428571428571</ele><time>2026-04-19T07:05:40Z</time></trkpt><trkpt lat="43.316782079730935" lon="10.513376247512019"><ele>2.7142857142857144</ele><time>2026-04-19T07:05:44Z</time></trkpt><trkpt lat="43.31671355364915" lon="10.513403234339755"><ele>2.8571428571428568</ele><time>2026-04-19T07:05:48Z</time></trkpt><trkpt lat="43.31664815181835" lon="10.513430448984739"><ele>3.0</ele><time>2026-04-19T07:05:52Z</time></trkpt><trkpt lat="43.31658648069627" lon="10.513460317182851"><ele>2.9999999999999996</ele><time>2026-04-19T07:05:57Z</time></trkpt><trkpt lat="43.3165249604591" lon="10.513492603279742"><ele>3.0</ele><time>2026-04-19T07:06:04Z</time></trkpt><trkpt lat="43.3164570816654" lon="10.513513853364167"><ele>3.0</ele><time>2026-04-19T07:06:08Z</time></trkpt><trkpt lat="43.316388480440914" lon="10.5135305387714"><ele>3.0</ele><time>2026-04-19T07:06:12Z</time></trkpt><trkpt lat="43.316319120288" lon="10.513550273606315"><ele>3.0</ele><time>2026-04-19T07:06:16Z</time></trkpt><trkpt lat="43.31624116893916" lon="10.513572717456809"><ele>2.9999999999999996</ele><time>2026-04-19T07:06:21Z</time></trkpt><trkpt lat="43.316180007021" lon="10.513593400765776"><ele>3.0</ele><time>2026-04-19T07:06:25Z</time></trkpt><trkpt lat="43.31611846848626" lon="10.513623671470267"><ele>3.1428571428571423</ele><time>2026-04-19T07:06:29Z</time></trkpt><trkpt lat="43.31604607423482" lon="10.513658774167864"><ele>3.2857142857142856</ele><time>2026-04-19T07:06:33Z</time></trkpt><trkpt lat="43.31598697406304" lon="10.513692600195533"><ele>3.4285714285714284</ele><time>2026-04-19T07:06:37Z</time></trkpt><trkpt lat="43.315917932144785" lon="10.513730726896657"><ele>3.571428571428571</ele><time>2026-04-19T07:06:42Z</time></trkpt><trkpt lat="43.31585090905776" lon="10.513755336093952"><ele>3.714285714285714</ele><time>2026-04-19T07:06:46Z</time></trkpt><trkpt lat="43.31579113169893" lon="10.51379709883226"><ele>3.8571428571428568</ele><time>2026-04-19T07:06:50Z</time></trkpt><trkpt lat="43.315740307492206" lon="10.513849477576471"><ele>4.0</ele><time>2026-04-19T07:06:55Z</time></trkpt><trkpt lat="43.31567787953127" lon="10.513879422234146"><ele>4.142857142857142</ele><time>2026-04-19T07:06:58Z</time></trkpt><trkpt lat="43.31561411189454" lon="10.513933045930678"><ele>4.285714285714286</ele><time>2026-04-19T07:07:03Z</time></trkpt><trkpt lat="43.31555946301572" lon="10.513979560895578"><ele>4.428571428571429</ele><time>2026-04-19T07:07:07Z</time></trkpt><trkpt lat="43.315518961387454" lon="10.514048325197333"><ele>4.571428571428571</ele><time>2026-04-19T07:07:14Z</time></trkpt><trkpt lat="43.31545008191654" lon="10.514102062479036"><ele>4.714285714285714</ele><time>2026-04-19T07:07:19Z</time></trkpt><trkpt lat="43.31538967984522" lon="10.514153062631756"><ele>4.857142857142857</ele><time>2026-04-19T07:07:24Z</time></trkpt><trkpt lat="43.315328567892244" lon="10.514210247535763"><ele>5.0</ele><time>2026-04-19T07:07:29Z</time></trkpt><trkpt lat="43.315271483398234" lon="10.51425808517604"><ele>5.0</ele><time>2026-04-19T07:07:33Z</time></trkpt><trkpt lat="43.3152022708414" lon="10.514304671374047"><ele>5.0</ele><time>2026-04-19T07:07:37Z</time></trkpt><trkpt lat="43.315141673363826" lon="10.514336245953816"><ele>5.0</ele><time>2026-04-19T07:07:40Z</time></trkpt><trkpt lat="43.315076429305655" lon="10.514385641037043"><ele>5.0</ele><time>2026-04-19T07:07:44Z</time></trkpt><trkpt lat="43.315013676114" lon="10.514438707963068"><ele>5.0</ele><time>2026-04-19T07:07:49Z</time></trkpt><trkpt lat="43.31494625714357" lon="10.514491091717927"><ele>5.0</ele><time>2026-04-19T07:07:54Z</time></trkpt><trkpt lat="43.31488976621112" lon="10.514541117227454"><ele>5.0</ele><time>2026-04-19T07:07:58Z</time></trkpt><trkpt lat="43.31483572133955" lon="10.514586465083141"><ele>4.857142857142857</ele><time>2026-04-19T07:08:02Z</time></trkpt><trkpt lat="43.31477310438818" lon="10.514633687309448"><ele>4.714285714285714</ele><time>2026-04-19T07:08:07Z</time></trkpt><trkpt lat="43.31471631883989" lon="10.514677665267062"><ele>4.571428571428571</ele><time>2026-04-19T07:08:13Z</time></trkpt><trkpt lat="43.31465454259306" lon="10.514732308450215"><ele>4.428571428571429</ele><time>2026-04-19T07:08:18Z</time></trkpt><trkpt lat="43.314590795418724" lon="10.514772463864913"><ele>4.285714285714286</ele><time>2026-04-19T07:08:24Z</time></trkpt><trkpt lat="43.31453899010866" lon="10.514821906279955"><ele>4.142857142857142</ele><time>2026-04-19T07:08:29Z</time></trkpt><trkpt lat="43.31447230606948" lon="10.514811546743895"><ele>4.0</ele><time>2026-04-19T07:08:38Z</time></trkpt><trkpt lat="43.314400123278446" lon="10.514817075117302"><ele>4.714285714285714</ele><time>2026-04-19T07:08:46Z</time></trkpt><trkpt lat="43.314335202364184" lon="10.514874505080034"><ele>5.428571428571429</ele><time>2026-04-19T07:08:51Z</time></trkpt><trkpt lat="43.31429074712811" lon="10.514938255568106"><ele>6.142857142857143</ele><time>2026-04-19T07:08:58Z</time></trkpt><trkpt lat="43.314265125116165" lon="10.515037603391567"><ele>6.857142857142858</ele><time>2026-04-19T07:09:04Z</time></trkpt><trkpt lat="43.31420023502949" lon="10.515086060390752"><ele>7.571428571428571</ele><time>2026-04-19T07:09:09Z</time></trkpt><trkpt lat="43.31414265119259" lon="10.515161225627596"><ele>8.285714285714286</ele><time>2026-04-19T07:09:14Z</time></trkpt><trkpt lat="43.31408199458176" lon="10.515210104824238"><ele>9.0</ele><time>2026-04-19T07:09:18Z</time></trkpt><trkpt lat="43.31401026710197" lon="10.515227066882803"><ele>9.000000000000002</ele><time>2026-04-19T07:09:24Z</time></trkpt><trkpt lat="43.31394012764064" lon="10.5152399140824"><ele>9.0</ele><time>2026-04-19T07:09:28Z</time></trkpt><trkpt lat="43.31389283703135" lon="10.515316062411145"><ele>9.0</ele><time>2026-04-19T07:09:33Z</time></trkpt><trkpt lat="43.313855876427134" lon="10.515412878912615"><ele>9.0</ele><time>2026-04-19T07:09:37Z</time></trkpt><trkpt lat="43.313799864689514" lon="10.515473829726458"><ele>9.0</ele><time>2026-04-19T07:09:41Z</time></trkpt><trkpt lat="43.313741371751995" lon="10.515513774382672"><ele>9.000000000000002</ele><time>2026-04-19T07:09:45Z</time></trkpt><trkpt lat="43.313672045450645" lon="10.515517572839258"><ele>9.0</ele><time>2026-04-19T07:09:53Z</time></trkpt><trkpt lat="43.313647995149005" lon="10.515598776901781"><ele>9.428571428571429</ele><time>2026-04-19T07:10:01Z</time></trkpt><trkpt lat="43.31357874209323" lon="10.515542436103921"><ele>9.857142857142858</ele><time>2026-04-19T07:10:08Z</time></trkpt><trkpt lat="43.31351787449466" lon="10.51557227666843"><ele>10.285714285714285</ele><time>2026-04-19T07:10:13Z</time></trkpt><trkpt lat="43.31346194643961" lon="10.515621911451555"><ele>10.714285714285715</ele><time>2026-04-19T07:10:16Z</time></trkpt><trkpt lat="43.3134024070196" lon="10.515661468560412"><ele>11.142857142857142</ele><time>2026-04-19T07:10:19Z</time></trkpt><trkpt lat="43.31333985381043" lon="10.515680840130841"><ele>11.571428571428571</ele><time>2026-04-19T07:10:22Z</time></trkpt><trkpt lat="43.313285785170414" lon="10.515729573992468"><ele>12.0</ele><time>2026-04-19T07:10:29Z</time></trkpt><trkpt lat="43.31322767825348" lon="10.515777734207026"><ele>11.999999999999998</ele><time>2026-04-19T07:10:32Z</time></trkpt><trkpt lat="43.31317337809083" lon="10.515837165932563"><ele>12.0</ele><time>2026-04-19T07:10:35Z</time></trkpt><trkpt lat="43.31312456706611" lon="10.515915144165728"><ele>12.0</ele><time>2026-04-19T07:10:38Z</time></trkpt><trkpt lat="43.31308591631968" lon="10.51600731363882"><ele>12.0</ele><time>2026-04-19T07:10:43Z</time></trkpt><trkpt lat="43.31303313493678" lon="10.516067720221894"><ele>12.0</ele><time>2026-04-19T07:10:48Z</time></trkpt><trkpt lat="43.31297303651742" lon="10.516109596375435"><ele>11.999999999999998</ele><time>2026-04-19T07:12:04Z</time></trkpt><trkpt lat="43.31293202972959" lon="10.516185189048768"><ele>12.0</ele><time>2026-04-19T07:12:16Z</time></trkpt><trkpt lat="43.31286617499666" lon="10.516199908755286"><ele>12.333333333333334</ele><time>2026-04-19T07:12:20Z</time></trkpt><trkpt lat="43.312835045955254" lon="10.516283375991419"><ele>12.666666666666668</ele><time>2026-04-19T07:12:26Z</time></trkpt><trkpt lat="43.31281181354914" lon="10.516367983937242"><ele>13.0</ele><time>2026-04-19T07:12:35Z</time></trkpt><trkpt lat="43.312741047584296" lon="10.516398118358739"><ele>13.333333333333334</ele><time>2026-04-19T07:12:40Z</time></trkpt><trkpt lat="43.312670707321544" lon="10.5164419983989"><ele>13.666666666666668</ele><time>2026-04-19T07:12:45Z</time></trkpt><trkpt lat="43.31258494402747" lon="10.516468653350708"><ele>14.0</ele><time>2026-04-19T07:12:49Z</time></trkpt><trkpt lat="43.31250895391613" lon="10.516495951744579"><ele>14.0</ele><time>2026-04-19T07:12:53Z</time></trkpt><trkpt lat="43.312445960225766" lon="10.516523759595195"><ele>14.0</ele><time>2026-04-19T07:12:57Z</time></trkpt><trkpt lat="43.31237694086962" lon="10.516561945899484"><ele>14.0</ele><time>2026-04-19T07:13:01Z</time></trkpt><trkpt lat="43.312312264165335" lon="10.516606198974102"><ele>14.0</ele><time>2026-04-19T07:13:05Z</time></trkpt><trkpt lat="43.312249215051835" lon="10.516641071967827"><ele>14.0</ele><time>2026-04-19T07:13:10Z</time></trkpt><trkpt lat="43.3121986143771" lon="10.516703574740903"><ele>14.0</ele><time>2026-04-19T07:13:15Z</time></trkpt><trkpt lat="43.312182539751696" lon="10.516795546386513"><ele>14.0</ele><time>2026-04-19T07:13:20Z</time></trkpt><trkpt lat="43.31217238460882" lon="10.51689884698238"><ele>14.142857142857142</ele><time>2026-04-19T07:13:24Z</time></trkpt><trkpt lat="43.31212137206958" lon="10.516971622438593"><ele>14.285714285714285</ele><time>2026-04-19T07:13:30Z</time></trkpt><trkpt lat="43.31206763545843" lon="10.517023803982582"><ele>14.428571428571429</ele><time>2026-04-19T07:13:35Z</time></trkpt><trkpt lat="43.31200211354411" lon="10.517069056793092"><ele>14.571428571428571</ele><time>2026-04-19T07:13:39Z</time></trkpt><trkpt lat="43.31192697003932" lon="10.517075766124758"><ele>14.714285714285714</ele><time>2026-04-19T07:13:43Z</time></trkpt><trkpt lat="43.31185703489589" lon="10.517106566513007"><ele>14.857142857142858</ele><time>2026-04-19T07:13:48Z</time></trkpt><trkpt lat="43.31178988337467" lon="10.51715351961098"><ele>15.0</ele><time>2026-04-19T07:13:53Z</time></trkpt><trkpt lat="43.311727690446354" lon="10.517193202617337"><ele>15.142857142857142</ele><time>2026-04-19T07:13:58Z</time></trkpt><trkpt lat="43.311655786274876" lon="10.517218313115059"><ele>15.285714285714285</ele><time>2026-04-19T07:14:03Z</time></trkpt><trkpt lat="43.311594518825" lon="10.51723870786592"><ele>15.428571428571427</ele><time>2026-04-19T07:14:07Z</time></trkpt><trkpt lat="43.31152837437253" lon="10.517281613016738"><ele>15.571428571428571</ele><time>2026-04-19T07:14:12Z</time></trkpt><trkpt lat="43.31147698346317" lon="10.51734072763624"><ele>15.714285714285712</ele><time>2026-04-19T07:14:18Z</time></trkpt><trkpt lat="43.31144688153175" lon="10.517417509781051"><ele>15.857142857142856</ele><time>2026-04-19T07:14:31Z</time></trkpt><trkpt lat="43.311381703103" lon="10.517447177185748"><ele>16.0</ele><time>2026-04-19T07:14:37Z</time></trkpt><trkpt lat="43.311312930198255" lon="10.517488418501172"><ele>16.0</ele><time>2026-04-19T07:14:42Z</time></trkpt><trkpt lat="43.31124982578325" lon="10.51754079625482"><ele>15.999999999999998</ele><time>2026-04-19T07:14:46Z</time></trkpt><trkpt lat="43.31117049250724" lon="10.517576932515905"><ele>16.0</ele><time>2026-04-19T07:14:49Z</time></trkpt><trkpt lat="43.31110546909434" lon="10.517608071904109"><ele>16.0</ele><time>2026-04-19T07:14:52Z</time></trkpt><trkpt lat="43.31103745685155" lon="10.517646537711748"><ele>15.999999999999998</ele><time>2026-04-19T07:14:55Z</time></trkpt><trkpt lat="43.31096735933082" lon="10.517673374909535"><ele>16.0</ele><time>2026-04-19T07:14:59Z</time></trkpt><trkpt lat="43.310895743913775" lon="10.517670352852525"><ele>16.0</ele><time>2026-04-19T07:15:04Z</time></trkpt><trkpt lat="43.31084783434883" lon="10.517727282006943"><ele>15.999999999999998</ele><time>2026-04-19T07:15:10Z</time></trkpt><trkpt lat="43.31079535569379" lon="10.517795576994034"><ele>16.0</ele><time>2026-04-19T07:15:18Z</time></trkpt><trkpt lat="43.31073113629842" lon="10.517856754434364"><ele>16.0</ele><time>2026-04-19T07:15:23Z</time></trkpt><trkpt lat="43.31067169907075" lon="10.517926548474087"><ele>16.0</ele><time>2026-04-19T07:15:27Z</time></trkpt><trkpt lat="43.31061272103081" lon="10.517972946386829"><ele>15.999999999999998</ele><time>2026-04-19T07:15:30Z</time></trkpt><trkpt lat="43.310532455603585" lon="10.518015688519693"><ele>16.0</ele><time>2026-04-19T07:15:34Z</time></trkpt><trkpt lat="43.31046689157595" lon="10.518044988095053"><ele>16.285714285714285</ele><time>2026-04-19T07:15:38Z</time></trkpt><trkpt lat="43.31040269087788" lon="10.518040390869562"><ele>16.57142857142857</ele><time>2026-04-19T07:15:43Z</time></trkpt><trkpt lat="43.31035461842659" lon="10.518113263960494"><ele>16.857142857142858</ele><time>2026-04-19T07:15:50Z</time></trkpt><trkpt lat="43.31031911415699" lon="10.51819917361826"><ele>17.142857142857142</ele><time>2026-04-19T07:15:56Z</time></trkpt><trkpt lat="43.310248271604046" lon="10.518191496510042"><ele>17.42857142857143</ele><time>2026-04-19T07:15:59Z</time></trkpt><trkpt lat="43.310179025728324" lon="10.518202493054348"><ele>17.714285714285715</ele><time>2026-04-19T07:16:04Z</time></trkpt><trkpt lat="43.310115289825134" lon="10.518185440185224"><ele>18.0</ele><time>2026-04-19T07:16:10Z</time></trkpt><trkpt lat="43.31004832293631" lon="10.51820518767364"><ele>18.000000000000004</ele><time>2026-04-19T07:16:16Z</time></trkpt><trkpt lat="43.3099817799377" lon="10.518186176049431"><ele>18.0</ele><time>2026-04-19T07:16:20Z</time></trkpt><trkpt lat="43.30991593703005" lon="10.518157512774195"><ele>18.0</ele><time>2026-04-19T07:16:25Z</time></trkpt><trkpt lat="43.30984867319153" lon="10.51813382741577"><ele>18.0</ele><time>2026-04-19T07:16:28Z</time></trkpt><trkpt lat="43.30980405760516" lon="10.518204184417092"><ele>18.0</ele><time>2026-04-19T07:16:31Z</time></trkpt><trkpt lat="43.30976556088019" lon="10.518287728617434"><ele>18.000000000000004</ele><time>2026-04-19T07:16:34Z</time></trkpt><trkpt lat="43.30971307852461" lon="10.51834513069882"><ele>18.0</ele><time>2026-04-19T07:16:38Z</time></trkpt><trkpt lat="43.309652036119665" lon="10.518393047034316"><ele>17.142857142857146</ele><time>2026-04-19T07:16:44Z</time></trkpt><trkpt lat="43.309583497186004" lon="10.518425312388404"><ele>16.285714285714285</ele><time>2026-04-19T07:16:58Z</time></trkpt><trkpt lat="43.3094981004141" lon="10.518432440541968"><ele>15.428571428571429</ele><time>2026-04-19T07:17:01Z</time></trkpt><trkpt lat="43.30943633994351" lon="10.518484945405605"><ele>14.571428571428573</ele><time>2026-04-19T07:17:04Z</time></trkpt><trkpt lat="43.309393671719775" lon="10.518555745913229"><ele>13.714285714285715</ele><time>2026-04-19T07:17:07Z</time></trkpt><trkpt lat="43.309338129971856" lon="10.518626391113635"><ele>12.857142857142856</ele><time>2026-04-19T07:17:12Z</time></trkpt><trkpt lat="43.309292628693775" lon="10.518702727498212"><ele>12.0</ele><time>2026-04-19T07:17:17Z</time></trkpt><trkpt lat="43.30934659114472" lon="10.518759873973353"><ele>11.857142857142856</ele><time>2026-04-19T07:17:25Z</time></trkpt><trkpt lat="43.309356400118105" lon="10.518846023915204"><ele>11.714285714285714</ele><time>2026-04-19T07:17:34Z</time></trkpt><trkpt lat="43.30937603703046" lon="10.518937229564983"><ele>11.571428571428571</ele><time>2026-04-19T07:17:43Z</time></trkpt><trkpt lat="43.309406238158154" lon="10.519036211152711"><ele>11.428571428571427</ele><time>2026-04-19T07:17:47Z</time></trkpt><trkpt lat="43.30943818747375" lon="10.51912800977175"><ele>11.285714285714285</ele><time>2026-04-19T07:17:49Z</time></trkpt><trkpt lat="43.30938906386927" lon="10.519219684260301"><ele>11.142857142857142</ele><time>2026-04-19T07:17:53Z</time></trkpt><trkpt lat="43.30937695338946" lon="10.519310533879311"><ele>11.0</ele><time>2026-04-19T07:17:57Z</time></trkpt><trkpt lat="43.30938977831291" lon="10.5193985751215"><ele>11.0</ele><time>2026-04-19T07:18:01Z</time></trkpt><trkpt lat="43.30940882529978" lon="10.519504051172433"><ele>11.0</ele><time>2026-04-19T07:18:06Z</time></trkpt><trkpt lat="43.30944178506648" lon="10.519591276668612"><ele>11.0</ele><time>2026-04-19T07:18:11Z</time></trkpt><trkpt lat="43.30947074148088" lon="10.519686084226334"><ele>11.0</ele><time>2026-04-19T07:18:16Z</time></trkpt><trkpt lat="43.30950312392482" lon="10.519777060015409"><ele>11.0</ele><time>2026-04-19T07:18:21Z</time></trkpt><trkpt lat="43.3095271429623" lon="10.51987021019122"><ele>11.0</ele><time>2026-04-19T07:18:26Z</time></trkpt><trkpt lat="43.30956784884034" lon="10.519937725806711"><ele>11.0</ele><time>2026-04-19T07:18:32Z</time></trkpt><trkpt lat="43.309604745083334" lon="10.520028039492326"><ele>11.142857142857142</ele><time>2026-04-19T07:18:38Z</time></trkpt><trkpt lat="43.30968160873181" lon="10.520049224494258"><ele>11.285714285714285</ele><time>2026-04-19T07:18:49Z</time></trkpt><trkpt lat="43.3096787394044" lon="10.520145523552713"><ele>11.428571428571427</ele><time>2026-04-19T07:18:56Z</time></trkpt><trkpt lat="43.30969950858396" lon="10.520243014530768"><ele>11.571428571428571</ele><time>2026-04-19T07:19:01Z</time></trkpt><trkpt lat="43.30969970007945" lon="10.520344335065621"><ele>11.714285714285714</ele><time>2026-04-19T07:19:06Z</time></trkpt><trkpt lat="43.30970684495382" lon="10.520432887083222"><ele>11.857142857142856</ele><time>2026-04-19T07:19:10Z</time></trkpt><trkpt lat="43.30973687249135" lon="10.520524252620438"><ele>12.0</ele><time>2026-04-19T07:19:13Z</time></trkpt><trkpt lat="43.30976301938237" lon="10.520615311749154"><ele>12.142857142857142</ele><time>2026-04-19T07:19:17Z</time></trkpt><trkpt lat="43.309802917703934" lon="10.520718933379518"><ele>12.285714285714285</ele><time>2026-04-19T07:19:21Z</time></trkpt><trkpt lat="43.30983686353016" lon="10.520810058789117"><ele>12.428571428571427</ele><time>2026-04-19T07:19:25Z</time></trkpt><trkpt lat="43.30989279180055" lon="10.520876560228583"><ele>12.571428571428571</ele><time>2026-04-19T07:19:29Z</time></trkpt><trkpt lat="43.30991360293496" lon="10.520960405521361"><ele>12.714285714285715</ele><time>2026-04-19T07:19:35Z</time></trkpt><trkpt lat="43.309945765442265" lon="10.521053403506471"><ele>12.857142857142856</ele><time>2026-04-19T07:19:39Z</time></trkpt><trkpt lat="43.309931966199876" lon="10.5211413130961"><ele>13.0</ele><time>2026-04-19T07:19:43Z</time></trkpt><trkpt lat="43.30992380811654" lon="10.521230601905815"><ele>12.999999999999998</ele><time>2026-04-19T07:19:49Z</time></trkpt><trkpt lat="43.30995386207382" lon="10.521330590007402"><ele>13.0</ele><time>2026-04-19T07:19:53Z</time></trkpt><trkpt lat="43.310000644077505" lon="10.521410827288413"><ele>13.0</ele><time>2026-04-19T07:19:56Z</time></trkpt><trkpt lat="43.31003564247382" lon="10.521510627370064"><ele>13.0</ele><time>2026-04-19T07:20:00Z</time></trkpt><trkpt lat="43.310070445642985" lon="10.521613398947016"><ele>12.999999999999998</ele><time>2026-04-19T07:20:04Z</time></trkpt><trkpt lat="43.310094370284574" lon="10.521700544136884"><ele>13.0</ele><time>2026-04-19T07:20:09Z</time></trkpt><trkpt lat="43.3100855242249" lon="10.521794654298448"><ele>13.0</ele><time>2026-04-19T07:20:17Z</time></trkpt><trkpt lat="43.31010442169182" lon="10.52188269039717"><ele>13.0</ele><time>2026-04-19T07:20:22Z</time></trkpt><trkpt lat="43.31013354028526" lon="10.521962273316193"><ele>13.0</ele><time>2026-04-19T07:20:27Z</time></trkpt><trkpt lat="43.31016842639196" lon="10.522044054793872"><ele>13.0</ele><time>2026-04-19T07:20:32Z</time></trkpt><trkpt lat="43.31020506777594" lon="10.522136847750886"><ele>13.0</ele><time>2026-04-19T07:20:37Z</time></trkpt><trkpt lat="43.31021800804293" lon="10.522241058366559"><ele>13.0</ele><time>2026-04-19T07:20:42Z</time></trkpt><trkpt lat="43.31022853628542" lon="10.522335164358285"><ele>13.0</ele><time>2026-04-19T07:20:46Z</time></trkpt><trkpt lat="43.31025542640278" lon="10.522416965005512"><ele>13.0</ele><time>2026-04-19T07:20:52Z</time></trkpt><trkpt lat="43.310293810803564" lon="10.522511866948221"><ele>13.0</ele><time>2026-04-19T07:20:58Z</time></trkpt><trkpt lat="43.31031999818493" lon="10.522604975407528"><ele>13.0</ele><time>2026-04-19T07:21:03Z</time></trkpt><trkpt lat="43.310347103270686" lon="10.522697461983851"><ele>13.0</ele><time>2026-04-19T07:21:07Z</time></trkpt><trkpt lat="43.31034939579487" lon="10.522789750154528"><ele>13.0</ele><time>2026-04-19T07:21:12Z</time></trkpt><trkpt lat="43.310319732884814" lon="10.522871401182565"><ele>13.0</ele><time>2026-04-19T07:21:17Z</time></trkpt><trkpt lat="43.31035351424841" lon="10.52294599948923"><ele>13.0</ele><time>2026-04-19T07:21:21Z</time></trkpt><trkpt lat="43.31039745457149" lon="10.523038537384213"><ele>13.0</ele><time>2026-04-19T07:21:25Z</time></trkpt><trkpt lat="43.3104225395726" lon="10.523124875788831"><ele>13.0</ele><time>2026-04-19T07:21:29Z</time></trkpt><trkpt lat="43.310451717983035" lon="10.523212333419814"><ele>13.0</ele><time>2026-04-19T07:21:33Z</time></trkpt><trkpt lat="43.31049495949659" lon="10.523293165648846"><ele>13.0</ele><time>2026-04-19T07:21:42Z</time></trkpt><trkpt lat="43.310493257553304" lon="10.523390038725568"><ele>13.0</ele><time>2026-04-19T07:21:46Z</time></trkpt><trkpt lat="43.310502226520974" lon="10.52347929428222"><ele>13.0</ele><time>2026-04-19T07:21:51Z</time></trkpt><trkpt lat="43.31056382805845" lon="10.523503024645546"><ele>13.0</ele><time>2026-04-19T07:21:59Z</time></trkpt><trkpt lat="43.31062515759301" lon="10.52353703849038"><ele>13.285714285714285</ele><time>2026-04-19T07:22:03Z</time></trkpt><trkpt lat="43.31069124955211" lon="10.523505803548959"><ele>13.571428571428573</ele><time>2026-04-19T07:22:08Z</time></trkpt><trkpt lat="43.310765277010304" lon="10.52347040301647"><ele>13.857142857142858</ele><time>2026-04-19T07:22:13Z</time></trkpt><trkpt lat="43.31082396725446" lon="10.52343559053896"><ele>14.142857142857142</ele><time>2026-04-19T07:22:17Z</time></trkpt><trkpt lat="43.310899251403875" lon="10.52340254739676"><ele>14.428571428571427</ele><time>2026-04-19T07:22:22Z</time></trkpt><trkpt lat="43.31097217438307" lon="10.52336209447223"><ele>14.714285714285715</ele><time>2026-04-19T07:22:27Z</time></trkpt><trkpt lat="43.311036868158766" lon="10.523327183981836"><ele>15.0</ele><time>2026-04-19T07:22:31Z</time></trkpt><trkpt lat="43.31110478340487" lon="10.52326701076394"><ele>15.0</ele><time>2026-04-19T07:22:36Z</time></trkpt><trkpt lat="43.31116334163419" lon="10.52321493813602"><ele>15.0</ele><time>2026-04-19T07:22:41Z</time></trkpt><trkpt lat="43.311236979290356" lon="10.52318267117802"><ele>15.0</ele><time>2026-04-19T07:22:46Z</time></trkpt><trkpt lat="43.311308259218336" lon="10.523153110570446"><ele>15.0</ele><time>2026-04-19T07:22:52Z</time></trkpt><trkpt lat="43.31137235582404" lon="10.523195426150535"><ele>15.0</ele><time>2026-04-19T07:23:11Z</time></trkpt><trkpt lat="43.31143658375715" lon="10.523192022328546"><ele>18.0</ele><time>2026-04-19T07:23:15Z</time></trkpt></trkseg></trk></gpx>